<?xml version="1.0" encoding="UTF-8" standalone="no" ?>
<gpx xmlns="http://www.topografix.com/GPX/1/1" xmlns:xsi="http://www.w3.org/2001/XMLSchema-instance" xsi:schemaLocation="http://www.topografix.com/GPX/1/1 http://www.topografix.com/GPX/1/1/gpx.xsd" version="1.1" creator="VisuGPX - https://www.visugpx.com">
  <metadata>
    <name>Valempoulières,Le tour des Moidons,La Madonne,Les Erennes,Essai.i,</name>
  </metadata>
  <trk>
    <name><![CDATA[Valempoulières,Le tour des Moidons,La Madonne,Les Erennes,Essai.i,_1]]></name>
    <trkseg>
      <trkpt lat="46.83455" lon="5.8701">
        <ele>658.4</ele>
        <time>2020-07-04T11:51:50Z</time>
      </trkpt>
      <trkpt lat="46.83458" lon="5.87016">
        <ele>660.9</ele>
        <time>2020-07-04T11:51:53Z</time>
      </trkpt>
      <trkpt lat="46.83464" lon="5.87016">
        <ele>665.3</ele>
        <time>2020-07-04T11:52:00Z</time>
      </trkpt>
      <trkpt lat="46.83471" lon="5.87012">
        <ele>661.6</ele>
        <time>2020-07-04T11:52:39Z</time>
      </trkpt>
      <trkpt lat="46.83482" lon="5.87011">
        <ele>661.3</ele>
        <time>2020-07-04T11:53:01Z</time>
      </trkpt>
      <trkpt lat="46.83497" lon="5.87017">
        <ele>659.7</ele>
        <time>2020-07-04T11:53:11Z</time>
      </trkpt>
      <trkpt lat="46.83502" lon="5.87021">
        <ele>659.3</ele>
        <time>2020-07-04T11:53:16Z</time>
      </trkpt>
      <trkpt lat="46.83506" lon="5.87024">
        <ele>659.4</ele>
        <time>2020-07-04T11:53:20Z</time>
      </trkpt>
      <trkpt lat="46.8351" lon="5.87027">
        <ele>659.6</ele>
        <time>2020-07-04T11:53:25Z</time>
      </trkpt>
      <trkpt lat="46.83515" lon="5.87028">
        <ele>659.4</ele>
        <time>2020-07-04T11:53:29Z</time>
      </trkpt>
      <trkpt lat="46.8352" lon="5.87029">
        <ele>658.9</ele>
        <time>2020-07-04T11:53:34Z</time>
      </trkpt>
      <trkpt lat="46.83525" lon="5.8703">
        <ele>658.7</ele>
        <time>2020-07-04T11:53:38Z</time>
      </trkpt>
      <trkpt lat="46.8353" lon="5.87029">
        <ele>659</ele>
        <time>2020-07-04T11:53:43Z</time>
      </trkpt>
      <trkpt lat="46.83535" lon="5.87029">
        <ele>659.7</ele>
        <time>2020-07-04T11:53:48Z</time>
      </trkpt>
      <trkpt lat="46.8354" lon="5.87027">
        <ele>660.9</ele>
        <time>2020-07-04T11:53:54Z</time>
      </trkpt>
      <trkpt lat="46.83545" lon="5.87027">
        <ele>662.1</ele>
        <time>2020-07-04T11:53:59Z</time>
      </trkpt>
      <trkpt lat="46.8355" lon="5.87026">
        <ele>663.2</ele>
        <time>2020-07-04T11:54:04Z</time>
      </trkpt>
      <trkpt lat="46.83555" lon="5.87023">
        <ele>664.6</ele>
        <time>2020-07-04T11:54:10Z</time>
      </trkpt>
      <trkpt lat="46.8356" lon="5.87022">
        <ele>666</ele>
        <time>2020-07-04T11:54:16Z</time>
      </trkpt>
      <trkpt lat="46.83565" lon="5.8702">
        <ele>667.5</ele>
        <time>2020-07-04T11:54:22Z</time>
      </trkpt>
      <trkpt lat="46.8357" lon="5.87018">
        <ele>668.9</ele>
        <time>2020-07-04T11:54:29Z</time>
      </trkpt>
      <trkpt lat="46.83575" lon="5.87017">
        <ele>669.4</ele>
        <time>2020-07-04T11:54:33Z</time>
      </trkpt>
      <trkpt lat="46.83579" lon="5.87015">
        <ele>669.7</ele>
        <time>2020-07-04T11:54:41Z</time>
      </trkpt>
      <trkpt lat="46.83584" lon="5.87011">
        <ele>669.4</ele>
        <time>2020-07-04T11:54:48Z</time>
      </trkpt>
      <trkpt lat="46.83589" lon="5.87009">
        <ele>668.9</ele>
        <time>2020-07-04T11:54:52Z</time>
      </trkpt>
      <trkpt lat="46.83595" lon="5.8701">
        <ele>668</ele>
        <time>2020-07-04T11:54:58Z</time>
      </trkpt>
      <trkpt lat="46.83599" lon="5.8701">
        <ele>667.2</ele>
        <time>2020-07-04T11:55:03Z</time>
      </trkpt>
      <trkpt lat="46.83604" lon="5.87011">
        <ele>666.7</ele>
        <time>2020-07-04T11:55:08Z</time>
      </trkpt>
      <trkpt lat="46.8361" lon="5.87011">
        <ele>666</ele>
        <time>2020-07-04T11:55:14Z</time>
      </trkpt>
      <trkpt lat="46.83615" lon="5.87012">
        <ele>665.7</ele>
        <time>2020-07-04T11:55:20Z</time>
      </trkpt>
      <trkpt lat="46.83619" lon="5.87015">
        <ele>665.6</ele>
        <time>2020-07-04T11:55:24Z</time>
      </trkpt>
      <trkpt lat="46.83624" lon="5.87018">
        <ele>665.3</ele>
        <time>2020-07-04T11:55:29Z</time>
      </trkpt>
      <trkpt lat="46.83628" lon="5.87021">
        <ele>664.8</ele>
        <time>2020-07-04T11:55:34Z</time>
      </trkpt>
      <trkpt lat="46.83632" lon="5.87025">
        <ele>664.1</ele>
        <time>2020-07-04T11:55:40Z</time>
      </trkpt>
      <trkpt lat="46.83636" lon="5.87029">
        <ele>663.7</ele>
        <time>2020-07-04T11:55:44Z</time>
      </trkpt>
      <trkpt lat="46.8364" lon="5.87033">
        <ele>663.1</ele>
        <time>2020-07-04T11:55:50Z</time>
      </trkpt>
      <trkpt lat="46.83644" lon="5.87039">
        <ele>662.8</ele>
        <time>2020-07-04T11:55:56Z</time>
      </trkpt>
      <trkpt lat="46.83647" lon="5.87044">
        <ele>662.7</ele>
        <time>2020-07-04T11:56:00Z</time>
      </trkpt>
      <trkpt lat="46.83651" lon="5.87049">
        <ele>662.6</ele>
        <time>2020-07-04T11:56:04Z</time>
      </trkpt>
      <trkpt lat="46.83656" lon="5.87054">
        <ele>662.4</ele>
        <time>2020-07-04T11:56:09Z</time>
      </trkpt>
      <trkpt lat="46.83659" lon="5.87059">
        <ele>661.9</ele>
        <time>2020-07-04T11:56:15Z</time>
      </trkpt>
      <trkpt lat="46.83662" lon="5.87064">
        <ele>661.5</ele>
        <time>2020-07-04T11:56:20Z</time>
      </trkpt>
      <trkpt lat="46.83666" lon="5.8707">
        <ele>661.4</ele>
        <time>2020-07-04T11:56:25Z</time>
      </trkpt>
      <trkpt lat="46.83669" lon="5.87076">
        <ele>661.6</ele>
        <time>2020-07-04T11:56:30Z</time>
      </trkpt>
      <trkpt lat="46.83672" lon="5.87082">
        <ele>661.8</ele>
        <time>2020-07-04T11:56:34Z</time>
      </trkpt>
      <trkpt lat="46.83676" lon="5.87086">
        <ele>662.1</ele>
        <time>2020-07-04T11:56:38Z</time>
      </trkpt>
      <trkpt lat="46.8368" lon="5.8709">
        <ele>662.5</ele>
        <time>2020-07-04T11:56:42Z</time>
      </trkpt>
      <trkpt lat="46.83685" lon="5.87092">
        <ele>662.9</ele>
        <time>2020-07-04T11:56:47Z</time>
      </trkpt>
      <trkpt lat="46.8369" lon="5.87095">
        <ele>663.3</ele>
        <time>2020-07-04T11:56:52Z</time>
      </trkpt>
      <trkpt lat="46.83694" lon="5.871">
        <ele>663.6</ele>
        <time>2020-07-04T11:56:58Z</time>
      </trkpt>
      <trkpt lat="46.83699" lon="5.87104">
        <ele>663.8</ele>
        <time>2020-07-04T11:57:03Z</time>
      </trkpt>
      <trkpt lat="46.83702" lon="5.87109">
        <ele>664</ele>
        <time>2020-07-04T11:57:10Z</time>
      </trkpt>
      <trkpt lat="46.83707" lon="5.87112">
        <ele>664.1</ele>
        <time>2020-07-04T11:57:16Z</time>
      </trkpt>
      <trkpt lat="46.8372" lon="5.87122">
        <ele>663.8</ele>
        <time>2020-07-04T11:57:27Z</time>
      </trkpt>
      <trkpt lat="46.83723" lon="5.87128">
        <ele>663.5</ele>
        <time>2020-07-04T11:57:33Z</time>
      </trkpt>
      <trkpt lat="46.83727" lon="5.87132">
        <ele>663</ele>
        <time>2020-07-04T11:57:39Z</time>
      </trkpt>
      <trkpt lat="46.83731" lon="5.87135">
        <ele>662.7</ele>
        <time>2020-07-04T11:57:43Z</time>
      </trkpt>
      <trkpt lat="46.83735" lon="5.87139">
        <ele>662.2</ele>
        <time>2020-07-04T11:57:47Z</time>
      </trkpt>
      <trkpt lat="46.83738" lon="5.87145">
        <ele>661.7</ele>
        <time>2020-07-04T11:57:52Z</time>
      </trkpt>
      <trkpt lat="46.83741" lon="5.8715">
        <ele>661.2</ele>
        <time>2020-07-04T11:57:57Z</time>
      </trkpt>
      <trkpt lat="46.83745" lon="5.87156">
        <ele>660.7</ele>
        <time>2020-07-04T11:58:02Z</time>
      </trkpt>
      <trkpt lat="46.83748" lon="5.87162">
        <ele>660.8</ele>
        <time>2020-07-04T11:58:08Z</time>
      </trkpt>
      <trkpt lat="46.83752" lon="5.87167">
        <ele>661.3</ele>
        <time>2020-07-04T11:58:13Z</time>
      </trkpt>
      <trkpt lat="46.83756" lon="5.8717">
        <ele>662</ele>
        <time>2020-07-04T11:58:17Z</time>
      </trkpt>
      <trkpt lat="46.83759" lon="5.87176">
        <ele>662.7</ele>
        <time>2020-07-04T11:58:20Z</time>
      </trkpt>
      <trkpt lat="46.83762" lon="5.87182">
        <ele>664.5</ele>
        <time>2020-07-04T11:58:26Z</time>
      </trkpt>
      <trkpt lat="46.83766" lon="5.8719">
        <ele>666.8</ele>
        <time>2020-07-04T11:58:33Z</time>
      </trkpt>
      <trkpt lat="46.83771" lon="5.87195">
        <ele>667.5</ele>
        <time>2020-07-04T11:58:35Z</time>
      </trkpt>
      <trkpt lat="46.83774" lon="5.872">
        <ele>668.6</ele>
        <time>2020-07-04T11:58:38Z</time>
      </trkpt>
      <trkpt lat="46.83778" lon="5.87204">
        <ele>671.6</ele>
        <time>2020-07-04T11:58:47Z</time>
      </trkpt>
      <trkpt lat="46.83781" lon="5.8721">
        <ele>672.3</ele>
        <time>2020-07-04T11:58:49Z</time>
      </trkpt>
      <trkpt lat="46.83784" lon="5.87216">
        <ele>673</ele>
        <time>2020-07-04T11:58:51Z</time>
      </trkpt>
      <trkpt lat="46.83787" lon="5.87222">
        <ele>674.6</ele>
        <time>2020-07-04T11:58:55Z</time>
      </trkpt>
      <trkpt lat="46.8379" lon="5.87227">
        <ele>676.9</ele>
        <time>2020-07-04T11:59:01Z</time>
      </trkpt>
      <trkpt lat="46.83792" lon="5.87233">
        <ele>677.8</ele>
        <time>2020-07-04T11:59:04Z</time>
      </trkpt>
      <trkpt lat="46.83802" lon="5.87241">
        <ele>680.8</ele>
        <time>2020-07-04T11:59:20Z</time>
      </trkpt>
      <trkpt lat="46.83823" lon="5.87258">
        <ele>682.3</ele>
        <time>2020-07-04T11:59:41Z</time>
      </trkpt>
      <trkpt lat="46.83825" lon="5.87263">
        <ele>682.4</ele>
        <time>2020-07-04T11:59:46Z</time>
      </trkpt>
      <trkpt lat="46.83831" lon="5.87276">
        <ele>683</ele>
        <time>2020-07-04T11:59:56Z</time>
      </trkpt>
      <trkpt lat="46.83834" lon="5.87281">
        <ele>683.1</ele>
        <time>2020-07-04T11:59:58Z</time>
      </trkpt>
      <trkpt lat="46.83839" lon="5.87286">
        <ele>683.1</ele>
        <time>2020-07-04T12:00:01Z</time>
      </trkpt>
      <trkpt lat="46.83844" lon="5.87289">
        <ele>683.2</ele>
        <time>2020-07-04T12:00:05Z</time>
      </trkpt>
      <trkpt lat="46.83855" lon="5.873">
        <ele>683.7</ele>
        <time>2020-07-04T12:00:20Z</time>
      </trkpt>
      <trkpt lat="46.83858" lon="5.87307">
        <ele>684.1</ele>
        <time>2020-07-04T12:00:27Z</time>
      </trkpt>
      <trkpt lat="46.83862" lon="5.87313">
        <ele>684.4</ele>
        <time>2020-07-04T12:00:30Z</time>
      </trkpt>
      <trkpt lat="46.83877" lon="5.87324">
        <ele>686.6</ele>
        <time>2020-07-04T12:00:47Z</time>
      </trkpt>
      <trkpt lat="46.83887" lon="5.87332">
        <ele>687.7</ele>
        <time>2020-07-04T12:00:58Z</time>
      </trkpt>
      <trkpt lat="46.83891" lon="5.87335">
        <ele>687.9</ele>
        <time>2020-07-04T12:01:03Z</time>
      </trkpt>
      <trkpt lat="46.83895" lon="5.8734">
        <ele>688.3</ele>
        <time>2020-07-04T12:01:09Z</time>
      </trkpt>
      <trkpt lat="46.83899" lon="5.87345">
        <ele>688.4</ele>
        <time>2020-07-04T12:01:11Z</time>
      </trkpt>
      <trkpt lat="46.83903" lon="5.87349">
        <ele>688.4</ele>
        <time>2020-07-04T12:01:14Z</time>
      </trkpt>
      <trkpt lat="46.83906" lon="5.87353">
        <ele>688.6</ele>
        <time>2020-07-04T12:01:22Z</time>
      </trkpt>
      <trkpt lat="46.8391" lon="5.87357">
        <ele>688.9</ele>
        <time>2020-07-04T12:01:28Z</time>
      </trkpt>
      <trkpt lat="46.83917" lon="5.8736">
        <ele>689.3</ele>
        <time>2020-07-04T12:01:32Z</time>
      </trkpt>
      <trkpt lat="46.83922" lon="5.87362">
        <ele>689.6</ele>
        <time>2020-07-04T12:01:37Z</time>
      </trkpt>
      <trkpt lat="46.83926" lon="5.87365">
        <ele>689.8</ele>
        <time>2020-07-04T12:01:42Z</time>
      </trkpt>
      <trkpt lat="46.8393" lon="5.87369">
        <ele>690</ele>
        <time>2020-07-04T12:01:45Z</time>
      </trkpt>
      <trkpt lat="46.83936" lon="5.87374">
        <ele>690.1</ele>
        <time>2020-07-04T12:01:48Z</time>
      </trkpt>
      <trkpt lat="46.8394" lon="5.87375">
        <ele>690.1</ele>
        <time>2020-07-04T12:01:50Z</time>
      </trkpt>
      <trkpt lat="46.83945" lon="5.87378">
        <ele>690.4</ele>
        <time>2020-07-04T12:01:56Z</time>
      </trkpt>
      <trkpt lat="46.83951" lon="5.87381">
        <ele>690.8</ele>
        <time>2020-07-04T12:02:00Z</time>
      </trkpt>
      <trkpt lat="46.83955" lon="5.87385">
        <ele>691.2</ele>
        <time>2020-07-04T12:02:05Z</time>
      </trkpt>
      <trkpt lat="46.8396" lon="5.87387">
        <ele>691.9</ele>
        <time>2020-07-04T12:02:16Z</time>
      </trkpt>
      <trkpt lat="46.83964" lon="5.87387">
        <ele>692.9</ele>
        <time>2020-07-04T12:02:24Z</time>
      </trkpt>
      <trkpt lat="46.8397" lon="5.87385">
        <ele>693.7</ele>
        <time>2020-07-04T12:02:34Z</time>
      </trkpt>
      <trkpt lat="46.83976" lon="5.87385">
        <ele>693.4</ele>
        <time>2020-07-04T12:02:39Z</time>
      </trkpt>
      <trkpt lat="46.83981" lon="5.87384">
        <ele>692.8</ele>
        <time>2020-07-04T12:02:44Z</time>
      </trkpt>
      <trkpt lat="46.83986" lon="5.87382">
        <ele>691.4</ele>
        <time>2020-07-04T12:02:50Z</time>
      </trkpt>
      <trkpt lat="46.83991" lon="5.87381">
        <ele>689.7</ele>
        <time>2020-07-04T12:02:58Z</time>
      </trkpt>
      <trkpt lat="46.83996" lon="5.87379">
        <ele>688.7</ele>
        <time>2020-07-04T12:03:02Z</time>
      </trkpt>
      <trkpt lat="46.84001" lon="5.87376">
        <ele>687.8</ele>
        <time>2020-07-04T12:03:05Z</time>
      </trkpt>
      <trkpt lat="46.84006" lon="5.87374">
        <ele>686.5</ele>
        <time>2020-07-04T12:03:10Z</time>
      </trkpt>
      <trkpt lat="46.8401" lon="5.87373">
        <ele>685</ele>
        <time>2020-07-04T12:03:16Z</time>
      </trkpt>
      <trkpt lat="46.84015" lon="5.87371">
        <ele>683.7</ele>
        <time>2020-07-04T12:03:22Z</time>
      </trkpt>
      <trkpt lat="46.84019" lon="5.87369">
        <ele>682.8</ele>
        <time>2020-07-04T12:03:27Z</time>
      </trkpt>
      <trkpt lat="46.84023" lon="5.87365">
        <ele>681.5</ele>
        <time>2020-07-04T12:03:33Z</time>
      </trkpt>
      <trkpt lat="46.84028" lon="5.87363">
        <ele>680.2</ele>
        <time>2020-07-04T12:03:40Z</time>
      </trkpt>
      <trkpt lat="46.84035" lon="5.8736">
        <ele>679.6</ele>
        <time>2020-07-04T12:03:44Z</time>
      </trkpt>
      <trkpt lat="46.84039" lon="5.87358">
        <ele>678.8</ele>
        <time>2020-07-04T12:03:49Z</time>
      </trkpt>
      <trkpt lat="46.84043" lon="5.87354">
        <ele>678.2</ele>
        <time>2020-07-04T12:03:56Z</time>
      </trkpt>
      <trkpt lat="46.84046" lon="5.87348">
        <ele>677.7</ele>
        <time>2020-07-04T12:04:04Z</time>
      </trkpt>
      <trkpt lat="46.84048" lon="5.87342">
        <ele>677.2</ele>
        <time>2020-07-04T12:04:09Z</time>
      </trkpt>
      <trkpt lat="46.84057" lon="5.87333">
        <ele>676</ele>
        <time>2020-07-04T12:04:19Z</time>
      </trkpt>
      <trkpt lat="46.84061" lon="5.87331">
        <ele>676</ele>
        <time>2020-07-04T12:04:23Z</time>
      </trkpt>
      <trkpt lat="46.84065" lon="5.87327">
        <ele>676.2</ele>
        <time>2020-07-04T12:04:29Z</time>
      </trkpt>
      <trkpt lat="46.84069" lon="5.87323">
        <ele>676.4</ele>
        <time>2020-07-04T12:04:35Z</time>
      </trkpt>
      <trkpt lat="46.84074" lon="5.87322">
        <ele>676.3</ele>
        <time>2020-07-04T12:04:39Z</time>
      </trkpt>
      <trkpt lat="46.84079" lon="5.8732">
        <ele>676.1</ele>
        <time>2020-07-04T12:04:43Z</time>
      </trkpt>
      <trkpt lat="46.84092" lon="5.87317">
        <ele>674.7</ele>
        <time>2020-07-04T12:05:02Z</time>
      </trkpt>
      <trkpt lat="46.84103" lon="5.87316">
        <ele>675.2</ele>
        <time>2020-07-04T12:05:16Z</time>
      </trkpt>
      <trkpt lat="46.84107" lon="5.87309">
        <ele>675.2</ele>
        <time>2020-07-04T12:05:19Z</time>
      </trkpt>
      <trkpt lat="46.84109" lon="5.87303">
        <ele>675.4</ele>
        <time>2020-07-04T12:05:23Z</time>
      </trkpt>
      <trkpt lat="46.84115" lon="5.87296">
        <ele>675.7</ele>
        <time>2020-07-04T12:05:26Z</time>
      </trkpt>
      <trkpt lat="46.8412" lon="5.87293">
        <ele>676</ele>
        <time>2020-07-04T12:05:30Z</time>
      </trkpt>
      <trkpt lat="46.84124" lon="5.87294">
        <ele>676.8</ele>
        <time>2020-07-04T12:05:41Z</time>
      </trkpt>
      <trkpt lat="46.84129" lon="5.87288">
        <ele>679</ele>
        <time>2020-07-04T12:06:16Z</time>
      </trkpt>
      <trkpt lat="46.84136" lon="5.87279">
        <ele>681.8</ele>
        <time>2020-07-04T12:06:29Z</time>
      </trkpt>
      <trkpt lat="46.84141" lon="5.87277">
        <ele>682</ele>
        <time>2020-07-04T12:06:31Z</time>
      </trkpt>
      <trkpt lat="46.84145" lon="5.87273">
        <ele>682.6</ele>
        <time>2020-07-04T12:06:35Z</time>
      </trkpt>
      <trkpt lat="46.84148" lon="5.87268">
        <ele>683.7</ele>
        <time>2020-07-04T12:06:41Z</time>
      </trkpt>
      <trkpt lat="46.84151" lon="5.87262">
        <ele>684.4</ele>
        <time>2020-07-04T12:06:46Z</time>
      </trkpt>
      <trkpt lat="46.84155" lon="5.87258">
        <ele>684.8</ele>
        <time>2020-07-04T12:06:53Z</time>
      </trkpt>
      <trkpt lat="46.84159" lon="5.87255">
        <ele>684.8</ele>
        <time>2020-07-04T12:06:59Z</time>
      </trkpt>
      <trkpt lat="46.84163" lon="5.8725">
        <ele>684.7</ele>
        <time>2020-07-04T12:07:05Z</time>
      </trkpt>
      <trkpt lat="46.84167" lon="5.87246">
        <ele>684.8</ele>
        <time>2020-07-04T12:07:10Z</time>
      </trkpt>
      <trkpt lat="46.84172" lon="5.87242">
        <ele>684.9</ele>
        <time>2020-07-04T12:07:16Z</time>
      </trkpt>
      <trkpt lat="46.84177" lon="5.87237">
        <ele>685.1</ele>
        <time>2020-07-04T12:07:21Z</time>
      </trkpt>
      <trkpt lat="46.84181" lon="5.87234">
        <ele>685.3</ele>
        <time>2020-07-04T12:07:25Z</time>
      </trkpt>
      <trkpt lat="46.84185" lon="5.87231">
        <ele>685.8</ele>
        <time>2020-07-04T12:07:32Z</time>
      </trkpt>
      <trkpt lat="46.84191" lon="5.8723">
        <ele>686.4</ele>
        <time>2020-07-04T12:07:37Z</time>
      </trkpt>
      <trkpt lat="46.84196" lon="5.87229">
        <ele>687.4</ele>
        <time>2020-07-04T12:07:43Z</time>
      </trkpt>
      <trkpt lat="46.84201" lon="5.87229">
        <ele>687.9</ele>
        <time>2020-07-04T12:07:47Z</time>
      </trkpt>
      <trkpt lat="46.84205" lon="5.87226">
        <ele>688.4</ele>
        <time>2020-07-04T12:07:52Z</time>
      </trkpt>
      <trkpt lat="46.8421" lon="5.87224">
        <ele>688.6</ele>
        <time>2020-07-04T12:07:58Z</time>
      </trkpt>
      <trkpt lat="46.84215" lon="5.87223">
        <ele>688.8</ele>
        <time>2020-07-04T12:08:04Z</time>
      </trkpt>
      <trkpt lat="46.84219" lon="5.87223">
        <ele>688.9</ele>
        <time>2020-07-04T12:08:09Z</time>
      </trkpt>
      <trkpt lat="46.84224" lon="5.87224">
        <ele>688.9</ele>
        <time>2020-07-04T12:08:14Z</time>
      </trkpt>
      <trkpt lat="46.84229" lon="5.87223">
        <ele>688.7</ele>
        <time>2020-07-04T12:08:19Z</time>
      </trkpt>
      <trkpt lat="46.84234" lon="5.87224">
        <ele>688.7</ele>
        <time>2020-07-04T12:08:27Z</time>
      </trkpt>
      <trkpt lat="46.84238" lon="5.87225">
        <ele>688.8</ele>
        <time>2020-07-04T12:08:32Z</time>
      </trkpt>
      <trkpt lat="46.84244" lon="5.87225">
        <ele>688.6</ele>
        <time>2020-07-04T12:08:37Z</time>
      </trkpt>
      <trkpt lat="46.84249" lon="5.87225">
        <ele>688.3</ele>
        <time>2020-07-04T12:08:41Z</time>
      </trkpt>
      <trkpt lat="46.84254" lon="5.87224">
        <ele>688</ele>
        <time>2020-07-04T12:08:45Z</time>
      </trkpt>
      <trkpt lat="46.84259" lon="5.87224">
        <ele>687.8</ele>
        <time>2020-07-04T12:08:53Z</time>
      </trkpt>
      <trkpt lat="46.84263" lon="5.87224">
        <ele>687.3</ele>
        <time>2020-07-04T12:09:01Z</time>
      </trkpt>
      <trkpt lat="46.84268" lon="5.87227">
        <ele>687.1</ele>
        <time>2020-07-04T12:09:08Z</time>
      </trkpt>
      <trkpt lat="46.84272" lon="5.8723">
        <ele>687.1</ele>
        <time>2020-07-04T12:09:14Z</time>
      </trkpt>
      <trkpt lat="46.84277" lon="5.87233">
        <ele>686.9</ele>
        <time>2020-07-04T12:09:20Z</time>
      </trkpt>
      <trkpt lat="46.84281" lon="5.87238">
        <ele>686.5</ele>
        <time>2020-07-04T12:09:31Z</time>
      </trkpt>
      <trkpt lat="46.84285" lon="5.87241">
        <ele>686.5</ele>
        <time>2020-07-04T12:09:36Z</time>
      </trkpt>
      <trkpt lat="46.84289" lon="5.87245">
        <ele>686.1</ele>
        <time>2020-07-04T12:09:44Z</time>
      </trkpt>
      <trkpt lat="46.84297" lon="5.87251">
        <ele>684.1</ele>
        <time>2020-07-04T12:10:02Z</time>
      </trkpt>
      <trkpt lat="46.84312" lon="5.87252">
        <ele>680.5</ele>
        <time>2020-07-04T12:10:21Z</time>
      </trkpt>
      <trkpt lat="46.84317" lon="5.87253">
        <ele>680.3</ele>
        <time>2020-07-04T12:10:26Z</time>
      </trkpt>
      <trkpt lat="46.84322" lon="5.87253">
        <ele>680</ele>
        <time>2020-07-04T12:10:32Z</time>
      </trkpt>
      <trkpt lat="46.84326" lon="5.87256">
        <ele>679.9</ele>
        <time>2020-07-04T12:10:39Z</time>
      </trkpt>
      <trkpt lat="46.84331" lon="5.87256">
        <ele>680.1</ele>
        <time>2020-07-04T12:10:57Z</time>
      </trkpt>
      <trkpt lat="46.84336" lon="5.8726">
        <ele>679.7</ele>
        <time>2020-07-04T12:11:05Z</time>
      </trkpt>
      <trkpt lat="46.8434" lon="5.87259">
        <ele>679.7</ele>
        <time>2020-07-04T12:11:13Z</time>
      </trkpt>
      <trkpt lat="46.84341" lon="5.87253">
        <ele>681.7</ele>
        <time>2020-07-04T12:11:29Z</time>
      </trkpt>
      <trkpt lat="46.84341" lon="5.87245">
        <ele>683.2</ele>
        <time>2020-07-04T12:11:36Z</time>
      </trkpt>
      <trkpt lat="46.84342" lon="5.87237">
        <ele>684.1</ele>
        <time>2020-07-04T12:11:41Z</time>
      </trkpt>
      <trkpt lat="46.84342" lon="5.8723">
        <ele>685.6</ele>
        <time>2020-07-04T12:11:50Z</time>
      </trkpt>
      <trkpt lat="46.84348" lon="5.8722">
        <ele>686.7</ele>
        <time>2020-07-04T12:12:14Z</time>
      </trkpt>
      <trkpt lat="46.84348" lon="5.87214">
        <ele>686.2</ele>
        <time>2020-07-04T12:12:21Z</time>
      </trkpt>
      <trkpt lat="46.84349" lon="5.87207">
        <ele>685.9</ele>
        <time>2020-07-04T12:12:29Z</time>
      </trkpt>
      <trkpt lat="46.84353" lon="5.87203">
        <ele>685.9</ele>
        <time>2020-07-04T12:12:37Z</time>
      </trkpt>
      <trkpt lat="46.84353" lon="5.87212">
        <ele>689.9</ele>
        <time>2020-07-04T12:14:13Z</time>
      </trkpt>
      <trkpt lat="46.84353" lon="5.87219">
        <ele>690.6</ele>
        <time>2020-07-04T12:14:18Z</time>
      </trkpt>
      <trkpt lat="46.84354" lon="5.87227">
        <ele>691.1</ele>
        <time>2020-07-04T12:14:24Z</time>
      </trkpt>
      <trkpt lat="46.84354" lon="5.87235">
        <ele>691.3</ele>
        <time>2020-07-04T12:14:28Z</time>
      </trkpt>
      <trkpt lat="46.84354" lon="5.87242">
        <ele>692.2</ele>
        <time>2020-07-04T12:14:36Z</time>
      </trkpt>
      <trkpt lat="46.84353" lon="5.87248">
        <ele>691.2</ele>
        <time>2020-07-04T12:14:59Z</time>
      </trkpt>
      <trkpt lat="46.84353" lon="5.87255">
        <ele>690.5</ele>
        <time>2020-07-04T12:15:08Z</time>
      </trkpt>
      <trkpt lat="46.84357" lon="5.87253">
        <ele>688.2</ele>
        <time>2020-07-04T12:15:27Z</time>
      </trkpt>
      <trkpt lat="46.84366" lon="5.87249">
        <ele>686.1</ele>
        <time>2020-07-04T12:15:47Z</time>
      </trkpt>
      <trkpt lat="46.84369" lon="5.87243">
        <ele>685.8</ele>
        <time>2020-07-04T12:15:50Z</time>
      </trkpt>
      <trkpt lat="46.84386" lon="5.87227">
        <ele>683.7</ele>
        <time>2020-07-04T12:16:07Z</time>
      </trkpt>
      <trkpt lat="46.84391" lon="5.87226">
        <ele>683.4</ele>
        <time>2020-07-04T12:16:10Z</time>
      </trkpt>
      <trkpt lat="46.84395" lon="5.87225">
        <ele>683.1</ele>
        <time>2020-07-04T12:16:13Z</time>
      </trkpt>
      <trkpt lat="46.844" lon="5.87223">
        <ele>682.9</ele>
        <time>2020-07-04T12:16:15Z</time>
      </trkpt>
      <trkpt lat="46.84405" lon="5.8722">
        <ele>682.6</ele>
        <time>2020-07-04T12:16:18Z</time>
      </trkpt>
      <trkpt lat="46.84415" lon="5.87212">
        <ele>682.4</ele>
        <time>2020-07-04T12:16:35Z</time>
      </trkpt>
      <trkpt lat="46.84418" lon="5.87206">
        <ele>684</ele>
        <time>2020-07-04T12:16:43Z</time>
      </trkpt>
      <trkpt lat="46.84419" lon="5.87197">
        <ele>684.5</ele>
        <time>2020-07-04T12:16:45Z</time>
      </trkpt>
      <trkpt lat="46.84422" lon="5.87191">
        <ele>685.1</ele>
        <time>2020-07-04T12:16:47Z</time>
      </trkpt>
      <trkpt lat="46.84423" lon="5.87184">
        <ele>686.6</ele>
        <time>2020-07-04T12:16:52Z</time>
      </trkpt>
      <trkpt lat="46.84425" lon="5.87177">
        <ele>689.3</ele>
        <time>2020-07-04T12:17:01Z</time>
      </trkpt>
      <trkpt lat="46.84427" lon="5.87171">
        <ele>690.9</ele>
        <time>2020-07-04T12:17:08Z</time>
      </trkpt>
      <trkpt lat="46.84427" lon="5.87164">
        <ele>691.6</ele>
        <time>2020-07-04T12:17:16Z</time>
      </trkpt>
      <trkpt lat="46.84429" lon="5.87158">
        <ele>691.3</ele>
        <time>2020-07-04T12:17:21Z</time>
      </trkpt>
      <trkpt lat="46.84436" lon="5.87149">
        <ele>690.2</ele>
        <time>2020-07-04T12:17:32Z</time>
      </trkpt>
      <trkpt lat="46.8444" lon="5.87145">
        <ele>689.8</ele>
        <time>2020-07-04T12:17:38Z</time>
      </trkpt>
      <trkpt lat="46.84443" lon="5.87141">
        <ele>689.5</ele>
        <time>2020-07-04T12:17:43Z</time>
      </trkpt>
      <trkpt lat="46.84457" lon="5.87135">
        <ele>691.1</ele>
        <time>2020-07-04T12:18:12Z</time>
      </trkpt>
      <trkpt lat="46.84463" lon="5.87138">
        <ele>692.8</ele>
        <time>2020-07-04T12:18:16Z</time>
      </trkpt>
      <trkpt lat="46.84468" lon="5.87139">
        <ele>694.7</ele>
        <time>2020-07-04T12:18:22Z</time>
      </trkpt>
      <trkpt lat="46.84469" lon="5.87131">
        <ele>696.7</ele>
        <time>2020-07-04T12:18:46Z</time>
      </trkpt>
      <trkpt lat="46.8447" lon="5.87096">
        <ele>695</ele>
        <time>2020-07-04T12:20:17Z</time>
      </trkpt>
      <trkpt lat="46.84471" lon="5.87089">
        <ele>695.4</ele>
        <time>2020-07-04T12:20:30Z</time>
      </trkpt>
      <trkpt lat="46.84472" lon="5.87082">
        <ele>695.4</ele>
        <time>2020-07-04T12:20:32Z</time>
      </trkpt>
      <trkpt lat="46.84476" lon="5.87076">
        <ele>695.2</ele>
        <time>2020-07-04T12:20:35Z</time>
      </trkpt>
      <trkpt lat="46.84477" lon="5.87054">
        <ele>694.5</ele>
        <time>2020-07-04T12:21:14Z</time>
      </trkpt>
      <trkpt lat="46.84474" lon="5.87048">
        <ele>694.9</ele>
        <time>2020-07-04T12:21:19Z</time>
      </trkpt>
      <trkpt lat="46.84469" lon="5.87034">
        <ele>698.4</ele>
        <time>2020-07-04T12:21:51Z</time>
      </trkpt>
      <trkpt lat="46.84469" lon="5.87018">
        <ele>697.8</ele>
        <time>2020-07-04T12:22:11Z</time>
      </trkpt>
      <trkpt lat="46.84472" lon="5.86997">
        <ele>693.5</ele>
        <time>2020-07-04T12:22:56Z</time>
      </trkpt>
      <trkpt lat="46.84475" lon="5.86991">
        <ele>692.8</ele>
        <time>2020-07-04T12:22:59Z</time>
      </trkpt>
      <trkpt lat="46.8448" lon="5.86985">
        <ele>691.9</ele>
        <time>2020-07-04T12:23:02Z</time>
      </trkpt>
      <trkpt lat="46.84486" lon="5.86968">
        <ele>688</ele>
        <time>2020-07-04T12:23:25Z</time>
      </trkpt>
      <trkpt lat="46.84491" lon="5.86955">
        <ele>689.8</ele>
        <time>2020-07-04T12:24:06Z</time>
      </trkpt>
      <trkpt lat="46.84496" lon="5.86941">
        <ele>690.3</ele>
        <time>2020-07-04T12:24:21Z</time>
      </trkpt>
      <trkpt lat="46.84499" lon="5.86935">
        <ele>690.3</ele>
        <time>2020-07-04T12:24:26Z</time>
      </trkpt>
      <trkpt lat="46.84499" lon="5.86924">
        <ele>690.5</ele>
        <time>2020-07-04T12:24:36Z</time>
      </trkpt>
      <trkpt lat="46.84498" lon="5.86916">
        <ele>690.8</ele>
        <time>2020-07-04T12:24:40Z</time>
      </trkpt>
      <trkpt lat="46.84498" lon="5.86909">
        <ele>691.8</ele>
        <time>2020-07-04T12:24:52Z</time>
      </trkpt>
      <trkpt lat="46.84503" lon="5.869">
        <ele>689.8</ele>
        <time>2020-07-04T12:25:17Z</time>
      </trkpt>
      <trkpt lat="46.84508" lon="5.86897">
        <ele>689.4</ele>
        <time>2020-07-04T12:25:19Z</time>
      </trkpt>
      <trkpt lat="46.84512" lon="5.86895">
        <ele>688.8</ele>
        <time>2020-07-04T12:25:22Z</time>
      </trkpt>
      <trkpt lat="46.84517" lon="5.86868">
        <ele>684.8</ele>
        <time>2020-07-04T12:25:52Z</time>
      </trkpt>
      <trkpt lat="46.84517" lon="5.86861">
        <ele>685.6</ele>
        <time>2020-07-04T12:25:59Z</time>
      </trkpt>
      <trkpt lat="46.84521" lon="5.86845">
        <ele>688.7</ele>
        <time>2020-07-04T12:26:14Z</time>
      </trkpt>
      <trkpt lat="46.84521" lon="5.86838">
        <ele>688.5</ele>
        <time>2020-07-04T12:26:19Z</time>
      </trkpt>
      <trkpt lat="46.84525" lon="5.86835">
        <ele>688.2</ele>
        <time>2020-07-04T12:26:26Z</time>
      </trkpt>
      <trkpt lat="46.84522" lon="5.86811">
        <ele>686.7</ele>
        <time>2020-07-04T12:27:46Z</time>
      </trkpt>
      <trkpt lat="46.84517" lon="5.86812">
        <ele>686.8</ele>
        <time>2020-07-04T12:27:58Z</time>
      </trkpt>
      <trkpt lat="46.84506" lon="5.86818">
        <ele>684.4</ele>
        <time>2020-07-04T12:28:47Z</time>
      </trkpt>
      <trkpt lat="46.84502" lon="5.86823">
        <ele>683.5</ele>
        <time>2020-07-04T12:29:02Z</time>
      </trkpt>
      <trkpt lat="46.84495" lon="5.86822">
        <ele>682.7</ele>
        <time>2020-07-04T12:29:16Z</time>
      </trkpt>
      <trkpt lat="46.8449" lon="5.86822">
        <ele>682.6</ele>
        <time>2020-07-04T12:29:18Z</time>
      </trkpt>
      <trkpt lat="46.84475" lon="5.86818">
        <ele>682.2</ele>
        <time>2020-07-04T12:30:58Z</time>
      </trkpt>
      <trkpt lat="46.84464" lon="5.86823">
        <ele>682.4</ele>
        <time>2020-07-04T12:31:59Z</time>
      </trkpt>
      <trkpt lat="46.84459" lon="5.86824">
        <ele>682.3</ele>
        <time>2020-07-04T12:32:07Z</time>
      </trkpt>
      <trkpt lat="46.84454" lon="5.8682">
        <ele>682.2</ele>
        <time>2020-07-04T12:32:15Z</time>
      </trkpt>
      <trkpt lat="46.8445" lon="5.86817">
        <ele>682</ele>
        <time>2020-07-04T12:32:20Z</time>
      </trkpt>
      <trkpt lat="46.84434" lon="5.86812">
        <ele>690.2</ele>
        <time>2020-07-04T12:33:41Z</time>
      </trkpt>
      <trkpt lat="46.84429" lon="5.86809">
        <ele>689.9</ele>
        <time>2020-07-04T12:33:44Z</time>
      </trkpt>
      <trkpt lat="46.84425" lon="5.86807">
        <ele>689.6</ele>
        <time>2020-07-04T12:33:46Z</time>
      </trkpt>
      <trkpt lat="46.8442" lon="5.86803">
        <ele>689.2</ele>
        <time>2020-07-04T12:33:49Z</time>
      </trkpt>
      <trkpt lat="46.84416" lon="5.868">
        <ele>688</ele>
        <time>2020-07-04T12:34:04Z</time>
      </trkpt>
      <trkpt lat="46.84412" lon="5.86796">
        <ele>688.1</ele>
        <time>2020-07-04T12:34:10Z</time>
      </trkpt>
      <trkpt lat="46.84408" lon="5.86792">
        <ele>688.9</ele>
        <time>2020-07-04T12:34:18Z</time>
      </trkpt>
      <trkpt lat="46.84404" lon="5.86787">
        <ele>689.4</ele>
        <time>2020-07-04T12:34:23Z</time>
      </trkpt>
      <trkpt lat="46.84399" lon="5.86783">
        <ele>689.9</ele>
        <time>2020-07-04T12:34:29Z</time>
      </trkpt>
      <trkpt lat="46.84396" lon="5.86776">
        <ele>690.5</ele>
        <time>2020-07-04T12:34:37Z</time>
      </trkpt>
      <trkpt lat="46.84393" lon="5.8677">
        <ele>691</ele>
        <time>2020-07-04T12:34:42Z</time>
      </trkpt>
      <trkpt lat="46.84389" lon="5.86765">
        <ele>691.1</ele>
        <time>2020-07-04T12:34:48Z</time>
      </trkpt>
      <trkpt lat="46.84386" lon="5.86759">
        <ele>690.7</ele>
        <time>2020-07-04T12:34:55Z</time>
      </trkpt>
      <trkpt lat="46.84383" lon="5.86755">
        <ele>689.8</ele>
        <time>2020-07-04T12:35:02Z</time>
      </trkpt>
      <trkpt lat="46.84378" lon="5.8675">
        <ele>688.9</ele>
        <time>2020-07-04T12:35:08Z</time>
      </trkpt>
      <trkpt lat="46.84375" lon="5.86745">
        <ele>688.3</ele>
        <time>2020-07-04T12:35:12Z</time>
      </trkpt>
      <trkpt lat="46.8437" lon="5.86741">
        <ele>687.7</ele>
        <time>2020-07-04T12:35:17Z</time>
      </trkpt>
      <trkpt lat="46.84366" lon="5.86737">
        <ele>687</ele>
        <time>2020-07-04T12:35:22Z</time>
      </trkpt>
      <trkpt lat="46.84362" lon="5.86731">
        <ele>686</ele>
        <time>2020-07-04T12:35:27Z</time>
      </trkpt>
      <trkpt lat="46.84357" lon="5.86728">
        <ele>685</ele>
        <time>2020-07-04T12:35:32Z</time>
      </trkpt>
      <trkpt lat="46.84353" lon="5.86724">
        <ele>684.7</ele>
        <time>2020-07-04T12:35:36Z</time>
      </trkpt>
      <trkpt lat="46.8435" lon="5.86719">
        <ele>684.7</ele>
        <time>2020-07-04T12:35:41Z</time>
      </trkpt>
      <trkpt lat="46.84345" lon="5.86716">
        <ele>684.8</ele>
        <time>2020-07-04T12:35:48Z</time>
      </trkpt>
      <trkpt lat="46.84342" lon="5.86712">
        <ele>684.8</ele>
        <time>2020-07-04T12:35:55Z</time>
      </trkpt>
      <trkpt lat="46.84338" lon="5.86707">
        <ele>684.1</ele>
        <time>2020-07-04T12:36:01Z</time>
      </trkpt>
      <trkpt lat="46.84334" lon="5.86703">
        <ele>683.1</ele>
        <time>2020-07-04T12:36:07Z</time>
      </trkpt>
      <trkpt lat="46.84331" lon="5.86697">
        <ele>682.1</ele>
        <time>2020-07-04T12:36:11Z</time>
      </trkpt>
      <trkpt lat="46.84329" lon="5.8669">
        <ele>679.8</ele>
        <time>2020-07-04T12:36:20Z</time>
      </trkpt>
      <trkpt lat="46.84326" lon="5.86684">
        <ele>678.7</ele>
        <time>2020-07-04T12:36:24Z</time>
      </trkpt>
      <trkpt lat="46.84324" lon="5.86678">
        <ele>677.2</ele>
        <time>2020-07-04T12:36:29Z</time>
      </trkpt>
      <trkpt lat="46.8432" lon="5.86672">
        <ele>675.9</ele>
        <time>2020-07-04T12:36:33Z</time>
      </trkpt>
      <trkpt lat="46.84317" lon="5.86667">
        <ele>674.8</ele>
        <time>2020-07-04T12:36:37Z</time>
      </trkpt>
      <trkpt lat="46.84314" lon="5.86661">
        <ele>672.3</ele>
        <time>2020-07-04T12:36:47Z</time>
      </trkpt>
      <trkpt lat="46.84311" lon="5.86656">
        <ele>670.8</ele>
        <time>2020-07-04T12:36:54Z</time>
      </trkpt>
      <trkpt lat="46.84309" lon="5.86648">
        <ele>670.5</ele>
        <time>2020-07-04T12:36:56Z</time>
      </trkpt>
      <trkpt lat="46.84306" lon="5.8664">
        <ele>670.4</ele>
        <time>2020-07-04T12:36:58Z</time>
      </trkpt>
      <trkpt lat="46.84304" lon="5.86634">
        <ele>670.4</ele>
        <time>2020-07-04T12:37:01Z</time>
      </trkpt>
      <trkpt lat="46.843" lon="5.86628">
        <ele>670.9</ele>
        <time>2020-07-04T12:37:04Z</time>
      </trkpt>
      <trkpt lat="46.84296" lon="5.86623">
        <ele>671.5</ele>
        <time>2020-07-04T12:37:07Z</time>
      </trkpt>
      <trkpt lat="46.84293" lon="5.86619">
        <ele>672.2</ele>
        <time>2020-07-04T12:37:11Z</time>
      </trkpt>
      <trkpt lat="46.84288" lon="5.86614">
        <ele>672.8</ele>
        <time>2020-07-04T12:37:16Z</time>
      </trkpt>
      <trkpt lat="46.84284" lon="5.8661">
        <ele>673</ele>
        <time>2020-07-04T12:37:20Z</time>
      </trkpt>
      <trkpt lat="46.84282" lon="5.86604">
        <ele>673.1</ele>
        <time>2020-07-04T12:37:25Z</time>
      </trkpt>
      <trkpt lat="46.84283" lon="5.86597">
        <ele>674</ele>
        <time>2020-07-04T12:37:47Z</time>
      </trkpt>
      <trkpt lat="46.84285" lon="5.8659">
        <ele>677</ele>
        <time>2020-07-04T12:38:39Z</time>
      </trkpt>
      <trkpt lat="46.84288" lon="5.86587">
        <ele>677.3</ele>
        <time>2020-07-04T12:38:54Z</time>
      </trkpt>
      <trkpt lat="46.8429" lon="5.86577">
        <ele>675.4</ele>
        <time>2020-07-04T12:39:26Z</time>
      </trkpt>
      <trkpt lat="46.84294" lon="5.86572">
        <ele>675.3</ele>
        <time>2020-07-04T12:39:31Z</time>
      </trkpt>
      <trkpt lat="46.84297" lon="5.86566">
        <ele>676.4</ele>
        <time>2020-07-04T12:39:42Z</time>
      </trkpt>
      <trkpt lat="46.843" lon="5.86561">
        <ele>677</ele>
        <time>2020-07-04T12:39:49Z</time>
      </trkpt>
      <trkpt lat="46.84303" lon="5.86556">
        <ele>677.4</ele>
        <time>2020-07-04T12:39:56Z</time>
      </trkpt>
      <trkpt lat="46.84308" lon="5.86556">
        <ele>677.5</ele>
        <time>2020-07-04T12:40:13Z</time>
      </trkpt>
      <trkpt lat="46.84313" lon="5.86554">
        <ele>677.4</ele>
        <time>2020-07-04T12:40:21Z</time>
      </trkpt>
      <trkpt lat="46.84327" lon="5.86559">
        <ele>676.2</ele>
        <time>2020-07-04T12:40:35Z</time>
      </trkpt>
      <trkpt lat="46.84332" lon="5.86561">
        <ele>675.2</ele>
        <time>2020-07-04T12:40:40Z</time>
      </trkpt>
      <trkpt lat="46.84339" lon="5.86566">
        <ele>673</ele>
        <time>2020-07-04T12:41:09Z</time>
      </trkpt>
      <trkpt lat="46.84343" lon="5.8657">
        <ele>672.9</ele>
        <time>2020-07-04T12:41:16Z</time>
      </trkpt>
      <trkpt lat="46.84354" lon="5.86575">
        <ele>672.3</ele>
        <time>2020-07-04T12:41:34Z</time>
      </trkpt>
      <trkpt lat="46.84358" lon="5.86575">
        <ele>672.4</ele>
        <time>2020-07-04T12:41:38Z</time>
      </trkpt>
      <trkpt lat="46.84363" lon="5.86575">
        <ele>672.6</ele>
        <time>2020-07-04T12:41:41Z</time>
      </trkpt>
      <trkpt lat="46.84368" lon="5.86577">
        <ele>673.1</ele>
        <time>2020-07-04T12:41:46Z</time>
      </trkpt>
      <trkpt lat="46.84372" lon="5.86581">
        <ele>673.7</ele>
        <time>2020-07-04T12:41:54Z</time>
      </trkpt>
      <trkpt lat="46.84377" lon="5.86584">
        <ele>674</ele>
        <time>2020-07-04T12:41:59Z</time>
      </trkpt>
      <trkpt lat="46.84383" lon="5.86584">
        <ele>674</ele>
        <time>2020-07-04T12:42:05Z</time>
      </trkpt>
      <trkpt lat="46.84388" lon="5.86583">
        <ele>673.8</ele>
        <time>2020-07-04T12:42:10Z</time>
      </trkpt>
      <trkpt lat="46.84393" lon="5.86583">
        <ele>673.4</ele>
        <time>2020-07-04T12:42:15Z</time>
      </trkpt>
      <trkpt lat="46.84398" lon="5.8658">
        <ele>672.6</ele>
        <time>2020-07-04T12:42:24Z</time>
      </trkpt>
      <trkpt lat="46.84403" lon="5.86579">
        <ele>672.1</ele>
        <time>2020-07-04T12:42:30Z</time>
      </trkpt>
      <trkpt lat="46.84408" lon="5.86579">
        <ele>671.8</ele>
        <time>2020-07-04T12:42:35Z</time>
      </trkpt>
      <trkpt lat="46.84413" lon="5.86578">
        <ele>671.6</ele>
        <time>2020-07-04T12:42:41Z</time>
      </trkpt>
      <trkpt lat="46.84417" lon="5.86575">
        <ele>671.3</ele>
        <time>2020-07-04T12:42:47Z</time>
      </trkpt>
      <trkpt lat="46.8442" lon="5.86569">
        <ele>671.1</ele>
        <time>2020-07-04T12:42:51Z</time>
      </trkpt>
      <trkpt lat="46.84422" lon="5.86563">
        <ele>670.9</ele>
        <time>2020-07-04T12:42:55Z</time>
      </trkpt>
      <trkpt lat="46.84423" lon="5.86557">
        <ele>670.8</ele>
        <time>2020-07-04T12:43:01Z</time>
      </trkpt>
      <trkpt lat="46.84424" lon="5.86549">
        <ele>670.5</ele>
        <time>2020-07-04T12:43:08Z</time>
      </trkpt>
      <trkpt lat="46.84423" lon="5.86541">
        <ele>669.9</ele>
        <time>2020-07-04T12:43:14Z</time>
      </trkpt>
      <trkpt lat="46.84424" lon="5.86533">
        <ele>669.3</ele>
        <time>2020-07-04T12:43:19Z</time>
      </trkpt>
      <trkpt lat="46.84425" lon="5.86526">
        <ele>668.6</ele>
        <time>2020-07-04T12:43:24Z</time>
      </trkpt>
      <trkpt lat="46.84426" lon="5.86519">
        <ele>667.6</ele>
        <time>2020-07-04T12:43:31Z</time>
      </trkpt>
      <trkpt lat="46.84427" lon="5.86512">
        <ele>666.4</ele>
        <time>2020-07-04T12:43:41Z</time>
      </trkpt>
      <trkpt lat="46.8443" lon="5.86506">
        <ele>665.9</ele>
        <time>2020-07-04T12:43:46Z</time>
      </trkpt>
      <trkpt lat="46.84433" lon="5.86501">
        <ele>665.3</ele>
        <time>2020-07-04T12:43:51Z</time>
      </trkpt>
      <trkpt lat="46.84437" lon="5.86497">
        <ele>663.8</ele>
        <time>2020-07-04T12:44:01Z</time>
      </trkpt>
      <trkpt lat="46.84439" lon="5.8649">
        <ele>663</ele>
        <time>2020-07-04T12:44:06Z</time>
      </trkpt>
      <trkpt lat="46.84441" lon="5.86483">
        <ele>662.5</ele>
        <time>2020-07-04T12:44:11Z</time>
      </trkpt>
      <trkpt lat="46.84442" lon="5.86476">
        <ele>662.2</ele>
        <time>2020-07-04T12:44:16Z</time>
      </trkpt>
      <trkpt lat="46.84445" lon="5.8647">
        <ele>661.9</ele>
        <time>2020-07-04T12:44:21Z</time>
      </trkpt>
      <trkpt lat="46.84448" lon="5.86464">
        <ele>661.5</ele>
        <time>2020-07-04T12:44:27Z</time>
      </trkpt>
      <trkpt lat="46.8445" lon="5.86457">
        <ele>661.2</ele>
        <time>2020-07-04T12:44:31Z</time>
      </trkpt>
      <trkpt lat="46.84453" lon="5.86452">
        <ele>661.1</ele>
        <time>2020-07-04T12:44:36Z</time>
      </trkpt>
      <trkpt lat="46.84455" lon="5.86444">
        <ele>661.2</ele>
        <time>2020-07-04T12:44:41Z</time>
      </trkpt>
      <trkpt lat="46.84457" lon="5.86437">
        <ele>661.6</ele>
        <time>2020-07-04T12:44:48Z</time>
      </trkpt>
      <trkpt lat="46.84459" lon="5.86431">
        <ele>661.7</ele>
        <time>2020-07-04T12:44:51Z</time>
      </trkpt>
      <trkpt lat="46.84461" lon="5.86424">
        <ele>661.6</ele>
        <time>2020-07-04T12:45:00Z</time>
      </trkpt>
      <trkpt lat="46.84463" lon="5.86418">
        <ele>661</ele>
        <time>2020-07-04T12:45:07Z</time>
      </trkpt>
      <trkpt lat="46.84465" lon="5.86412">
        <ele>660.7</ele>
        <time>2020-07-04T12:45:17Z</time>
      </trkpt>
      <trkpt lat="46.84466" lon="5.86404">
        <ele>660.9</ele>
        <time>2020-07-04T12:45:23Z</time>
      </trkpt>
      <trkpt lat="46.84465" lon="5.86398">
        <ele>661.1</ele>
        <time>2020-07-04T12:45:29Z</time>
      </trkpt>
      <trkpt lat="46.84464" lon="5.86389">
        <ele>660.6</ele>
        <time>2020-07-04T12:45:34Z</time>
      </trkpt>
      <trkpt lat="46.84464" lon="5.86383">
        <ele>660</ele>
        <time>2020-07-04T12:45:38Z</time>
      </trkpt>
      <trkpt lat="46.84465" lon="5.86375">
        <ele>659.3</ele>
        <time>2020-07-04T12:45:43Z</time>
      </trkpt>
      <trkpt lat="46.84465" lon="5.86369">
        <ele>657.3</ele>
        <time>2020-07-04T12:45:57Z</time>
      </trkpt>
      <trkpt lat="46.84463" lon="5.86362">
        <ele>656.8</ele>
        <time>2020-07-04T12:46:01Z</time>
      </trkpt>
      <trkpt lat="46.84462" lon="5.86355">
        <ele>656.3</ele>
        <time>2020-07-04T12:46:07Z</time>
      </trkpt>
      <trkpt lat="46.84461" lon="5.86349">
        <ele>655.6</ele>
        <time>2020-07-04T12:46:15Z</time>
      </trkpt>
      <trkpt lat="46.84464" lon="5.86343">
        <ele>655.3</ele>
        <time>2020-07-04T12:46:27Z</time>
      </trkpt>
      <trkpt lat="46.84467" lon="5.86338">
        <ele>654.8</ele>
        <time>2020-07-04T12:46:36Z</time>
      </trkpt>
      <trkpt lat="46.84471" lon="5.86334">
        <ele>652.9</ele>
        <time>2020-07-04T12:46:47Z</time>
      </trkpt>
      <trkpt lat="46.84473" lon="5.86328">
        <ele>650.5</ele>
        <time>2020-07-04T12:46:58Z</time>
      </trkpt>
      <trkpt lat="46.84473" lon="5.86321">
        <ele>648.3</ele>
        <time>2020-07-04T12:47:08Z</time>
      </trkpt>
      <trkpt lat="46.84469" lon="5.86311">
        <ele>646.4</ele>
        <time>2020-07-04T12:47:24Z</time>
      </trkpt>
      <trkpt lat="46.8447" lon="5.8629">
        <ele>649.3</ele>
        <time>2020-07-04T12:48:32Z</time>
      </trkpt>
      <trkpt lat="46.8447" lon="5.86282">
        <ele>649.3</ele>
        <time>2020-07-04T12:48:35Z</time>
      </trkpt>
      <trkpt lat="46.84471" lon="5.8626">
        <ele>648.2</ele>
        <time>2020-07-04T12:48:58Z</time>
      </trkpt>
      <trkpt lat="46.84467" lon="5.86252">
        <ele>648.2</ele>
        <time>2020-07-04T12:49:00Z</time>
      </trkpt>
      <trkpt lat="46.84463" lon="5.86244">
        <ele>648.1</ele>
        <time>2020-07-04T12:49:02Z</time>
      </trkpt>
      <trkpt lat="46.84461" lon="5.86238">
        <ele>647.8</ele>
        <time>2020-07-04T12:49:08Z</time>
      </trkpt>
      <trkpt lat="46.84463" lon="5.86225">
        <ele>647.7</ele>
        <time>2020-07-04T12:49:36Z</time>
      </trkpt>
      <trkpt lat="46.84463" lon="5.86215">
        <ele>647.9</ele>
        <time>2020-07-04T12:49:46Z</time>
      </trkpt>
      <trkpt lat="46.84464" lon="5.86209">
        <ele>648</ele>
        <time>2020-07-04T12:49:52Z</time>
      </trkpt>
      <trkpt lat="46.84461" lon="5.86199">
        <ele>649.5</ele>
        <time>2020-07-04T12:50:20Z</time>
      </trkpt>
      <trkpt lat="46.84466" lon="5.86187">
        <ele>643.9</ele>
        <time>2020-07-04T12:51:58Z</time>
      </trkpt>
      <trkpt lat="46.84468" lon="5.86178">
        <ele>643.6</ele>
        <time>2020-07-04T12:52:01Z</time>
      </trkpt>
      <trkpt lat="46.84469" lon="5.86171">
        <ele>642.4</ele>
        <time>2020-07-04T12:52:13Z</time>
      </trkpt>
      <trkpt lat="46.84469" lon="5.86164">
        <ele>641.8</ele>
        <time>2020-07-04T12:52:25Z</time>
      </trkpt>
      <trkpt lat="46.84469" lon="5.86143">
        <ele>639.6</ele>
        <time>2020-07-04T12:53:06Z</time>
      </trkpt>
      <trkpt lat="46.84468" lon="5.86136">
        <ele>639.3</ele>
        <time>2020-07-04T12:53:20Z</time>
      </trkpt>
      <trkpt lat="46.8447" lon="5.8613">
        <ele>639.2</ele>
        <time>2020-07-04T12:53:29Z</time>
      </trkpt>
      <trkpt lat="46.84472" lon="5.86122">
        <ele>639.3</ele>
        <time>2020-07-04T12:53:35Z</time>
      </trkpt>
      <trkpt lat="46.84474" lon="5.86114">
        <ele>639.5</ele>
        <time>2020-07-04T12:53:45Z</time>
      </trkpt>
      <trkpt lat="46.84473" lon="5.86107">
        <ele>639.3</ele>
        <time>2020-07-04T12:53:49Z</time>
      </trkpt>
      <trkpt lat="46.84472" lon="5.861">
        <ele>639.2</ele>
        <time>2020-07-04T12:53:56Z</time>
      </trkpt>
      <trkpt lat="46.84472" lon="5.86093">
        <ele>638.8</ele>
        <time>2020-07-04T12:54:01Z</time>
      </trkpt>
      <trkpt lat="46.84474" lon="5.86085">
        <ele>638.1</ele>
        <time>2020-07-04T12:54:07Z</time>
      </trkpt>
      <trkpt lat="46.84475" lon="5.86075">
        <ele>637.8</ele>
        <time>2020-07-04T12:54:09Z</time>
      </trkpt>
      <trkpt lat="46.84476" lon="5.86067">
        <ele>637.6</ele>
        <time>2020-07-04T12:54:11Z</time>
      </trkpt>
      <trkpt lat="46.84477" lon="5.8606">
        <ele>636.9</ele>
        <time>2020-07-04T12:54:15Z</time>
      </trkpt>
      <trkpt lat="46.84475" lon="5.86054">
        <ele>635.6</ele>
        <time>2020-07-04T12:54:22Z</time>
      </trkpt>
      <trkpt lat="46.84473" lon="5.86048">
        <ele>633.6</ele>
        <time>2020-07-04T12:54:36Z</time>
      </trkpt>
      <trkpt lat="46.84479" lon="5.86033">
        <ele>634.4</ele>
        <time>2020-07-04T12:55:12Z</time>
      </trkpt>
      <trkpt lat="46.84484" lon="5.86027">
        <ele>636.2</ele>
        <time>2020-07-04T12:55:28Z</time>
      </trkpt>
      <trkpt lat="46.84486" lon="5.8602">
        <ele>637</ele>
        <time>2020-07-04T12:55:36Z</time>
      </trkpt>
      <trkpt lat="46.84485" lon="5.8601">
        <ele>637.3</ele>
        <time>2020-07-04T12:55:41Z</time>
      </trkpt>
      <trkpt lat="46.84485" lon="5.86003">
        <ele>637.4</ele>
        <time>2020-07-04T12:55:45Z</time>
      </trkpt>
      <trkpt lat="46.84485" lon="5.85984">
        <ele>635.7</ele>
        <time>2020-07-04T12:57:40Z</time>
      </trkpt>
      <trkpt lat="46.84469" lon="5.85977">
        <ele>636.7</ele>
        <time>2020-07-04T12:58:05Z</time>
      </trkpt>
      <trkpt lat="46.84465" lon="5.85973">
        <ele>635.8</ele>
        <time>2020-07-04T12:58:13Z</time>
      </trkpt>
      <trkpt lat="46.84459" lon="5.85965">
        <ele>634.4</ele>
        <time>2020-07-04T12:58:31Z</time>
      </trkpt>
      <trkpt lat="46.84454" lon="5.85957">
        <ele>635</ele>
        <time>2020-07-04T12:58:51Z</time>
      </trkpt>
      <trkpt lat="46.8445" lon="5.85954">
        <ele>635.1</ele>
        <time>2020-07-04T12:58:56Z</time>
      </trkpt>
      <trkpt lat="46.84445" lon="5.85952">
        <ele>636.8</ele>
        <time>2020-07-04T12:59:32Z</time>
      </trkpt>
      <trkpt lat="46.84439" lon="5.85951">
        <ele>637.4</ele>
        <time>2020-07-04T12:59:41Z</time>
      </trkpt>
      <trkpt lat="46.84435" lon="5.85949">
        <ele>637.5</ele>
        <time>2020-07-04T12:59:48Z</time>
      </trkpt>
      <trkpt lat="46.8443" lon="5.85949">
        <ele>637.2</ele>
        <time>2020-07-04T12:59:54Z</time>
      </trkpt>
      <trkpt lat="46.8442" lon="5.85952">
        <ele>637</ele>
        <time>2020-07-04T13:00:10Z</time>
      </trkpt>
      <trkpt lat="46.84415" lon="5.85953">
        <ele>637.6</ele>
        <time>2020-07-04T13:00:20Z</time>
      </trkpt>
      <trkpt lat="46.8441" lon="5.85957">
        <ele>637.8</ele>
        <time>2020-07-04T13:00:23Z</time>
      </trkpt>
      <trkpt lat="46.84406" lon="5.85962">
        <ele>638</ele>
        <time>2020-07-04T13:00:26Z</time>
      </trkpt>
      <trkpt lat="46.84402" lon="5.85965">
        <ele>638.1</ele>
        <time>2020-07-04T13:00:30Z</time>
      </trkpt>
      <trkpt lat="46.84398" lon="5.85968">
        <ele>638.2</ele>
        <time>2020-07-04T13:00:35Z</time>
      </trkpt>
      <trkpt lat="46.84393" lon="5.85969">
        <ele>638</ele>
        <time>2020-07-04T13:00:42Z</time>
      </trkpt>
      <trkpt lat="46.84389" lon="5.85972">
        <ele>636.8</ele>
        <time>2020-07-04T13:00:53Z</time>
      </trkpt>
      <trkpt lat="46.84384" lon="5.85974">
        <ele>635.8</ele>
        <time>2020-07-04T13:00:59Z</time>
      </trkpt>
      <trkpt lat="46.84379" lon="5.85974">
        <ele>634.9</ele>
        <time>2020-07-04T13:01:07Z</time>
      </trkpt>
      <trkpt lat="46.84374" lon="5.85977">
        <ele>634.9</ele>
        <time>2020-07-04T13:01:13Z</time>
      </trkpt>
      <trkpt lat="46.84361" lon="5.85986">
        <ele>635.1</ele>
        <time>2020-07-04T13:01:24Z</time>
      </trkpt>
      <trkpt lat="46.84356" lon="5.85987">
        <ele>635.3</ele>
        <time>2020-07-04T13:01:29Z</time>
      </trkpt>
      <trkpt lat="46.84351" lon="5.8599">
        <ele>635.5</ele>
        <time>2020-07-04T13:01:34Z</time>
      </trkpt>
      <trkpt lat="46.84347" lon="5.85992">
        <ele>635.4</ele>
        <time>2020-07-04T13:01:37Z</time>
      </trkpt>
      <trkpt lat="46.84343" lon="5.85995">
        <ele>635.4</ele>
        <time>2020-07-04T13:01:40Z</time>
      </trkpt>
      <trkpt lat="46.84338" lon="5.85997">
        <ele>635.4</ele>
        <time>2020-07-04T13:01:44Z</time>
      </trkpt>
      <trkpt lat="46.84333" lon="5.85998">
        <ele>635.6</ele>
        <time>2020-07-04T13:01:49Z</time>
      </trkpt>
      <trkpt lat="46.84328" lon="5.85999">
        <ele>635.7</ele>
        <time>2020-07-04T13:01:54Z</time>
      </trkpt>
      <trkpt lat="46.84323" lon="5.85998">
        <ele>636</ele>
        <time>2020-07-04T13:01:59Z</time>
      </trkpt>
      <trkpt lat="46.84318" lon="5.85996">
        <ele>636.4</ele>
        <time>2020-07-04T13:02:05Z</time>
      </trkpt>
      <trkpt lat="46.84314" lon="5.85994">
        <ele>637.1</ele>
        <time>2020-07-04T13:02:12Z</time>
      </trkpt>
      <trkpt lat="46.84311" lon="5.85988">
        <ele>637.9</ele>
        <time>2020-07-04T13:02:20Z</time>
      </trkpt>
      <trkpt lat="46.84307" lon="5.85982">
        <ele>638</ele>
        <time>2020-07-04T13:02:25Z</time>
      </trkpt>
      <trkpt lat="46.84305" lon="5.85976">
        <ele>637.7</ele>
        <time>2020-07-04T13:02:29Z</time>
      </trkpt>
      <trkpt lat="46.84303" lon="5.8597">
        <ele>637.2</ele>
        <time>2020-07-04T13:02:34Z</time>
      </trkpt>
      <trkpt lat="46.84299" lon="5.85967">
        <ele>636.7</ele>
        <time>2020-07-04T13:02:39Z</time>
      </trkpt>
      <trkpt lat="46.84295" lon="5.85963">
        <ele>636.5</ele>
        <time>2020-07-04T13:02:43Z</time>
      </trkpt>
      <trkpt lat="46.84292" lon="5.85969">
        <ele>636.6</ele>
        <time>2020-07-04T13:03:08Z</time>
      </trkpt>
      <trkpt lat="46.8429" lon="5.85973">
        <ele>643.4</ele>
        <time>2020-07-04T13:06:30Z</time>
      </trkpt>
      <trkpt lat="46.84295" lon="5.85973">
        <ele>643.8</ele>
        <time>2020-07-04T13:06:35Z</time>
      </trkpt>
      <trkpt lat="46.843" lon="5.85977">
        <ele>644</ele>
        <time>2020-07-04T13:06:40Z</time>
      </trkpt>
      <trkpt lat="46.84307" lon="5.85988">
        <ele>644.6</ele>
        <time>2020-07-04T13:06:51Z</time>
      </trkpt>
      <trkpt lat="46.8431" lon="5.85993">
        <ele>644.7</ele>
        <time>2020-07-04T13:06:55Z</time>
      </trkpt>
      <trkpt lat="46.84313" lon="5.85999">
        <ele>645</ele>
        <time>2020-07-04T13:07:03Z</time>
      </trkpt>
      <trkpt lat="46.84317" lon="5.86003">
        <ele>645.2</ele>
        <time>2020-07-04T13:07:08Z</time>
      </trkpt>
      <trkpt lat="46.84323" lon="5.86006">
        <ele>645.4</ele>
        <time>2020-07-04T13:07:15Z</time>
      </trkpt>
      <trkpt lat="46.84328" lon="5.86006">
        <ele>645.2</ele>
        <time>2020-07-04T13:07:20Z</time>
      </trkpt>
      <trkpt lat="46.84332" lon="5.86005">
        <ele>644.4</ele>
        <time>2020-07-04T13:07:30Z</time>
      </trkpt>
      <trkpt lat="46.84337" lon="5.86004">
        <ele>643.4</ele>
        <time>2020-07-04T13:07:37Z</time>
      </trkpt>
      <trkpt lat="46.84344" lon="5.86004">
        <ele>642.3</ele>
        <time>2020-07-04T13:07:44Z</time>
      </trkpt>
      <trkpt lat="46.84349" lon="5.86002">
        <ele>641.9</ele>
        <time>2020-07-04T13:07:47Z</time>
      </trkpt>
      <trkpt lat="46.84354" lon="5.86001">
        <ele>641.5</ele>
        <time>2020-07-04T13:07:50Z</time>
      </trkpt>
      <trkpt lat="46.8436" lon="5.85999">
        <ele>641.2</ele>
        <time>2020-07-04T13:07:54Z</time>
      </trkpt>
      <trkpt lat="46.84365" lon="5.85997">
        <ele>640.9</ele>
        <time>2020-07-04T13:07:58Z</time>
      </trkpt>
      <trkpt lat="46.84369" lon="5.85996">
        <ele>640.5</ele>
        <time>2020-07-04T13:08:02Z</time>
      </trkpt>
      <trkpt lat="46.84374" lon="5.85993">
        <ele>640</ele>
        <time>2020-07-04T13:08:06Z</time>
      </trkpt>
      <trkpt lat="46.84378" lon="5.85989">
        <ele>639.5</ele>
        <time>2020-07-04T13:08:12Z</time>
      </trkpt>
      <trkpt lat="46.84382" lon="5.85986">
        <ele>639</ele>
        <time>2020-07-04T13:08:17Z</time>
      </trkpt>
      <trkpt lat="46.84387" lon="5.85983">
        <ele>638.4</ele>
        <time>2020-07-04T13:08:22Z</time>
      </trkpt>
      <trkpt lat="46.84391" lon="5.8598">
        <ele>637.7</ele>
        <time>2020-07-04T13:08:28Z</time>
      </trkpt>
      <trkpt lat="46.84395" lon="5.85976">
        <ele>637.2</ele>
        <time>2020-07-04T13:08:33Z</time>
      </trkpt>
      <trkpt lat="46.84399" lon="5.85971">
        <ele>636.9</ele>
        <time>2020-07-04T13:08:37Z</time>
      </trkpt>
      <trkpt lat="46.84403" lon="5.85965">
        <ele>636.7</ele>
        <time>2020-07-04T13:08:41Z</time>
      </trkpt>
      <trkpt lat="46.84406" lon="5.8596">
        <ele>636.8</ele>
        <time>2020-07-04T13:08:46Z</time>
      </trkpt>
      <trkpt lat="46.8441" lon="5.85955">
        <ele>637</ele>
        <time>2020-07-04T13:08:51Z</time>
      </trkpt>
      <trkpt lat="46.84414" lon="5.85951">
        <ele>637.2</ele>
        <time>2020-07-04T13:08:56Z</time>
      </trkpt>
      <trkpt lat="46.84418" lon="5.85948">
        <ele>637.5</ele>
        <time>2020-07-04T13:09:02Z</time>
      </trkpt>
      <trkpt lat="46.84422" lon="5.85945">
        <ele>637.7</ele>
        <time>2020-07-04T13:09:07Z</time>
      </trkpt>
      <trkpt lat="46.84427" lon="5.85943">
        <ele>637.7</ele>
        <time>2020-07-04T13:09:12Z</time>
      </trkpt>
      <trkpt lat="46.84431" lon="5.85941">
        <ele>637.7</ele>
        <time>2020-07-04T13:09:18Z</time>
      </trkpt>
      <trkpt lat="46.84436" lon="5.85939">
        <ele>637.4</ele>
        <time>2020-07-04T13:09:24Z</time>
      </trkpt>
      <trkpt lat="46.84431" lon="5.85925">
        <ele>632.5</ele>
        <time>2020-07-04T13:10:03Z</time>
      </trkpt>
      <trkpt lat="46.84427" lon="5.85921">
        <ele>630.8</ele>
        <time>2020-07-04T13:10:12Z</time>
      </trkpt>
      <trkpt lat="46.84402" lon="5.85888">
        <ele>628.9</ele>
        <time>2020-07-04T13:12:52Z</time>
      </trkpt>
      <trkpt lat="46.84398" lon="5.85883">
        <ele>628.6</ele>
        <time>2020-07-04T13:12:55Z</time>
      </trkpt>
      <trkpt lat="46.84397" lon="5.85876">
        <ele>627.8</ele>
        <time>2020-07-04T13:13:03Z</time>
      </trkpt>
      <trkpt lat="46.84397" lon="5.85861">
        <ele>627.3</ele>
        <time>2020-07-04T13:13:20Z</time>
      </trkpt>
      <trkpt lat="46.84395" lon="5.85854">
        <ele>627.5</ele>
        <time>2020-07-04T13:13:22Z</time>
      </trkpt>
      <trkpt lat="46.84395" lon="5.85848">
        <ele>627.7</ele>
        <time>2020-07-04T13:13:24Z</time>
      </trkpt>
      <trkpt lat="46.84396" lon="5.8584">
        <ele>628.7</ele>
        <time>2020-07-04T13:13:32Z</time>
      </trkpt>
      <trkpt lat="46.84394" lon="5.85834">
        <ele>629.7</ele>
        <time>2020-07-04T13:13:38Z</time>
      </trkpt>
      <trkpt lat="46.84401" lon="5.85808">
        <ele>631.3</ele>
        <time>2020-07-04T13:14:08Z</time>
      </trkpt>
      <trkpt lat="46.84403" lon="5.85802">
        <ele>631.5</ele>
        <time>2020-07-04T13:14:11Z</time>
      </trkpt>
      <trkpt lat="46.84413" lon="5.85777">
        <ele>631</ele>
        <time>2020-07-04T13:14:29Z</time>
      </trkpt>
      <trkpt lat="46.84418" lon="5.85763">
        <ele>629.6</ele>
        <time>2020-07-04T13:14:54Z</time>
      </trkpt>
      <trkpt lat="46.84416" lon="5.85739">
        <ele>628.1</ele>
        <time>2020-07-04T13:15:09Z</time>
      </trkpt>
      <trkpt lat="46.84411" lon="5.85723">
        <ele>627.9</ele>
        <time>2020-07-04T13:15:21Z</time>
      </trkpt>
      <trkpt lat="46.84389" lon="5.85696">
        <ele>628.5</ele>
        <time>2020-07-04T13:16:00Z</time>
      </trkpt>
      <trkpt lat="46.84384" lon="5.85692">
        <ele>628.6</ele>
        <time>2020-07-04T13:16:04Z</time>
      </trkpt>
      <trkpt lat="46.84357" lon="5.8566">
        <ele>622.6</ele>
        <time>2020-07-04T13:17:41Z</time>
      </trkpt>
      <trkpt lat="46.84353" lon="5.85657">
        <ele>622.5</ele>
        <time>2020-07-04T13:17:44Z</time>
      </trkpt>
      <trkpt lat="46.8435" lon="5.85646">
        <ele>625</ele>
        <time>2020-07-04T13:17:56Z</time>
      </trkpt>
      <trkpt lat="46.84351" lon="5.85639">
        <ele>626.2</ele>
        <time>2020-07-04T13:18:01Z</time>
      </trkpt>
      <trkpt lat="46.84354" lon="5.85633">
        <ele>628.3</ele>
        <time>2020-07-04T13:18:07Z</time>
      </trkpt>
      <trkpt lat="46.84357" lon="5.85626">
        <ele>629.5</ele>
        <time>2020-07-04T13:18:11Z</time>
      </trkpt>
      <trkpt lat="46.84359" lon="5.85618">
        <ele>630.6</ele>
        <time>2020-07-04T13:18:15Z</time>
      </trkpt>
      <trkpt lat="46.84359" lon="5.85611">
        <ele>631.3</ele>
        <time>2020-07-04T13:18:18Z</time>
      </trkpt>
      <trkpt lat="46.84359" lon="5.85603">
        <ele>632</ele>
        <time>2020-07-04T13:18:21Z</time>
      </trkpt>
      <trkpt lat="46.84362" lon="5.85597">
        <ele>633.1</ele>
        <time>2020-07-04T13:18:27Z</time>
      </trkpt>
      <trkpt lat="46.84364" lon="5.85592">
        <ele>634.2</ele>
        <time>2020-07-04T13:18:34Z</time>
      </trkpt>
      <trkpt lat="46.84367" lon="5.85586">
        <ele>635.2</ele>
        <time>2020-07-04T13:18:40Z</time>
      </trkpt>
      <trkpt lat="46.84371" lon="5.85566">
        <ele>637.9</ele>
        <time>2020-07-04T13:18:54Z</time>
      </trkpt>
      <trkpt lat="46.84391" lon="5.85537">
        <ele>637.6</ele>
        <time>2020-07-04T13:19:16Z</time>
      </trkpt>
      <trkpt lat="46.84395" lon="5.85533">
        <ele>637.3</ele>
        <time>2020-07-04T13:19:20Z</time>
      </trkpt>
      <trkpt lat="46.84399" lon="5.8553">
        <ele>636.9</ele>
        <time>2020-07-04T13:19:24Z</time>
      </trkpt>
      <trkpt lat="46.84404" lon="5.85527">
        <ele>636.3</ele>
        <time>2020-07-04T13:19:29Z</time>
      </trkpt>
      <trkpt lat="46.84409" lon="5.85525">
        <ele>635.6</ele>
        <time>2020-07-04T13:19:35Z</time>
      </trkpt>
      <trkpt lat="46.84414" lon="5.8552">
        <ele>635.2</ele>
        <time>2020-07-04T13:19:38Z</time>
      </trkpt>
      <trkpt lat="46.84419" lon="5.85516">
        <ele>634.5</ele>
        <time>2020-07-04T13:19:44Z</time>
      </trkpt>
      <trkpt lat="46.84423" lon="5.85514">
        <ele>634.1</ele>
        <time>2020-07-04T13:19:48Z</time>
      </trkpt>
      <trkpt lat="46.84423" lon="5.85506">
        <ele>633.5</ele>
        <time>2020-07-04T13:19:53Z</time>
      </trkpt>
      <trkpt lat="46.8442" lon="5.85497">
        <ele>633.2</ele>
        <time>2020-07-04T13:19:55Z</time>
      </trkpt>
      <trkpt lat="46.84421" lon="5.8549">
        <ele>632.9</ele>
        <time>2020-07-04T13:19:57Z</time>
      </trkpt>
      <trkpt lat="46.84421" lon="5.85483">
        <ele>631.8</ele>
        <time>2020-07-04T13:20:04Z</time>
      </trkpt>
      <trkpt lat="46.84419" lon="5.85476">
        <ele>631.3</ele>
        <time>2020-07-04T13:20:12Z</time>
      </trkpt>
      <trkpt lat="46.84415" lon="5.85469">
        <ele>631.3</ele>
        <time>2020-07-04T13:20:15Z</time>
      </trkpt>
      <trkpt lat="46.84412" lon="5.85464">
        <ele>631.2</ele>
        <time>2020-07-04T13:20:17Z</time>
      </trkpt>
      <trkpt lat="46.8441" lon="5.85457">
        <ele>630.9</ele>
        <time>2020-07-04T13:20:25Z</time>
      </trkpt>
      <trkpt lat="46.84414" lon="5.85453">
        <ele>630.5</ele>
        <time>2020-07-04T13:20:31Z</time>
      </trkpt>
      <trkpt lat="46.84418" lon="5.85446">
        <ele>630.3</ele>
        <time>2020-07-04T13:20:34Z</time>
      </trkpt>
      <trkpt lat="46.84421" lon="5.8544">
        <ele>629.9</ele>
        <time>2020-07-04T13:20:39Z</time>
      </trkpt>
      <trkpt lat="46.84422" lon="5.85431">
        <ele>629.6</ele>
        <time>2020-07-04T13:20:42Z</time>
      </trkpt>
      <trkpt lat="46.84424" lon="5.85424">
        <ele>629.2</ele>
        <time>2020-07-04T13:20:45Z</time>
      </trkpt>
      <trkpt lat="46.84425" lon="5.85417">
        <ele>628.7</ele>
        <time>2020-07-04T13:20:50Z</time>
      </trkpt>
      <trkpt lat="46.84427" lon="5.85411">
        <ele>628</ele>
        <time>2020-07-04T13:20:56Z</time>
      </trkpt>
      <trkpt lat="46.84429" lon="5.85404">
        <ele>627.1</ele>
        <time>2020-07-04T13:21:02Z</time>
      </trkpt>
      <trkpt lat="46.8443" lon="5.85395">
        <ele>626</ele>
        <time>2020-07-04T13:21:08Z</time>
      </trkpt>
      <trkpt lat="46.84429" lon="5.85388">
        <ele>625.5</ele>
        <time>2020-07-04T13:21:11Z</time>
      </trkpt>
      <trkpt lat="46.84431" lon="5.85382">
        <ele>624.4</ele>
        <time>2020-07-04T13:21:17Z</time>
      </trkpt>
      <trkpt lat="46.84432" lon="5.85373">
        <ele>623.9</ele>
        <time>2020-07-04T13:21:21Z</time>
      </trkpt>
      <trkpt lat="46.84433" lon="5.85365">
        <ele>623.6</ele>
        <time>2020-07-04T13:21:24Z</time>
      </trkpt>
      <trkpt lat="46.84433" lon="5.85358">
        <ele>623.3</ele>
        <time>2020-07-04T13:21:30Z</time>
      </trkpt>
      <trkpt lat="46.84433" lon="5.85351">
        <ele>623.4</ele>
        <time>2020-07-04T13:21:33Z</time>
      </trkpt>
      <trkpt lat="46.84434" lon="5.85344">
        <ele>623.6</ele>
        <time>2020-07-04T13:21:39Z</time>
      </trkpt>
      <trkpt lat="46.84433" lon="5.85337">
        <ele>623.7</ele>
        <time>2020-07-04T13:21:45Z</time>
      </trkpt>
      <trkpt lat="46.84432" lon="5.8533">
        <ele>623.8</ele>
        <time>2020-07-04T13:21:48Z</time>
      </trkpt>
      <trkpt lat="46.84431" lon="5.85322">
        <ele>624</ele>
        <time>2020-07-04T13:21:52Z</time>
      </trkpt>
      <trkpt lat="46.84431" lon="5.85316">
        <ele>623.9</ele>
        <time>2020-07-04T13:21:59Z</time>
      </trkpt>
      <trkpt lat="46.84432" lon="5.85309">
        <ele>623.6</ele>
        <time>2020-07-04T13:22:07Z</time>
      </trkpt>
      <trkpt lat="46.84432" lon="5.853">
        <ele>623.7</ele>
        <time>2020-07-04T13:22:09Z</time>
      </trkpt>
      <trkpt lat="46.84432" lon="5.85294">
        <ele>623.9</ele>
        <time>2020-07-04T13:22:12Z</time>
      </trkpt>
      <trkpt lat="46.84431" lon="5.85286">
        <ele>624.2</ele>
        <time>2020-07-04T13:22:17Z</time>
      </trkpt>
      <trkpt lat="46.84434" lon="5.85249">
        <ele>625.7</ele>
        <time>2020-07-04T13:22:39Z</time>
      </trkpt>
      <trkpt lat="46.84433" lon="5.85242">
        <ele>625.8</ele>
        <time>2020-07-04T13:22:43Z</time>
      </trkpt>
      <trkpt lat="46.84433" lon="5.85235">
        <ele>626</ele>
        <time>2020-07-04T13:22:48Z</time>
      </trkpt>
      <trkpt lat="46.84433" lon="5.85228">
        <ele>626.3</ele>
        <time>2020-07-04T13:22:53Z</time>
      </trkpt>
      <trkpt lat="46.8443" lon="5.8522">
        <ele>626.2</ele>
        <time>2020-07-04T13:22:56Z</time>
      </trkpt>
      <trkpt lat="46.84429" lon="5.85213">
        <ele>626.2</ele>
        <time>2020-07-04T13:22:58Z</time>
      </trkpt>
      <trkpt lat="46.84427" lon="5.85205">
        <ele>626.1</ele>
        <time>2020-07-04T13:23:01Z</time>
      </trkpt>
      <trkpt lat="46.84428" lon="5.85197">
        <ele>625.6</ele>
        <time>2020-07-04T13:23:06Z</time>
      </trkpt>
      <trkpt lat="46.84429" lon="5.85184">
        <ele>625.1</ele>
        <time>2020-07-04T13:23:22Z</time>
      </trkpt>
      <trkpt lat="46.84426" lon="5.85178">
        <ele>624.9</ele>
        <time>2020-07-04T13:23:29Z</time>
      </trkpt>
      <trkpt lat="46.84423" lon="5.85174">
        <ele>624.6</ele>
        <time>2020-07-04T13:23:33Z</time>
      </trkpt>
      <trkpt lat="46.84399" lon="5.85157">
        <ele>630.2</ele>
        <time>2020-07-04T13:25:56Z</time>
      </trkpt>
      <trkpt lat="46.84391" lon="5.85158">
        <ele>624.6</ele>
        <time>2020-07-04T13:27:31Z</time>
      </trkpt>
      <trkpt lat="46.84386" lon="5.85159">
        <ele>623</ele>
        <time>2020-07-04T13:27:37Z</time>
      </trkpt>
      <trkpt lat="46.84382" lon="5.85164">
        <ele>621.7</ele>
        <time>2020-07-04T13:27:45Z</time>
      </trkpt>
      <trkpt lat="46.84378" lon="5.85168">
        <ele>621.5</ele>
        <time>2020-07-04T13:27:50Z</time>
      </trkpt>
      <trkpt lat="46.84373" lon="5.85172">
        <ele>621.4</ele>
        <time>2020-07-04T13:27:56Z</time>
      </trkpt>
      <trkpt lat="46.84369" lon="5.85176">
        <ele>621.4</ele>
        <time>2020-07-04T13:28:01Z</time>
      </trkpt>
      <trkpt lat="46.84365" lon="5.8518">
        <ele>621.4</ele>
        <time>2020-07-04T13:28:05Z</time>
      </trkpt>
      <trkpt lat="46.84361" lon="5.85184">
        <ele>621.6</ele>
        <time>2020-07-04T13:28:10Z</time>
      </trkpt>
      <trkpt lat="46.84358" lon="5.85189">
        <ele>622.3</ele>
        <time>2020-07-04T13:28:15Z</time>
      </trkpt>
      <trkpt lat="46.84354" lon="5.85193">
        <ele>623</ele>
        <time>2020-07-04T13:28:19Z</time>
      </trkpt>
      <trkpt lat="46.8435" lon="5.85198">
        <ele>623.8</ele>
        <time>2020-07-04T13:28:24Z</time>
      </trkpt>
      <trkpt lat="46.84346" lon="5.85202">
        <ele>624.4</ele>
        <time>2020-07-04T13:28:29Z</time>
      </trkpt>
      <trkpt lat="46.84342" lon="5.85206">
        <ele>625.1</ele>
        <time>2020-07-04T13:28:33Z</time>
      </trkpt>
      <trkpt lat="46.84337" lon="5.85209">
        <ele>625.5</ele>
        <time>2020-07-04T13:28:36Z</time>
      </trkpt>
      <trkpt lat="46.84331" lon="5.85212">
        <ele>626.3</ele>
        <time>2020-07-04T13:28:40Z</time>
      </trkpt>
      <trkpt lat="46.84326" lon="5.85215">
        <ele>627</ele>
        <time>2020-07-04T13:28:44Z</time>
      </trkpt>
      <trkpt lat="46.84322" lon="5.85218">
        <ele>627.7</ele>
        <time>2020-07-04T13:28:48Z</time>
      </trkpt>
      <trkpt lat="46.84308" lon="5.85185">
        <ele>626.9</ele>
        <time>2020-07-04T13:30:24Z</time>
      </trkpt>
      <trkpt lat="46.84298" lon="5.85162">
        <ele>626</ele>
        <time>2020-07-04T13:30:44Z</time>
      </trkpt>
      <trkpt lat="46.84288" lon="5.85129">
        <ele>627</ele>
        <time>2020-07-04T13:33:10Z</time>
      </trkpt>
      <trkpt lat="46.84283" lon="5.85111">
        <ele>629.1</ele>
        <time>2020-07-04T13:34:29Z</time>
      </trkpt>
      <trkpt lat="46.84285" lon="5.85127">
        <ele>630.4</ele>
        <time>2020-07-04T13:34:57Z</time>
      </trkpt>
      <trkpt lat="46.84287" lon="5.85134">
        <ele>631.3</ele>
        <time>2020-07-04T13:35:06Z</time>
      </trkpt>
      <trkpt lat="46.84286" lon="5.85141">
        <ele>630</ele>
        <time>2020-07-04T13:35:22Z</time>
      </trkpt>
      <trkpt lat="46.84302" lon="5.85177">
        <ele>625.3</ele>
        <time>2020-07-04T13:35:56Z</time>
      </trkpt>
      <trkpt lat="46.84314" lon="5.85192">
        <ele>622.9</ele>
        <time>2020-07-04T13:37:28Z</time>
      </trkpt>
      <trkpt lat="46.84332" lon="5.85206">
        <ele>620.1</ele>
        <time>2020-07-04T13:37:40Z</time>
      </trkpt>
      <trkpt lat="46.84331" lon="5.85214">
        <ele>620.2</ele>
        <time>2020-07-04T13:37:46Z</time>
      </trkpt>
      <trkpt lat="46.84318" lon="5.85244">
        <ele>623.1</ele>
        <time>2020-07-04T13:38:01Z</time>
      </trkpt>
      <trkpt lat="46.84314" lon="5.85247">
        <ele>624.1</ele>
        <time>2020-07-04T13:38:06Z</time>
      </trkpt>
      <trkpt lat="46.8431" lon="5.85252">
        <ele>624.9</ele>
        <time>2020-07-04T13:38:10Z</time>
      </trkpt>
      <trkpt lat="46.84306" lon="5.85256">
        <ele>625.9</ele>
        <time>2020-07-04T13:38:15Z</time>
      </trkpt>
      <trkpt lat="46.84302" lon="5.85259">
        <ele>626.5</ele>
        <time>2020-07-04T13:38:20Z</time>
      </trkpt>
      <trkpt lat="46.84297" lon="5.85264">
        <ele>626.6</ele>
        <time>2020-07-04T13:38:23Z</time>
      </trkpt>
      <trkpt lat="46.84292" lon="5.85265">
        <ele>626.3</ele>
        <time>2020-07-04T13:38:26Z</time>
      </trkpt>
      <trkpt lat="46.84286" lon="5.85265">
        <ele>626</ele>
        <time>2020-07-04T13:38:29Z</time>
      </trkpt>
      <trkpt lat="46.84276" lon="5.85274">
        <ele>623.1</ele>
        <time>2020-07-04T13:38:41Z</time>
      </trkpt>
      <trkpt lat="46.84271" lon="5.85279">
        <ele>622.4</ele>
        <time>2020-07-04T13:38:45Z</time>
      </trkpt>
      <trkpt lat="46.84267" lon="5.85283">
        <ele>621.5</ele>
        <time>2020-07-04T13:38:50Z</time>
      </trkpt>
      <trkpt lat="46.84264" lon="5.85288">
        <ele>620.7</ele>
        <time>2020-07-04T13:38:55Z</time>
      </trkpt>
      <trkpt lat="46.84258" lon="5.85292">
        <ele>620.1</ele>
        <time>2020-07-04T13:38:59Z</time>
      </trkpt>
      <trkpt lat="46.84254" lon="5.85296">
        <ele>619.7</ele>
        <time>2020-07-04T13:39:03Z</time>
      </trkpt>
      <trkpt lat="46.8425" lon="5.853">
        <ele>618.8</ele>
        <time>2020-07-04T13:39:13Z</time>
      </trkpt>
      <trkpt lat="46.84244" lon="5.85308">
        <ele>618.6</ele>
        <time>2020-07-04T13:39:20Z</time>
      </trkpt>
      <trkpt lat="46.84241" lon="5.85313">
        <ele>618.6</ele>
        <time>2020-07-04T13:39:22Z</time>
      </trkpt>
      <trkpt lat="46.84221" lon="5.85331">
        <ele>621.8</ele>
        <time>2020-07-04T13:39:44Z</time>
      </trkpt>
      <trkpt lat="46.84217" lon="5.85335">
        <ele>621.9</ele>
        <time>2020-07-04T13:39:46Z</time>
      </trkpt>
      <trkpt lat="46.84214" lon="5.85339">
        <ele>622</ele>
        <time>2020-07-04T13:39:49Z</time>
      </trkpt>
      <trkpt lat="46.84209" lon="5.85342">
        <ele>622</ele>
        <time>2020-07-04T13:39:52Z</time>
      </trkpt>
      <trkpt lat="46.84204" lon="5.85344">
        <ele>622</ele>
        <time>2020-07-04T13:39:56Z</time>
      </trkpt>
      <trkpt lat="46.842" lon="5.85348">
        <ele>622.2</ele>
        <time>2020-07-04T13:40:01Z</time>
      </trkpt>
      <trkpt lat="46.84197" lon="5.85353">
        <ele>622.4</ele>
        <time>2020-07-04T13:40:07Z</time>
      </trkpt>
      <trkpt lat="46.84192" lon="5.85355">
        <ele>622.4</ele>
        <time>2020-07-04T13:40:12Z</time>
      </trkpt>
      <trkpt lat="46.84188" lon="5.85359">
        <ele>622.3</ele>
        <time>2020-07-04T13:40:14Z</time>
      </trkpt>
      <trkpt lat="46.84185" lon="5.85365">
        <ele>622.4</ele>
        <time>2020-07-04T13:40:16Z</time>
      </trkpt>
      <trkpt lat="46.8418" lon="5.85368">
        <ele>622.4</ele>
        <time>2020-07-04T13:40:21Z</time>
      </trkpt>
      <trkpt lat="46.84175" lon="5.8537">
        <ele>622.6</ele>
        <time>2020-07-04T13:40:25Z</time>
      </trkpt>
      <trkpt lat="46.84153" lon="5.85378">
        <ele>622.3</ele>
        <time>2020-07-04T13:41:09Z</time>
      </trkpt>
      <trkpt lat="46.84148" lon="5.85376">
        <ele>622.2</ele>
        <time>2020-07-04T13:41:14Z</time>
      </trkpt>
      <trkpt lat="46.84142" lon="5.85374">
        <ele>622</ele>
        <time>2020-07-04T13:41:19Z</time>
      </trkpt>
      <trkpt lat="46.84137" lon="5.85374">
        <ele>622</ele>
        <time>2020-07-04T13:41:24Z</time>
      </trkpt>
      <trkpt lat="46.84131" lon="5.85374">
        <ele>621.9</ele>
        <time>2020-07-04T13:41:29Z</time>
      </trkpt>
      <trkpt lat="46.84126" lon="5.85372">
        <ele>621.8</ele>
        <time>2020-07-04T13:41:33Z</time>
      </trkpt>
      <trkpt lat="46.84121" lon="5.85371">
        <ele>621.9</ele>
        <time>2020-07-04T13:41:37Z</time>
      </trkpt>
      <trkpt lat="46.84116" lon="5.85371">
        <ele>622</ele>
        <time>2020-07-04T13:41:41Z</time>
      </trkpt>
      <trkpt lat="46.84112" lon="5.85368">
        <ele>622.3</ele>
        <time>2020-07-04T13:41:46Z</time>
      </trkpt>
      <trkpt lat="46.84107" lon="5.85365">
        <ele>622.7</ele>
        <time>2020-07-04T13:41:50Z</time>
      </trkpt>
      <trkpt lat="46.84103" lon="5.85369">
        <ele>623.6</ele>
        <time>2020-07-04T13:42:01Z</time>
      </trkpt>
      <trkpt lat="46.84098" lon="5.8537">
        <ele>624.2</ele>
        <time>2020-07-04T13:42:07Z</time>
      </trkpt>
      <trkpt lat="46.84094" lon="5.85366">
        <ele>625.1</ele>
        <time>2020-07-04T13:42:13Z</time>
      </trkpt>
      <trkpt lat="46.84092" lon="5.85359">
        <ele>625.9</ele>
        <time>2020-07-04T13:42:19Z</time>
      </trkpt>
      <trkpt lat="46.84088" lon="5.85352">
        <ele>626.6</ele>
        <time>2020-07-04T13:42:24Z</time>
      </trkpt>
      <trkpt lat="46.84085" lon="5.85347">
        <ele>628.4</ele>
        <time>2020-07-04T13:42:34Z</time>
      </trkpt>
      <trkpt lat="46.84084" lon="5.8534">
        <ele>632.6</ele>
        <time>2020-07-04T13:43:28Z</time>
      </trkpt>
      <trkpt lat="46.84083" lon="5.85333">
        <ele>633.1</ele>
        <time>2020-07-04T13:43:32Z</time>
      </trkpt>
      <trkpt lat="46.84083" lon="5.85326">
        <ele>633.3</ele>
        <time>2020-07-04T13:43:44Z</time>
      </trkpt>
      <trkpt lat="46.84082" lon="5.85318">
        <ele>633.6</ele>
        <time>2020-07-04T13:43:50Z</time>
      </trkpt>
      <trkpt lat="46.84082" lon="5.85303">
        <ele>634.2</ele>
        <time>2020-07-04T13:44:24Z</time>
      </trkpt>
      <trkpt lat="46.84092" lon="5.85295">
        <ele>633.6</ele>
        <time>2020-07-04T13:44:52Z</time>
      </trkpt>
      <trkpt lat="46.84094" lon="5.85288">
        <ele>633.5</ele>
        <time>2020-07-04T13:44:57Z</time>
      </trkpt>
      <trkpt lat="46.84096" lon="5.85282">
        <ele>633.4</ele>
        <time>2020-07-04T13:45:01Z</time>
      </trkpt>
      <trkpt lat="46.84103" lon="5.85268">
        <ele>632.4</ele>
        <time>2020-07-04T13:45:13Z</time>
      </trkpt>
      <trkpt lat="46.84103" lon="5.85251">
        <ele>630.4</ele>
        <time>2020-07-04T13:45:28Z</time>
      </trkpt>
      <trkpt lat="46.84101" lon="5.85245">
        <ele>630.2</ele>
        <time>2020-07-04T13:45:31Z</time>
      </trkpt>
      <trkpt lat="46.84098" lon="5.85238">
        <ele>630</ele>
        <time>2020-07-04T13:45:36Z</time>
      </trkpt>
      <trkpt lat="46.84096" lon="5.85231">
        <ele>629.6</ele>
        <time>2020-07-04T13:45:43Z</time>
      </trkpt>
      <trkpt lat="46.84097" lon="5.85224">
        <ele>628.9</ele>
        <time>2020-07-04T13:45:52Z</time>
      </trkpt>
      <trkpt lat="46.84099" lon="5.85215">
        <ele>627.7</ele>
        <time>2020-07-04T13:46:00Z</time>
      </trkpt>
      <trkpt lat="46.84101" lon="5.85208">
        <ele>626.9</ele>
        <time>2020-07-04T13:46:04Z</time>
      </trkpt>
      <trkpt lat="46.841" lon="5.85186">
        <ele>624.3</ele>
        <time>2020-07-04T13:46:15Z</time>
      </trkpt>
      <trkpt lat="46.84099" lon="5.85178">
        <ele>624.3</ele>
        <time>2020-07-04T13:46:18Z</time>
      </trkpt>
      <trkpt lat="46.84097" lon="5.85159">
        <ele>624.7</ele>
        <time>2020-07-04T13:46:28Z</time>
      </trkpt>
      <trkpt lat="46.84098" lon="5.85153">
        <ele>625.9</ele>
        <time>2020-07-04T13:46:36Z</time>
      </trkpt>
      <trkpt lat="46.84101" lon="5.85139">
        <ele>632.1</ele>
        <time>2020-07-04T13:47:16Z</time>
      </trkpt>
      <trkpt lat="46.84101" lon="5.85132">
        <ele>634.2</ele>
        <time>2020-07-04T13:47:27Z</time>
      </trkpt>
      <trkpt lat="46.84099" lon="5.85126">
        <ele>635.3</ele>
        <time>2020-07-04T13:47:35Z</time>
      </trkpt>
      <trkpt lat="46.84087" lon="5.85094">
        <ele>633.1</ele>
        <time>2020-07-04T13:48:19Z</time>
      </trkpt>
      <trkpt lat="46.84082" lon="5.85088">
        <ele>632.6</ele>
        <time>2020-07-04T13:48:21Z</time>
      </trkpt>
      <trkpt lat="46.84069" lon="5.85041">
        <ele>625.8</ele>
        <time>2020-07-04T13:48:46Z</time>
      </trkpt>
      <trkpt lat="46.84072" lon="5.85037">
        <ele>624</ele>
        <time>2020-07-04T13:48:57Z</time>
      </trkpt>
      <trkpt lat="46.8408" lon="5.85027">
        <ele>623.6</ele>
        <time>2020-07-04T13:49:10Z</time>
      </trkpt>
      <trkpt lat="46.84084" lon="5.85022">
        <ele>623.7</ele>
        <time>2020-07-04T13:49:12Z</time>
      </trkpt>
      <trkpt lat="46.84088" lon="5.85016">
        <ele>623.9</ele>
        <time>2020-07-04T13:49:17Z</time>
      </trkpt>
      <trkpt lat="46.84094" lon="5.85005">
        <ele>624.3</ele>
        <time>2020-07-04T13:49:42Z</time>
      </trkpt>
      <trkpt lat="46.84102" lon="5.85002">
        <ele>625.8</ele>
        <time>2020-07-04T13:50:11Z</time>
      </trkpt>
      <trkpt lat="46.8412" lon="5.84976">
        <ele>632.6</ele>
        <time>2020-07-04T13:51:56Z</time>
      </trkpt>
      <trkpt lat="46.84109" lon="5.84943">
        <ele>632.3</ele>
        <time>2020-07-04T13:52:29Z</time>
      </trkpt>
      <trkpt lat="46.84109" lon="5.84937">
        <ele>631.8</ele>
        <time>2020-07-04T13:52:35Z</time>
      </trkpt>
      <trkpt lat="46.84108" lon="5.84928">
        <ele>632.1</ele>
        <time>2020-07-04T13:52:40Z</time>
      </trkpt>
      <trkpt lat="46.84106" lon="5.8492">
        <ele>632.4</ele>
        <time>2020-07-04T13:52:43Z</time>
      </trkpt>
      <trkpt lat="46.84105" lon="5.84914">
        <ele>632.8</ele>
        <time>2020-07-04T13:52:45Z</time>
      </trkpt>
      <trkpt lat="46.84104" lon="5.84907">
        <ele>633.3</ele>
        <time>2020-07-04T13:52:48Z</time>
      </trkpt>
      <trkpt lat="46.84102" lon="5.84901">
        <ele>634</ele>
        <time>2020-07-04T13:52:52Z</time>
      </trkpt>
      <trkpt lat="46.841" lon="5.84894">
        <ele>634.9</ele>
        <time>2020-07-04T13:52:57Z</time>
      </trkpt>
      <trkpt lat="46.84098" lon="5.84888">
        <ele>635.9</ele>
        <time>2020-07-04T13:53:07Z</time>
      </trkpt>
      <trkpt lat="46.84094" lon="5.84883">
        <ele>636.3</ele>
        <time>2020-07-04T13:53:13Z</time>
      </trkpt>
      <trkpt lat="46.84092" lon="5.84876">
        <ele>636.5</ele>
        <time>2020-07-04T13:53:18Z</time>
      </trkpt>
      <trkpt lat="46.84091" lon="5.84868">
        <ele>636.6</ele>
        <time>2020-07-04T13:53:22Z</time>
      </trkpt>
      <trkpt lat="46.84088" lon="5.84861">
        <ele>636.8</ele>
        <time>2020-07-04T13:53:26Z</time>
      </trkpt>
      <trkpt lat="46.84085" lon="5.84855">
        <ele>637.3</ele>
        <time>2020-07-04T13:53:30Z</time>
      </trkpt>
      <trkpt lat="46.84083" lon="5.84849">
        <ele>638.3</ele>
        <time>2020-07-04T13:53:36Z</time>
      </trkpt>
      <trkpt lat="46.84077" lon="5.84832">
        <ele>641.3</ele>
        <time>2020-07-04T13:53:51Z</time>
      </trkpt>
      <trkpt lat="46.84074" lon="5.84826">
        <ele>641.8</ele>
        <time>2020-07-04T13:53:57Z</time>
      </trkpt>
      <trkpt lat="46.84071" lon="5.8482">
        <ele>642.2</ele>
        <time>2020-07-04T13:54:05Z</time>
      </trkpt>
      <trkpt lat="46.84068" lon="5.84815">
        <ele>641.7</ele>
        <time>2020-07-04T13:54:14Z</time>
      </trkpt>
      <trkpt lat="46.84067" lon="5.84808">
        <ele>640</ele>
        <time>2020-07-04T13:54:36Z</time>
      </trkpt>
      <trkpt lat="46.84066" lon="5.84802">
        <ele>639.1</ele>
        <time>2020-07-04T13:54:44Z</time>
      </trkpt>
      <trkpt lat="46.84063" lon="5.84797">
        <ele>638.8</ele>
        <time>2020-07-04T13:54:51Z</time>
      </trkpt>
      <trkpt lat="46.84059" lon="5.84791">
        <ele>638.7</ele>
        <time>2020-07-04T13:54:57Z</time>
      </trkpt>
      <trkpt lat="46.84054" lon="5.84788">
        <ele>638.3</ele>
        <time>2020-07-04T13:55:03Z</time>
      </trkpt>
      <trkpt lat="46.8405" lon="5.84784">
        <ele>637.4</ele>
        <time>2020-07-04T13:55:09Z</time>
      </trkpt>
      <trkpt lat="46.84047" lon="5.8478">
        <ele>635.7</ele>
        <time>2020-07-04T13:55:15Z</time>
      </trkpt>
      <trkpt lat="46.84039" lon="5.84768">
        <ele>626.7</ele>
        <time>2020-07-04T13:55:36Z</time>
      </trkpt>
      <trkpt lat="46.84037" lon="5.84751">
        <ele>622.6</ele>
        <time>2020-07-04T13:55:52Z</time>
      </trkpt>
      <trkpt lat="46.84035" lon="5.84745">
        <ele>621.6</ele>
        <time>2020-07-04T13:56:03Z</time>
      </trkpt>
      <trkpt lat="46.84025" lon="5.84712">
        <ele>617.6</ele>
        <time>2020-07-04T13:56:37Z</time>
      </trkpt>
      <trkpt lat="46.84021" lon="5.84706">
        <ele>617.8</ele>
        <time>2020-07-04T13:56:44Z</time>
      </trkpt>
      <trkpt lat="46.84013" lon="5.84684">
        <ele>619.8</ele>
        <time>2020-07-04T13:57:26Z</time>
      </trkpt>
      <trkpt lat="46.84011" lon="5.84677">
        <ele>620.1</ele>
        <time>2020-07-04T13:57:29Z</time>
      </trkpt>
      <trkpt lat="46.83983" lon="5.84604">
        <ele>621.3</ele>
        <time>2020-07-04T13:58:17Z</time>
      </trkpt>
      <trkpt lat="46.83969" lon="5.84568">
        <ele>624.9</ele>
        <time>2020-07-04T13:58:57Z</time>
      </trkpt>
      <trkpt lat="46.83967" lon="5.8456">
        <ele>625</ele>
        <time>2020-07-04T13:59:05Z</time>
      </trkpt>
      <trkpt lat="46.83965" lon="5.84542">
        <ele>626.9</ele>
        <time>2020-07-04T13:59:26Z</time>
      </trkpt>
      <trkpt lat="46.83964" lon="5.84535">
        <ele>626.9</ele>
        <time>2020-07-04T13:59:28Z</time>
      </trkpt>
      <trkpt lat="46.83963" lon="5.84528">
        <ele>627.5</ele>
        <time>2020-07-04T13:59:39Z</time>
      </trkpt>
      <trkpt lat="46.83957" lon="5.84512">
        <ele>628.8</ele>
        <time>2020-07-04T13:59:59Z</time>
      </trkpt>
      <trkpt lat="46.83948" lon="5.845">
        <ele>628.5</ele>
        <time>2020-07-04T14:00:16Z</time>
      </trkpt>
      <trkpt lat="46.83942" lon="5.845">
        <ele>628.4</ele>
        <time>2020-07-04T14:02:02Z</time>
      </trkpt>
      <trkpt lat="46.83937" lon="5.84499">
        <ele>628.4</ele>
        <time>2020-07-04T14:02:07Z</time>
      </trkpt>
      <trkpt lat="46.83933" lon="5.84495">
        <ele>628.3</ele>
        <time>2020-07-04T14:02:13Z</time>
      </trkpt>
      <trkpt lat="46.83928" lon="5.84491">
        <ele>628.2</ele>
        <time>2020-07-04T14:02:17Z</time>
      </trkpt>
      <trkpt lat="46.83911" lon="5.84484">
        <ele>628.5</ele>
        <time>2020-07-04T14:02:49Z</time>
      </trkpt>
      <trkpt lat="46.83905" lon="5.84484">
        <ele>628.6</ele>
        <time>2020-07-04T14:02:52Z</time>
      </trkpt>
      <trkpt lat="46.839" lon="5.84481">
        <ele>628.5</ele>
        <time>2020-07-04T14:02:54Z</time>
      </trkpt>
      <trkpt lat="46.83888" lon="5.84476">
        <ele>629.1</ele>
        <time>2020-07-04T14:03:04Z</time>
      </trkpt>
      <trkpt lat="46.83883" lon="5.84475">
        <ele>629.3</ele>
        <time>2020-07-04T14:03:12Z</time>
      </trkpt>
      <trkpt lat="46.83878" lon="5.84471">
        <ele>629.8</ele>
        <time>2020-07-04T14:03:21Z</time>
      </trkpt>
      <trkpt lat="46.83874" lon="5.84466">
        <ele>630.4</ele>
        <time>2020-07-04T14:03:26Z</time>
      </trkpt>
      <trkpt lat="46.83869" lon="5.84465">
        <ele>631.1</ele>
        <time>2020-07-04T14:03:32Z</time>
      </trkpt>
      <trkpt lat="46.83864" lon="5.84466">
        <ele>631.5</ele>
        <time>2020-07-04T14:03:35Z</time>
      </trkpt>
      <trkpt lat="46.8386" lon="5.84467">
        <ele>632</ele>
        <time>2020-07-04T14:03:39Z</time>
      </trkpt>
      <trkpt lat="46.83855" lon="5.8447">
        <ele>633</ele>
        <time>2020-07-04T14:03:49Z</time>
      </trkpt>
      <trkpt lat="46.83851" lon="5.84476">
        <ele>633.3</ele>
        <time>2020-07-04T14:03:53Z</time>
      </trkpt>
      <trkpt lat="46.83844" lon="5.84484">
        <ele>633.8</ele>
        <time>2020-07-04T14:04:02Z</time>
      </trkpt>
      <trkpt lat="46.8384" lon="5.84489">
        <ele>633.9</ele>
        <time>2020-07-04T14:04:05Z</time>
      </trkpt>
      <trkpt lat="46.83835" lon="5.84493">
        <ele>634</ele>
        <time>2020-07-04T14:04:13Z</time>
      </trkpt>
      <trkpt lat="46.8383" lon="5.84498">
        <ele>634.1</ele>
        <time>2020-07-04T14:04:16Z</time>
      </trkpt>
      <trkpt lat="46.83826" lon="5.84503">
        <ele>634.8</ele>
        <time>2020-07-04T14:04:32Z</time>
      </trkpt>
      <trkpt lat="46.83817" lon="5.84515">
        <ele>636.4</ele>
        <time>2020-07-04T14:04:56Z</time>
      </trkpt>
      <trkpt lat="46.83813" lon="5.84515">
        <ele>636.2</ele>
        <time>2020-07-04T14:05:06Z</time>
      </trkpt>
      <trkpt lat="46.83808" lon="5.84517">
        <ele>636.2</ele>
        <time>2020-07-04T14:05:13Z</time>
      </trkpt>
      <trkpt lat="46.83803" lon="5.84517">
        <ele>636.3</ele>
        <time>2020-07-04T14:05:16Z</time>
      </trkpt>
      <trkpt lat="46.83788" lon="5.84524">
        <ele>636.9</ele>
        <time>2020-07-04T14:05:27Z</time>
      </trkpt>
      <trkpt lat="46.83777" lon="5.8453">
        <ele>637.4</ele>
        <time>2020-07-04T14:05:39Z</time>
      </trkpt>
      <trkpt lat="46.83771" lon="5.8453">
        <ele>636.7</ele>
        <time>2020-07-04T14:05:46Z</time>
      </trkpt>
      <trkpt lat="46.83765" lon="5.8453">
        <ele>636.5</ele>
        <time>2020-07-04T14:05:50Z</time>
      </trkpt>
      <trkpt lat="46.8376" lon="5.84531">
        <ele>636.2</ele>
        <time>2020-07-04T14:05:55Z</time>
      </trkpt>
      <trkpt lat="46.83756" lon="5.8453">
        <ele>636.1</ele>
        <time>2020-07-04T14:06:05Z</time>
      </trkpt>
      <trkpt lat="46.83753" lon="5.84536">
        <ele>635.5</ele>
        <time>2020-07-04T14:06:18Z</time>
      </trkpt>
      <trkpt lat="46.83745" lon="5.84536">
        <ele>635.6</ele>
        <time>2020-07-04T14:06:23Z</time>
      </trkpt>
      <trkpt lat="46.83733" lon="5.84533">
        <ele>635.9</ele>
        <time>2020-07-04T14:06:35Z</time>
      </trkpt>
      <trkpt lat="46.83728" lon="5.84534">
        <ele>636.1</ele>
        <time>2020-07-04T14:06:38Z</time>
      </trkpt>
      <trkpt lat="46.83724" lon="5.84535">
        <ele>636.3</ele>
        <time>2020-07-04T14:06:40Z</time>
      </trkpt>
      <trkpt lat="46.8372" lon="5.84539">
        <ele>636.6</ele>
        <time>2020-07-04T14:06:46Z</time>
      </trkpt>
      <trkpt lat="46.83716" lon="5.84543">
        <ele>636.6</ele>
        <time>2020-07-04T14:06:50Z</time>
      </trkpt>
      <trkpt lat="46.83711" lon="5.84549">
        <ele>636.8</ele>
        <time>2020-07-04T14:06:53Z</time>
      </trkpt>
      <trkpt lat="46.83707" lon="5.84553">
        <ele>637</ele>
        <time>2020-07-04T14:06:55Z</time>
      </trkpt>
      <trkpt lat="46.83703" lon="5.84556">
        <ele>637.3</ele>
        <time>2020-07-04T14:06:59Z</time>
      </trkpt>
      <trkpt lat="46.83687" lon="5.84558">
        <ele>639</ele>
        <time>2020-07-04T14:07:10Z</time>
      </trkpt>
      <trkpt lat="46.83682" lon="5.84562">
        <ele>639.3</ele>
        <time>2020-07-04T14:07:17Z</time>
      </trkpt>
      <trkpt lat="46.83679" lon="5.84566">
        <ele>639.2</ele>
        <time>2020-07-04T14:07:23Z</time>
      </trkpt>
      <trkpt lat="46.83675" lon="5.84571">
        <ele>639.2</ele>
        <time>2020-07-04T14:07:30Z</time>
      </trkpt>
      <trkpt lat="46.83684" lon="5.84594">
        <ele>636.7</ele>
        <time>2020-07-04T14:08:07Z</time>
      </trkpt>
      <trkpt lat="46.83688" lon="5.84598">
        <ele>636.3</ele>
        <time>2020-07-04T14:15:13Z</time>
      </trkpt>
      <trkpt lat="46.83667" lon="5.84584">
        <ele>635.6</ele>
        <time>2020-07-04T14:16:11Z</time>
      </trkpt>
      <trkpt lat="46.83664" lon="5.8459">
        <ele>635.6</ele>
        <time>2020-07-04T14:16:13Z</time>
      </trkpt>
      <trkpt lat="46.8366" lon="5.84596">
        <ele>635.7</ele>
        <time>2020-07-04T14:16:15Z</time>
      </trkpt>
      <trkpt lat="46.83646" lon="5.84611">
        <ele>637</ele>
        <time>2020-07-04T14:16:25Z</time>
      </trkpt>
      <trkpt lat="46.83642" lon="5.84616">
        <ele>637.3</ele>
        <time>2020-07-04T14:16:30Z</time>
      </trkpt>
      <trkpt lat="46.83638" lon="5.84621">
        <ele>637.6</ele>
        <time>2020-07-04T14:16:34Z</time>
      </trkpt>
      <trkpt lat="46.83629" lon="5.84632">
        <ele>639.4</ele>
        <time>2020-07-04T14:16:44Z</time>
      </trkpt>
      <trkpt lat="46.83625" lon="5.84637">
        <ele>639.8</ele>
        <time>2020-07-04T14:16:47Z</time>
      </trkpt>
      <trkpt lat="46.83621" lon="5.84641">
        <ele>640.3</ele>
        <time>2020-07-04T14:16:51Z</time>
      </trkpt>
      <trkpt lat="46.83614" lon="5.84653">
        <ele>642.7</ele>
        <time>2020-07-04T14:17:11Z</time>
      </trkpt>
      <trkpt lat="46.83611" lon="5.84659">
        <ele>642.9</ele>
        <time>2020-07-04T14:17:18Z</time>
      </trkpt>
      <trkpt lat="46.83607" lon="5.84664">
        <ele>643.3</ele>
        <time>2020-07-04T14:17:26Z</time>
      </trkpt>
      <trkpt lat="46.83602" lon="5.84665">
        <ele>643.5</ele>
        <time>2020-07-04T14:17:28Z</time>
      </trkpt>
      <trkpt lat="46.83596" lon="5.84666">
        <ele>643.7</ele>
        <time>2020-07-04T14:17:30Z</time>
      </trkpt>
      <trkpt lat="46.83591" lon="5.84668">
        <ele>643.9</ele>
        <time>2020-07-04T14:17:33Z</time>
      </trkpt>
      <trkpt lat="46.83582" lon="5.84676">
        <ele>641.9</ele>
        <time>2020-07-04T14:17:47Z</time>
      </trkpt>
      <trkpt lat="46.83578" lon="5.84679">
        <ele>641</ele>
        <time>2020-07-04T14:17:52Z</time>
      </trkpt>
      <trkpt lat="46.83574" lon="5.84682">
        <ele>640</ele>
        <time>2020-07-04T14:17:57Z</time>
      </trkpt>
      <trkpt lat="46.83569" lon="5.84685">
        <ele>638.8</ele>
        <time>2020-07-04T14:18:02Z</time>
      </trkpt>
      <trkpt lat="46.83564" lon="5.84686">
        <ele>637.5</ele>
        <time>2020-07-04T14:18:07Z</time>
      </trkpt>
      <trkpt lat="46.8356" lon="5.84688">
        <ele>636.5</ele>
        <time>2020-07-04T14:18:11Z</time>
      </trkpt>
      <trkpt lat="46.83555" lon="5.84687">
        <ele>635</ele>
        <time>2020-07-04T14:18:19Z</time>
      </trkpt>
      <trkpt lat="46.83551" lon="5.84686">
        <ele>633.7</ele>
        <time>2020-07-04T14:18:26Z</time>
      </trkpt>
      <trkpt lat="46.83546" lon="5.84689">
        <ele>632.7</ele>
        <time>2020-07-04T14:18:31Z</time>
      </trkpt>
      <trkpt lat="46.83541" lon="5.84691">
        <ele>632.1</ele>
        <time>2020-07-04T14:18:37Z</time>
      </trkpt>
      <trkpt lat="46.83538" lon="5.84696">
        <ele>632.1</ele>
        <time>2020-07-04T14:18:41Z</time>
      </trkpt>
      <trkpt lat="46.83536" lon="5.84702">
        <ele>632.8</ele>
        <time>2020-07-04T14:18:52Z</time>
      </trkpt>
      <trkpt lat="46.83525" lon="5.84713">
        <ele>632.9</ele>
        <time>2020-07-04T14:19:05Z</time>
      </trkpt>
      <trkpt lat="46.8352" lon="5.84717">
        <ele>632.8</ele>
        <time>2020-07-04T14:19:10Z</time>
      </trkpt>
      <trkpt lat="46.83516" lon="5.84723">
        <ele>632.7</ele>
        <time>2020-07-04T14:19:15Z</time>
      </trkpt>
      <trkpt lat="46.83512" lon="5.84727">
        <ele>632.6</ele>
        <time>2020-07-04T14:19:19Z</time>
      </trkpt>
      <trkpt lat="46.83507" lon="5.84732">
        <ele>632.5</ele>
        <time>2020-07-04T14:19:24Z</time>
      </trkpt>
      <trkpt lat="46.83503" lon="5.84735">
        <ele>632.4</ele>
        <time>2020-07-04T14:19:28Z</time>
      </trkpt>
      <trkpt lat="46.83498" lon="5.84737">
        <ele>632.4</ele>
        <time>2020-07-04T14:19:32Z</time>
      </trkpt>
      <trkpt lat="46.83493" lon="5.8474">
        <ele>632.6</ele>
        <time>2020-07-04T14:19:37Z</time>
      </trkpt>
      <trkpt lat="46.83489" lon="5.84744">
        <ele>633.6</ele>
        <time>2020-07-04T14:19:44Z</time>
      </trkpt>
      <trkpt lat="46.83485" lon="5.84747">
        <ele>634.2</ele>
        <time>2020-07-04T14:19:47Z</time>
      </trkpt>
      <trkpt lat="46.8348" lon="5.84751">
        <ele>635.1</ele>
        <time>2020-07-04T14:19:51Z</time>
      </trkpt>
      <trkpt lat="46.83476" lon="5.84754">
        <ele>635.6</ele>
        <time>2020-07-04T14:19:54Z</time>
      </trkpt>
      <trkpt lat="46.83472" lon="5.84756">
        <ele>635.8</ele>
        <time>2020-07-04T14:19:56Z</time>
      </trkpt>
      <trkpt lat="46.83464" lon="5.84712">
        <ele>626.6</ele>
        <time>2020-07-04T14:22:33Z</time>
      </trkpt>
      <trkpt lat="46.83462" lon="5.84704">
        <ele>626.3</ele>
        <time>2020-07-04T14:22:38Z</time>
      </trkpt>
      <trkpt lat="46.8346" lon="5.84696">
        <ele>626.1</ele>
        <time>2020-07-04T14:22:41Z</time>
      </trkpt>
      <trkpt lat="46.83449" lon="5.84656">
        <ele>627.3</ele>
        <time>2020-07-04T14:23:31Z</time>
      </trkpt>
      <trkpt lat="46.83431" lon="5.8463">
        <ele>629.9</ele>
        <time>2020-07-04T14:23:58Z</time>
      </trkpt>
      <trkpt lat="46.83423" lon="5.84621">
        <ele>636.4</ele>
        <time>2020-07-04T14:25:04Z</time>
      </trkpt>
      <trkpt lat="46.83418" lon="5.84621">
        <ele>637.3</ele>
        <time>2020-07-04T14:25:07Z</time>
      </trkpt>
      <trkpt lat="46.83413" lon="5.84619">
        <ele>638.6</ele>
        <time>2020-07-04T14:25:13Z</time>
      </trkpt>
      <trkpt lat="46.83406" lon="5.84619">
        <ele>640.4</ele>
        <time>2020-07-04T14:25:23Z</time>
      </trkpt>
      <trkpt lat="46.83401" lon="5.84621">
        <ele>640.5</ele>
        <time>2020-07-04T14:25:27Z</time>
      </trkpt>
      <trkpt lat="46.83394" lon="5.84623">
        <ele>640.5</ele>
        <time>2020-07-04T14:25:42Z</time>
      </trkpt>
      <trkpt lat="46.83388" lon="5.84624">
        <ele>640.6</ele>
        <time>2020-07-04T14:25:44Z</time>
      </trkpt>
      <trkpt lat="46.83384" lon="5.84625">
        <ele>640.9</ele>
        <time>2020-07-04T14:25:51Z</time>
      </trkpt>
      <trkpt lat="46.83377" lon="5.8462">
        <ele>644</ele>
        <time>2020-07-04T14:27:12Z</time>
      </trkpt>
      <trkpt lat="46.83379" lon="5.84617">
        <ele>643.1</ele>
        <time>2020-07-04T14:28:36Z</time>
      </trkpt>
      <trkpt lat="46.8335" lon="5.84604">
        <ele>644.4</ele>
        <time>2020-07-04T14:29:39Z</time>
      </trkpt>
      <trkpt lat="46.83346" lon="5.84599">
        <ele>649.6</ele>
        <time>2020-07-04T14:31:59Z</time>
      </trkpt>
      <trkpt lat="46.83343" lon="5.84593">
        <ele>649.9</ele>
        <time>2020-07-04T14:32:09Z</time>
      </trkpt>
      <trkpt lat="46.8334" lon="5.84587">
        <ele>649.9</ele>
        <time>2020-07-04T14:32:13Z</time>
      </trkpt>
      <trkpt lat="46.83338" lon="5.84581">
        <ele>650.6</ele>
        <time>2020-07-04T14:32:24Z</time>
      </trkpt>
      <trkpt lat="46.83332" lon="5.84577">
        <ele>652.1</ele>
        <time>2020-07-04T14:32:38Z</time>
      </trkpt>
      <trkpt lat="46.83328" lon="5.84575">
        <ele>652.6</ele>
        <time>2020-07-04T14:32:48Z</time>
      </trkpt>
      <trkpt lat="46.83323" lon="5.84574">
        <ele>654</ele>
        <time>2020-07-04T14:33:08Z</time>
      </trkpt>
      <trkpt lat="46.83319" lon="5.84571">
        <ele>654.8</ele>
        <time>2020-07-04T14:33:18Z</time>
      </trkpt>
      <trkpt lat="46.83315" lon="5.84566">
        <ele>655</ele>
        <time>2020-07-04T14:33:25Z</time>
      </trkpt>
      <trkpt lat="46.83313" lon="5.84559">
        <ele>654.9</ele>
        <time>2020-07-04T14:33:28Z</time>
      </trkpt>
      <trkpt lat="46.8331" lon="5.84553">
        <ele>654.8</ele>
        <time>2020-07-04T14:33:31Z</time>
      </trkpt>
      <trkpt lat="46.83306" lon="5.84548">
        <ele>653.4</ele>
        <time>2020-07-04T14:33:45Z</time>
      </trkpt>
      <trkpt lat="46.83301" lon="5.8455">
        <ele>652.3</ele>
        <time>2020-07-04T14:34:05Z</time>
      </trkpt>
      <trkpt lat="46.83297" lon="5.84554">
        <ele>652.1</ele>
        <time>2020-07-04T14:34:09Z</time>
      </trkpt>
      <trkpt lat="46.83293" lon="5.84557">
        <ele>651.6</ele>
        <time>2020-07-04T14:34:16Z</time>
      </trkpt>
      <trkpt lat="46.83288" lon="5.84561">
        <ele>650.9</ele>
        <time>2020-07-04T14:34:49Z</time>
      </trkpt>
      <trkpt lat="46.83284" lon="5.84561">
        <ele>650.4</ele>
        <time>2020-07-04T14:34:58Z</time>
      </trkpt>
      <trkpt lat="46.83279" lon="5.84562">
        <ele>650.1</ele>
        <time>2020-07-04T14:35:02Z</time>
      </trkpt>
      <trkpt lat="46.83276" lon="5.84568">
        <ele>649</ele>
        <time>2020-07-04T14:35:10Z</time>
      </trkpt>
      <trkpt lat="46.83275" lon="5.84574">
        <ele>648</ele>
        <time>2020-07-04T14:35:21Z</time>
      </trkpt>
      <trkpt lat="46.83274" lon="5.84581">
        <ele>647.6</ele>
        <time>2020-07-04T14:35:28Z</time>
      </trkpt>
      <trkpt lat="46.83275" lon="5.84593">
        <ele>646</ele>
        <time>2020-07-04T14:36:41Z</time>
      </trkpt>
      <trkpt lat="46.83274" lon="5.846">
        <ele>645.1</ele>
        <time>2020-07-04T14:36:53Z</time>
      </trkpt>
      <trkpt lat="46.83274" lon="5.84607">
        <ele>645.2</ele>
        <time>2020-07-04T14:36:55Z</time>
      </trkpt>
      <trkpt lat="46.83274" lon="5.84618">
        <ele>645.5</ele>
        <time>2020-07-04T14:37:13Z</time>
      </trkpt>
      <trkpt lat="46.83277" lon="5.84624">
        <ele>646</ele>
        <time>2020-07-04T14:37:19Z</time>
      </trkpt>
      <trkpt lat="46.83275" lon="5.8463">
        <ele>645.2</ele>
        <time>2020-07-04T14:37:30Z</time>
      </trkpt>
      <trkpt lat="46.83271" lon="5.84635">
        <ele>644.2</ele>
        <time>2020-07-04T14:37:39Z</time>
      </trkpt>
      <trkpt lat="46.83266" lon="5.84636">
        <ele>643.6</ele>
        <time>2020-07-04T14:37:45Z</time>
      </trkpt>
      <trkpt lat="46.83261" lon="5.84639">
        <ele>642.5</ele>
        <time>2020-07-04T14:37:56Z</time>
      </trkpt>
      <trkpt lat="46.83264" lon="5.84644">
        <ele>641.4</ele>
        <time>2020-07-04T14:38:09Z</time>
      </trkpt>
      <trkpt lat="46.83274" lon="5.84652">
        <ele>639.2</ele>
        <time>2020-07-04T14:38:43Z</time>
      </trkpt>
      <trkpt lat="46.83278" lon="5.84657">
        <ele>639.4</ele>
        <time>2020-07-04T14:38:46Z</time>
      </trkpt>
      <trkpt lat="46.83282" lon="5.84665">
        <ele>640.8</ele>
        <time>2020-07-04T14:39:29Z</time>
      </trkpt>
      <trkpt lat="46.83284" lon="5.84682">
        <ele>641.5</ele>
        <time>2020-07-04T14:40:27Z</time>
      </trkpt>
      <trkpt lat="46.83281" lon="5.84745">
        <ele>641.9</ele>
        <time>2020-07-04T14:43:10Z</time>
      </trkpt>
      <trkpt lat="46.83277" lon="5.84749">
        <ele>644.4</ele>
        <time>2020-07-04T14:43:19Z</time>
      </trkpt>
      <trkpt lat="46.83273" lon="5.84753">
        <ele>648.8</ele>
        <time>2020-07-04T14:43:31Z</time>
      </trkpt>
      <trkpt lat="46.83268" lon="5.84755">
        <ele>650.1</ele>
        <time>2020-07-04T14:43:39Z</time>
      </trkpt>
      <trkpt lat="46.83263" lon="5.84755">
        <ele>650.1</ele>
        <time>2020-07-04T14:43:43Z</time>
      </trkpt>
      <trkpt lat="46.83257" lon="5.84754">
        <ele>650.2</ele>
        <time>2020-07-04T14:43:49Z</time>
      </trkpt>
      <trkpt lat="46.83251" lon="5.84753">
        <ele>650.3</ele>
        <time>2020-07-04T14:43:52Z</time>
      </trkpt>
      <trkpt lat="46.83245" lon="5.84754">
        <ele>650.3</ele>
        <time>2020-07-04T14:43:55Z</time>
      </trkpt>
      <trkpt lat="46.8324" lon="5.84753">
        <ele>650.2</ele>
        <time>2020-07-04T14:44:04Z</time>
      </trkpt>
      <trkpt lat="46.83236" lon="5.84751">
        <ele>649.8</ele>
        <time>2020-07-04T14:44:10Z</time>
      </trkpt>
      <trkpt lat="46.83231" lon="5.84752">
        <ele>649.1</ele>
        <time>2020-07-04T14:44:15Z</time>
      </trkpt>
      <trkpt lat="46.83227" lon="5.84756">
        <ele>648.4</ele>
        <time>2020-07-04T14:44:19Z</time>
      </trkpt>
      <trkpt lat="46.83222" lon="5.84758">
        <ele>647.3</ele>
        <time>2020-07-04T14:44:24Z</time>
      </trkpt>
      <trkpt lat="46.83217" lon="5.84761">
        <ele>645.8</ele>
        <time>2020-07-04T14:44:30Z</time>
      </trkpt>
      <trkpt lat="46.83212" lon="5.84762">
        <ele>644.6</ele>
        <time>2020-07-04T14:44:34Z</time>
      </trkpt>
      <trkpt lat="46.83207" lon="5.84764">
        <ele>642.8</ele>
        <time>2020-07-04T14:44:40Z</time>
      </trkpt>
      <trkpt lat="46.83203" lon="5.84768">
        <ele>640.5</ele>
        <time>2020-07-04T14:44:50Z</time>
      </trkpt>
      <trkpt lat="46.83205" lon="5.84775">
        <ele>638.9</ele>
        <time>2020-07-04T14:44:57Z</time>
      </trkpt>
      <trkpt lat="46.83204" lon="5.84782">
        <ele>638.3</ele>
        <time>2020-07-04T14:45:00Z</time>
      </trkpt>
      <trkpt lat="46.83201" lon="5.84802">
        <ele>636.5</ele>
        <time>2020-07-04T14:45:14Z</time>
      </trkpt>
      <trkpt lat="46.83207" lon="5.84811">
        <ele>638.2</ele>
        <time>2020-07-04T14:45:46Z</time>
      </trkpt>
      <trkpt lat="46.83211" lon="5.84816">
        <ele>638.5</ele>
        <time>2020-07-04T14:45:50Z</time>
      </trkpt>
      <trkpt lat="46.83208" lon="5.84822">
        <ele>638.2</ele>
        <time>2020-07-04T14:46:00Z</time>
      </trkpt>
      <trkpt lat="46.83203" lon="5.84826">
        <ele>637.5</ele>
        <time>2020-07-04T14:46:06Z</time>
      </trkpt>
      <trkpt lat="46.83199" lon="5.84832">
        <ele>636.8</ele>
        <time>2020-07-04T14:46:11Z</time>
      </trkpt>
      <trkpt lat="46.83196" lon="5.84837">
        <ele>636.1</ele>
        <time>2020-07-04T14:46:15Z</time>
      </trkpt>
      <trkpt lat="46.83194" lon="5.84843">
        <ele>635.5</ele>
        <time>2020-07-04T14:46:19Z</time>
      </trkpt>
      <trkpt lat="46.83193" lon="5.8485">
        <ele>634.7</ele>
        <time>2020-07-04T14:46:24Z</time>
      </trkpt>
      <trkpt lat="46.83193" lon="5.84858">
        <ele>633.3</ele>
        <time>2020-07-04T14:46:31Z</time>
      </trkpt>
      <trkpt lat="46.8319" lon="5.84864">
        <ele>631.7</ele>
        <time>2020-07-04T14:46:37Z</time>
      </trkpt>
      <trkpt lat="46.83186" lon="5.84867">
        <ele>629.9</ele>
        <time>2020-07-04T14:46:45Z</time>
      </trkpt>
      <trkpt lat="46.8318" lon="5.8487">
        <ele>629</ele>
        <time>2020-07-04T14:46:50Z</time>
      </trkpt>
      <trkpt lat="46.83176" lon="5.84874">
        <ele>628.6</ele>
        <time>2020-07-04T14:46:55Z</time>
      </trkpt>
      <trkpt lat="46.83172" lon="5.84878">
        <ele>628.7</ele>
        <time>2020-07-04T14:46:59Z</time>
      </trkpt>
      <trkpt lat="46.83169" lon="5.84884">
        <ele>630.5</ele>
        <time>2020-07-04T14:47:12Z</time>
      </trkpt>
      <trkpt lat="46.83165" lon="5.8489">
        <ele>631.2</ele>
        <time>2020-07-04T14:47:18Z</time>
      </trkpt>
      <trkpt lat="46.83162" lon="5.84895">
        <ele>631.6</ele>
        <time>2020-07-04T14:47:22Z</time>
      </trkpt>
      <trkpt lat="46.8316" lon="5.84902">
        <ele>631.9</ele>
        <time>2020-07-04T14:47:27Z</time>
      </trkpt>
      <trkpt lat="46.83157" lon="5.84908">
        <ele>632</ele>
        <time>2020-07-04T14:47:31Z</time>
      </trkpt>
      <trkpt lat="46.83155" lon="5.84915">
        <ele>632.1</ele>
        <time>2020-07-04T14:47:37Z</time>
      </trkpt>
      <trkpt lat="46.83153" lon="5.84922">
        <ele>632</ele>
        <time>2020-07-04T14:47:42Z</time>
      </trkpt>
      <trkpt lat="46.83152" lon="5.84929">
        <ele>632.2</ele>
        <time>2020-07-04T14:47:49Z</time>
      </trkpt>
      <trkpt lat="46.83151" lon="5.84936">
        <ele>632.2</ele>
        <time>2020-07-04T14:47:54Z</time>
      </trkpt>
      <trkpt lat="46.83151" lon="5.84943">
        <ele>632.1</ele>
        <time>2020-07-04T14:47:59Z</time>
      </trkpt>
      <trkpt lat="46.8315" lon="5.8495">
        <ele>632</ele>
        <time>2020-07-04T14:48:03Z</time>
      </trkpt>
      <trkpt lat="46.83149" lon="5.8496">
        <ele>631.8</ele>
        <time>2020-07-04T14:48:08Z</time>
      </trkpt>
      <trkpt lat="46.83149" lon="5.84968">
        <ele>632.1</ele>
        <time>2020-07-04T14:48:12Z</time>
      </trkpt>
      <trkpt lat="46.83148" lon="5.84975">
        <ele>632.6</ele>
        <time>2020-07-04T14:48:17Z</time>
      </trkpt>
      <trkpt lat="46.83147" lon="5.84983">
        <ele>633.5</ele>
        <time>2020-07-04T14:48:23Z</time>
      </trkpt>
      <trkpt lat="46.83146" lon="5.84991">
        <ele>634.1</ele>
        <time>2020-07-04T14:48:27Z</time>
      </trkpt>
      <trkpt lat="46.83145" lon="5.84997">
        <ele>634.7</ele>
        <time>2020-07-04T14:48:32Z</time>
      </trkpt>
      <trkpt lat="46.83144" lon="5.85004">
        <ele>635.1</ele>
        <time>2020-07-04T14:48:36Z</time>
      </trkpt>
      <trkpt lat="46.83142" lon="5.85011">
        <ele>636</ele>
        <time>2020-07-04T14:48:43Z</time>
      </trkpt>
      <trkpt lat="46.83139" lon="5.85017">
        <ele>636.7</ele>
        <time>2020-07-04T14:48:50Z</time>
      </trkpt>
      <trkpt lat="46.83131" lon="5.85028">
        <ele>638</ele>
        <time>2020-07-04T14:49:02Z</time>
      </trkpt>
      <trkpt lat="46.83127" lon="5.85032">
        <ele>637.8</ele>
        <time>2020-07-04T14:49:08Z</time>
      </trkpt>
      <trkpt lat="46.83123" lon="5.85038">
        <ele>637.8</ele>
        <time>2020-07-04T14:49:12Z</time>
      </trkpt>
      <trkpt lat="46.83121" lon="5.85045">
        <ele>637.8</ele>
        <time>2020-07-04T14:49:16Z</time>
      </trkpt>
      <trkpt lat="46.8312" lon="5.85052">
        <ele>637.9</ele>
        <time>2020-07-04T14:49:20Z</time>
      </trkpt>
      <trkpt lat="46.83117" lon="5.85057">
        <ele>638.2</ele>
        <time>2020-07-04T14:49:28Z</time>
      </trkpt>
      <trkpt lat="46.83112" lon="5.85061">
        <ele>638.3</ele>
        <time>2020-07-04T14:49:32Z</time>
      </trkpt>
      <trkpt lat="46.83108" lon="5.85065">
        <ele>638.2</ele>
        <time>2020-07-04T14:49:36Z</time>
      </trkpt>
      <trkpt lat="46.83103" lon="5.85068">
        <ele>637.9</ele>
        <time>2020-07-04T14:49:40Z</time>
      </trkpt>
      <trkpt lat="46.83099" lon="5.85071">
        <ele>637.5</ele>
        <time>2020-07-04T14:49:44Z</time>
      </trkpt>
      <trkpt lat="46.83095" lon="5.85075">
        <ele>637.2</ele>
        <time>2020-07-04T14:49:49Z</time>
      </trkpt>
      <trkpt lat="46.83091" lon="5.85079">
        <ele>636.9</ele>
        <time>2020-07-04T14:49:53Z</time>
      </trkpt>
      <trkpt lat="46.83087" lon="5.85083">
        <ele>636.7</ele>
        <time>2020-07-04T14:49:56Z</time>
      </trkpt>
      <trkpt lat="46.83083" lon="5.85088">
        <ele>636.5</ele>
        <time>2020-07-04T14:49:59Z</time>
      </trkpt>
      <trkpt lat="46.8308" lon="5.85093">
        <ele>636</ele>
        <time>2020-07-04T14:50:03Z</time>
      </trkpt>
      <trkpt lat="46.83076" lon="5.85098">
        <ele>635.4</ele>
        <time>2020-07-04T14:50:09Z</time>
      </trkpt>
      <trkpt lat="46.83075" lon="5.85104">
        <ele>635.2</ele>
        <time>2020-07-04T14:50:14Z</time>
      </trkpt>
      <trkpt lat="46.83072" lon="5.8511">
        <ele>634.7</ele>
        <time>2020-07-04T14:50:21Z</time>
      </trkpt>
      <trkpt lat="46.8307" lon="5.85116">
        <ele>634.6</ele>
        <time>2020-07-04T14:50:26Z</time>
      </trkpt>
      <trkpt lat="46.83067" lon="5.85122">
        <ele>634.5</ele>
        <time>2020-07-04T14:50:31Z</time>
      </trkpt>
      <trkpt lat="46.83062" lon="5.85128">
        <ele>634.3</ele>
        <time>2020-07-04T14:50:35Z</time>
      </trkpt>
      <trkpt lat="46.83058" lon="5.85131">
        <ele>633.5</ele>
        <time>2020-07-04T14:50:44Z</time>
      </trkpt>
      <trkpt lat="46.83054" lon="5.85134">
        <ele>633.1</ele>
        <time>2020-07-04T14:50:50Z</time>
      </trkpt>
      <trkpt lat="46.83051" lon="5.8514">
        <ele>633.1</ele>
        <time>2020-07-04T14:50:57Z</time>
      </trkpt>
      <trkpt lat="46.83049" lon="5.85147">
        <ele>633.2</ele>
        <time>2020-07-04T14:51:04Z</time>
      </trkpt>
      <trkpt lat="46.83047" lon="5.85154">
        <ele>633.4</ele>
        <time>2020-07-04T14:51:08Z</time>
      </trkpt>
      <trkpt lat="46.83046" lon="5.8516">
        <ele>633.6</ele>
        <time>2020-07-04T14:51:12Z</time>
      </trkpt>
      <trkpt lat="46.83045" lon="5.85168">
        <ele>633.7</ele>
        <time>2020-07-04T14:51:16Z</time>
      </trkpt>
      <trkpt lat="46.83045" lon="5.85175">
        <ele>633.8</ele>
        <time>2020-07-04T14:51:20Z</time>
      </trkpt>
      <trkpt lat="46.83044" lon="5.85182">
        <ele>633.8</ele>
        <time>2020-07-04T14:51:23Z</time>
      </trkpt>
      <trkpt lat="46.83043" lon="5.85189">
        <ele>634</ele>
        <time>2020-07-04T14:51:27Z</time>
      </trkpt>
      <trkpt lat="46.83043" lon="5.85196">
        <ele>634.2</ele>
        <time>2020-07-04T14:51:33Z</time>
      </trkpt>
      <trkpt lat="46.83041" lon="5.85202">
        <ele>634.2</ele>
        <time>2020-07-04T14:51:38Z</time>
      </trkpt>
      <trkpt lat="46.83039" lon="5.85209">
        <ele>634.2</ele>
        <time>2020-07-04T14:51:42Z</time>
      </trkpt>
      <trkpt lat="46.83039" lon="5.85215">
        <ele>634.2</ele>
        <time>2020-07-04T14:51:46Z</time>
      </trkpt>
      <trkpt lat="46.83039" lon="5.85223">
        <ele>634.2</ele>
        <time>2020-07-04T14:51:52Z</time>
      </trkpt>
      <trkpt lat="46.83037" lon="5.8523">
        <ele>634.6</ele>
        <time>2020-07-04T14:52:02Z</time>
      </trkpt>
      <trkpt lat="46.83035" lon="5.85237">
        <ele>634.7</ele>
        <time>2020-07-04T14:52:07Z</time>
      </trkpt>
      <trkpt lat="46.83035" lon="5.85244">
        <ele>634.5</ele>
        <time>2020-07-04T14:52:11Z</time>
      </trkpt>
      <trkpt lat="46.83032" lon="5.85273">
        <ele>633.6</ele>
        <time>2020-07-04T14:52:23Z</time>
      </trkpt>
      <trkpt lat="46.83029" lon="5.85283">
        <ele>633.9</ele>
        <time>2020-07-04T14:52:27Z</time>
      </trkpt>
      <trkpt lat="46.83028" lon="5.85291">
        <ele>634.5</ele>
        <time>2020-07-04T14:52:31Z</time>
      </trkpt>
      <trkpt lat="46.83028" lon="5.85299">
        <ele>635.4</ele>
        <time>2020-07-04T14:52:36Z</time>
      </trkpt>
      <trkpt lat="46.83026" lon="5.85318">
        <ele>635.7</ele>
        <time>2020-07-04T14:52:52Z</time>
      </trkpt>
      <trkpt lat="46.83025" lon="5.85325">
        <ele>635.7</ele>
        <time>2020-07-04T14:52:55Z</time>
      </trkpt>
      <trkpt lat="46.83024" lon="5.85333">
        <ele>635.9</ele>
        <time>2020-07-04T14:52:59Z</time>
      </trkpt>
      <trkpt lat="46.83023" lon="5.85341">
        <ele>636.2</ele>
        <time>2020-07-04T14:53:03Z</time>
      </trkpt>
      <trkpt lat="46.83022" lon="5.85349">
        <ele>637.1</ele>
        <time>2020-07-04T14:53:09Z</time>
      </trkpt>
      <trkpt lat="46.83022" lon="5.85355">
        <ele>637.9</ele>
        <time>2020-07-04T14:53:14Z</time>
      </trkpt>
      <trkpt lat="46.8302" lon="5.85362">
        <ele>638.6</ele>
        <time>2020-07-04T14:53:18Z</time>
      </trkpt>
      <trkpt lat="46.83019" lon="5.85369">
        <ele>639.3</ele>
        <time>2020-07-04T14:53:23Z</time>
      </trkpt>
      <trkpt lat="46.83017" lon="5.85375">
        <ele>639.9</ele>
        <time>2020-07-04T14:53:29Z</time>
      </trkpt>
      <trkpt lat="46.83016" lon="5.85382">
        <ele>640.4</ele>
        <time>2020-07-04T14:53:35Z</time>
      </trkpt>
      <trkpt lat="46.8301" lon="5.85397">
        <ele>642.5</ele>
        <time>2020-07-04T14:53:52Z</time>
      </trkpt>
      <trkpt lat="46.83009" lon="5.85404">
        <ele>642.9</ele>
        <time>2020-07-04T14:53:56Z</time>
      </trkpt>
      <trkpt lat="46.83007" lon="5.85411">
        <ele>643.5</ele>
        <time>2020-07-04T14:54:00Z</time>
      </trkpt>
      <trkpt lat="46.83006" lon="5.85418">
        <ele>644</ele>
        <time>2020-07-04T14:54:03Z</time>
      </trkpt>
      <trkpt lat="46.83004" lon="5.85424">
        <ele>645.1</ele>
        <time>2020-07-04T14:54:08Z</time>
      </trkpt>
      <trkpt lat="46.83002" lon="5.85431">
        <ele>646.3</ele>
        <time>2020-07-04T14:54:13Z</time>
      </trkpt>
      <trkpt lat="46.82999" lon="5.85436">
        <ele>647.1</ele>
        <time>2020-07-04T14:54:18Z</time>
      </trkpt>
      <trkpt lat="46.82991" lon="5.85446">
        <ele>648.5</ele>
        <time>2020-07-04T14:54:28Z</time>
      </trkpt>
      <trkpt lat="46.82988" lon="5.85452">
        <ele>648.9</ele>
        <time>2020-07-04T14:54:33Z</time>
      </trkpt>
      <trkpt lat="46.82984" lon="5.85457">
        <ele>649.4</ele>
        <time>2020-07-04T14:54:38Z</time>
      </trkpt>
      <trkpt lat="46.82981" lon="5.85463">
        <ele>649.9</ele>
        <time>2020-07-04T14:54:43Z</time>
      </trkpt>
      <trkpt lat="46.82979" lon="5.85471">
        <ele>650.2</ele>
        <time>2020-07-04T14:54:48Z</time>
      </trkpt>
      <trkpt lat="46.82976" lon="5.85477">
        <ele>650.4</ele>
        <time>2020-07-04T14:54:52Z</time>
      </trkpt>
      <trkpt lat="46.82974" lon="5.85484">
        <ele>650.3</ele>
        <time>2020-07-04T14:54:56Z</time>
      </trkpt>
      <trkpt lat="46.82972" lon="5.8549">
        <ele>650.2</ele>
        <time>2020-07-04T14:55:00Z</time>
      </trkpt>
      <trkpt lat="46.82971" lon="5.85497">
        <ele>650.1</ele>
        <time>2020-07-04T14:55:05Z</time>
      </trkpt>
      <trkpt lat="46.82969" lon="5.85504">
        <ele>649.9</ele>
        <time>2020-07-04T14:55:10Z</time>
      </trkpt>
      <trkpt lat="46.82968" lon="5.8551">
        <ele>649.8</ele>
        <time>2020-07-04T14:55:18Z</time>
      </trkpt>
      <trkpt lat="46.82969" lon="5.85517">
        <ele>648.8</ele>
        <time>2020-07-04T14:55:28Z</time>
      </trkpt>
      <trkpt lat="46.82968" lon="5.85523">
        <ele>647.9</ele>
        <time>2020-07-04T14:55:33Z</time>
      </trkpt>
      <trkpt lat="46.82965" lon="5.8553">
        <ele>647.3</ele>
        <time>2020-07-04T14:55:37Z</time>
      </trkpt>
      <trkpt lat="46.82963" lon="5.85536">
        <ele>646.8</ele>
        <time>2020-07-04T14:55:41Z</time>
      </trkpt>
      <trkpt lat="46.82959" lon="5.85542">
        <ele>646.2</ele>
        <time>2020-07-04T14:55:45Z</time>
      </trkpt>
      <trkpt lat="46.82957" lon="5.85548">
        <ele>645.5</ele>
        <time>2020-07-04T14:55:50Z</time>
      </trkpt>
      <trkpt lat="46.82955" lon="5.85555">
        <ele>645</ele>
        <time>2020-07-04T14:55:55Z</time>
      </trkpt>
      <trkpt lat="46.82953" lon="5.85561">
        <ele>644.8</ele>
        <time>2020-07-04T14:56:01Z</time>
      </trkpt>
      <trkpt lat="46.8295" lon="5.85567">
        <ele>644.5</ele>
        <time>2020-07-04T14:56:07Z</time>
      </trkpt>
      <trkpt lat="46.82948" lon="5.85573">
        <ele>644.1</ele>
        <time>2020-07-04T14:56:11Z</time>
      </trkpt>
      <trkpt lat="46.82947" lon="5.8558">
        <ele>643.8</ele>
        <time>2020-07-04T14:56:15Z</time>
      </trkpt>
      <trkpt lat="46.82946" lon="5.85587">
        <ele>643.7</ele>
        <time>2020-07-04T14:56:18Z</time>
      </trkpt>
      <trkpt lat="46.82944" lon="5.85594">
        <ele>643.6</ele>
        <time>2020-07-04T14:56:23Z</time>
      </trkpt>
      <trkpt lat="46.82942" lon="5.85602">
        <ele>643.2</ele>
        <time>2020-07-04T14:56:29Z</time>
      </trkpt>
      <trkpt lat="46.82941" lon="5.85609">
        <ele>642.7</ele>
        <time>2020-07-04T14:56:33Z</time>
      </trkpt>
      <trkpt lat="46.8294" lon="5.85617">
        <ele>642.4</ele>
        <time>2020-07-04T14:56:36Z</time>
      </trkpt>
      <trkpt lat="46.82938" lon="5.85624">
        <ele>642</ele>
        <time>2020-07-04T14:56:39Z</time>
      </trkpt>
      <trkpt lat="46.82936" lon="5.85633">
        <ele>641.8</ele>
        <time>2020-07-04T14:56:42Z</time>
      </trkpt>
      <trkpt lat="46.82934" lon="5.85642">
        <ele>641.8</ele>
        <time>2020-07-04T14:56:45Z</time>
      </trkpt>
      <trkpt lat="46.82933" lon="5.8565">
        <ele>642</ele>
        <time>2020-07-04T14:56:48Z</time>
      </trkpt>
      <trkpt lat="46.82932" lon="5.85657">
        <ele>642.4</ele>
        <time>2020-07-04T14:56:51Z</time>
      </trkpt>
      <trkpt lat="46.82931" lon="5.85664">
        <ele>642.9</ele>
        <time>2020-07-04T14:56:54Z</time>
      </trkpt>
      <trkpt lat="46.8293" lon="5.85672">
        <ele>643.6</ele>
        <time>2020-07-04T14:56:57Z</time>
      </trkpt>
      <trkpt lat="46.8293" lon="5.85679">
        <ele>644.3</ele>
        <time>2020-07-04T14:57:00Z</time>
      </trkpt>
      <trkpt lat="46.82929" lon="5.85685">
        <ele>645.2</ele>
        <time>2020-07-04T14:57:04Z</time>
      </trkpt>
      <trkpt lat="46.82929" lon="5.85693">
        <ele>646.2</ele>
        <time>2020-07-04T14:57:10Z</time>
      </trkpt>
      <trkpt lat="46.82927" lon="5.85699">
        <ele>646.6</ele>
        <time>2020-07-04T14:57:18Z</time>
      </trkpt>
      <trkpt lat="46.82926" lon="5.85706">
        <ele>646.6</ele>
        <time>2020-07-04T14:57:25Z</time>
      </trkpt>
      <trkpt lat="46.82925" lon="5.85713">
        <ele>645.8</ele>
        <time>2020-07-04T14:57:32Z</time>
      </trkpt>
      <trkpt lat="46.82925" lon="5.85719">
        <ele>645.3</ele>
        <time>2020-07-04T14:57:36Z</time>
      </trkpt>
      <trkpt lat="46.82923" lon="5.85726">
        <ele>644.7</ele>
        <time>2020-07-04T14:57:41Z</time>
      </trkpt>
      <trkpt lat="46.82923" lon="5.85734">
        <ele>644</ele>
        <time>2020-07-04T14:57:47Z</time>
      </trkpt>
      <trkpt lat="46.82921" lon="5.8574">
        <ele>643.3</ele>
        <time>2020-07-04T14:57:52Z</time>
      </trkpt>
      <trkpt lat="46.8292" lon="5.85747">
        <ele>642.9</ele>
        <time>2020-07-04T14:57:58Z</time>
      </trkpt>
      <trkpt lat="46.82919" lon="5.85754">
        <ele>642.7</ele>
        <time>2020-07-04T14:58:03Z</time>
      </trkpt>
      <trkpt lat="46.82918" lon="5.85762">
        <ele>642.5</ele>
        <time>2020-07-04T14:58:08Z</time>
      </trkpt>
      <trkpt lat="46.82917" lon="5.8577">
        <ele>642.5</ele>
        <time>2020-07-04T14:58:13Z</time>
      </trkpt>
      <trkpt lat="46.82916" lon="5.85777">
        <ele>642.5</ele>
        <time>2020-07-04T14:58:18Z</time>
      </trkpt>
      <trkpt lat="46.82915" lon="5.85784">
        <ele>642.6</ele>
        <time>2020-07-04T14:58:22Z</time>
      </trkpt>
      <trkpt lat="46.82914" lon="5.85792">
        <ele>642.5</ele>
        <time>2020-07-04T14:58:25Z</time>
      </trkpt>
      <trkpt lat="46.82913" lon="5.85799">
        <ele>642.5</ele>
        <time>2020-07-04T14:58:28Z</time>
      </trkpt>
      <trkpt lat="46.82911" lon="5.85806">
        <ele>642.4</ele>
        <time>2020-07-04T14:58:31Z</time>
      </trkpt>
      <trkpt lat="46.8291" lon="5.85815">
        <ele>642.2</ele>
        <time>2020-07-04T14:58:35Z</time>
      </trkpt>
      <trkpt lat="46.8291" lon="5.85822">
        <ele>642.1</ele>
        <time>2020-07-04T14:58:39Z</time>
      </trkpt>
      <trkpt lat="46.82908" lon="5.8583">
        <ele>642.1</ele>
        <time>2020-07-04T14:58:43Z</time>
      </trkpt>
      <trkpt lat="46.82908" lon="5.85838">
        <ele>642.1</ele>
        <time>2020-07-04T14:58:47Z</time>
      </trkpt>
      <trkpt lat="46.82907" lon="5.85845">
        <ele>642</ele>
        <time>2020-07-04T14:58:51Z</time>
      </trkpt>
      <trkpt lat="46.82906" lon="5.85853">
        <ele>641.9</ele>
        <time>2020-07-04T14:58:56Z</time>
      </trkpt>
      <trkpt lat="46.82907" lon="5.8586">
        <ele>641.9</ele>
        <time>2020-07-04T14:59:00Z</time>
      </trkpt>
      <trkpt lat="46.82909" lon="5.85867">
        <ele>642.2</ele>
        <time>2020-07-04T14:59:04Z</time>
      </trkpt>
      <trkpt lat="46.8291" lon="5.85875">
        <ele>642.8</ele>
        <time>2020-07-04T14:59:09Z</time>
      </trkpt>
      <trkpt lat="46.82911" lon="5.85882">
        <ele>643.7</ele>
        <time>2020-07-04T14:59:14Z</time>
      </trkpt>
      <trkpt lat="46.82913" lon="5.85889">
        <ele>644.5</ele>
        <time>2020-07-04T14:59:19Z</time>
      </trkpt>
      <trkpt lat="46.82916" lon="5.85896">
        <ele>645.1</ele>
        <time>2020-07-04T14:59:23Z</time>
      </trkpt>
      <trkpt lat="46.82919" lon="5.85904">
        <ele>645.6</ele>
        <time>2020-07-04T14:59:26Z</time>
      </trkpt>
      <trkpt lat="46.82922" lon="5.8591">
        <ele>646.1</ele>
        <time>2020-07-04T14:59:29Z</time>
      </trkpt>
      <trkpt lat="46.82925" lon="5.85915">
        <ele>646.8</ele>
        <time>2020-07-04T14:59:32Z</time>
      </trkpt>
      <trkpt lat="46.82928" lon="5.85922">
        <ele>647.8</ele>
        <time>2020-07-04T14:59:37Z</time>
      </trkpt>
      <trkpt lat="46.8293" lon="5.85929">
        <ele>648.6</ele>
        <time>2020-07-04T14:59:41Z</time>
      </trkpt>
      <trkpt lat="46.82932" lon="5.85936">
        <ele>649.5</ele>
        <time>2020-07-04T14:59:45Z</time>
      </trkpt>
      <trkpt lat="46.82932" lon="5.85943">
        <ele>650.6</ele>
        <time>2020-07-04T14:59:49Z</time>
      </trkpt>
      <trkpt lat="46.82932" lon="5.8595">
        <ele>652</ele>
        <time>2020-07-04T14:59:54Z</time>
      </trkpt>
      <trkpt lat="46.82932" lon="5.85957">
        <ele>653.2</ele>
        <time>2020-07-04T14:59:58Z</time>
      </trkpt>
      <trkpt lat="46.82932" lon="5.85965">
        <ele>655.1</ele>
        <time>2020-07-04T15:00:05Z</time>
      </trkpt>
      <trkpt lat="46.82932" lon="5.85972">
        <ele>656.7</ele>
        <time>2020-07-04T15:00:10Z</time>
      </trkpt>
      <trkpt lat="46.82932" lon="5.8598">
        <ele>658.4</ele>
        <time>2020-07-04T15:00:15Z</time>
      </trkpt>
      <trkpt lat="46.82926" lon="5.85978">
        <ele>662</ele>
        <time>2020-07-04T15:00:27Z</time>
      </trkpt>
      <trkpt lat="46.82922" lon="5.85975">
        <ele>662.9</ele>
        <time>2020-07-04T15:00:31Z</time>
      </trkpt>
      <trkpt lat="46.82918" lon="5.85972">
        <ele>663.9</ele>
        <time>2020-07-04T15:00:36Z</time>
      </trkpt>
      <trkpt lat="46.82913" lon="5.85972">
        <ele>665.1</ele>
        <time>2020-07-04T15:00:42Z</time>
      </trkpt>
      <trkpt lat="46.82911" lon="5.85978">
        <ele>667</ele>
        <time>2020-07-04T15:00:52Z</time>
      </trkpt>
      <trkpt lat="46.82912" lon="5.85985">
        <ele>668.7</ele>
        <time>2020-07-04T15:01:00Z</time>
      </trkpt>
      <trkpt lat="46.82912" lon="5.85991">
        <ele>670.5</ele>
        <time>2020-07-04T15:01:10Z</time>
      </trkpt>
      <trkpt lat="46.82909" lon="5.85996">
        <ele>671.3</ele>
        <time>2020-07-04T15:01:15Z</time>
      </trkpt>
      <trkpt lat="46.82904" lon="5.85999">
        <ele>672.5</ele>
        <time>2020-07-04T15:01:22Z</time>
      </trkpt>
      <trkpt lat="46.82899" lon="5.85998">
        <ele>673.5</ele>
        <time>2020-07-04T15:01:28Z</time>
      </trkpt>
      <trkpt lat="46.82894" lon="5.85996">
        <ele>674.4</ele>
        <time>2020-07-04T15:01:33Z</time>
      </trkpt>
      <trkpt lat="46.82889" lon="5.85994">
        <ele>675.5</ele>
        <time>2020-07-04T15:01:40Z</time>
      </trkpt>
      <trkpt lat="46.82884" lon="5.85992">
        <ele>676.4</ele>
        <time>2020-07-04T15:01:46Z</time>
      </trkpt>
      <trkpt lat="46.8288" lon="5.85993">
        <ele>677.1</ele>
        <time>2020-07-04T15:01:52Z</time>
      </trkpt>
      <trkpt lat="46.82875" lon="5.85993">
        <ele>677.8</ele>
        <time>2020-07-04T15:01:57Z</time>
      </trkpt>
      <trkpt lat="46.8287" lon="5.85993">
        <ele>678.6</ele>
        <time>2020-07-04T15:02:03Z</time>
      </trkpt>
      <trkpt lat="46.82866" lon="5.8599">
        <ele>679.5</ele>
        <time>2020-07-04T15:02:08Z</time>
      </trkpt>
      <trkpt lat="46.82861" lon="5.85987">
        <ele>680.9</ele>
        <time>2020-07-04T15:02:14Z</time>
      </trkpt>
      <trkpt lat="46.82857" lon="5.85984">
        <ele>682.7</ele>
        <time>2020-07-04T15:02:21Z</time>
      </trkpt>
      <trkpt lat="46.82853" lon="5.8598">
        <ele>684</ele>
        <time>2020-07-04T15:02:27Z</time>
      </trkpt>
      <trkpt lat="46.82848" lon="5.85975">
        <ele>684.7</ele>
        <time>2020-07-04T15:02:31Z</time>
      </trkpt>
      <trkpt lat="46.82843" lon="5.85973">
        <ele>685.4</ele>
        <time>2020-07-04T15:02:35Z</time>
      </trkpt>
      <trkpt lat="46.82839" lon="5.8597">
        <ele>686.2</ele>
        <time>2020-07-04T15:02:40Z</time>
      </trkpt>
      <trkpt lat="46.82833" lon="5.85968">
        <ele>686.9</ele>
        <time>2020-07-04T15:02:45Z</time>
      </trkpt>
      <trkpt lat="46.82828" lon="5.85967">
        <ele>687.4</ele>
        <time>2020-07-04T15:02:50Z</time>
      </trkpt>
      <trkpt lat="46.82823" lon="5.85968">
        <ele>687.7</ele>
        <time>2020-07-04T15:02:55Z</time>
      </trkpt>
      <trkpt lat="46.82819" lon="5.85972">
        <ele>687.7</ele>
        <time>2020-07-04T15:03:00Z</time>
      </trkpt>
      <trkpt lat="46.82823" lon="5.85975">
        <ele>689.9</ele>
        <time>2020-07-04T15:03:32Z</time>
      </trkpt>
      <trkpt lat="46.82823" lon="5.85982">
        <ele>690.5</ele>
        <time>2020-07-04T15:03:40Z</time>
      </trkpt>
      <trkpt lat="46.82821" lon="5.85988">
        <ele>690.9</ele>
        <time>2020-07-04T15:03:50Z</time>
      </trkpt>
      <trkpt lat="46.82827" lon="5.85996">
        <ele>686.4</ele>
        <time>2020-07-04T15:04:20Z</time>
      </trkpt>
      <trkpt lat="46.82823" lon="5.85999">
        <ele>684.9</ele>
        <time>2020-07-04T15:04:28Z</time>
      </trkpt>
      <trkpt lat="46.82828" lon="5.86">
        <ele>683.5</ele>
        <time>2020-07-04T15:04:49Z</time>
      </trkpt>
      <trkpt lat="46.82827" lon="5.86007">
        <ele>683.6</ele>
        <time>2020-07-04T15:05:07Z</time>
      </trkpt>
      <trkpt lat="46.82826" lon="5.86001">
        <ele>682.8</ele>
        <time>2020-07-04T15:08:40Z</time>
      </trkpt>
      <trkpt lat="46.82826" lon="5.85997">
        <ele>682.3</ele>
        <time>2020-07-04T15:10:32Z</time>
      </trkpt>
      <trkpt lat="46.82831" lon="5.86005">
        <ele>678.6</ele>
        <time>2020-07-04T15:16:04Z</time>
      </trkpt>
      <trkpt lat="46.82836" lon="5.86005">
        <ele>678.7</ele>
        <time>2020-07-04T15:16:07Z</time>
      </trkpt>
      <trkpt lat="46.82842" lon="5.86007">
        <ele>678.8</ele>
        <time>2020-07-04T15:16:09Z</time>
      </trkpt>
      <trkpt lat="46.82846" lon="5.86008">
        <ele>679</ele>
        <time>2020-07-04T15:16:13Z</time>
      </trkpt>
      <trkpt lat="46.82841" lon="5.86009">
        <ele>681.4</ele>
        <time>2020-07-04T15:17:15Z</time>
      </trkpt>
      <trkpt lat="46.82836" lon="5.86009">
        <ele>681.5</ele>
        <time>2020-07-04T15:17:18Z</time>
      </trkpt>
      <trkpt lat="46.82831" lon="5.86009">
        <ele>681.5</ele>
        <time>2020-07-04T15:17:21Z</time>
      </trkpt>
      <trkpt lat="46.82826" lon="5.8601">
        <ele>681.6</ele>
        <time>2020-07-04T15:17:25Z</time>
      </trkpt>
      <trkpt lat="46.82823" lon="5.86002">
        <ele>686.1</ele>
        <time>2020-07-04T15:21:26Z</time>
      </trkpt>
      <trkpt lat="46.82823" lon="5.85995">
        <ele>686.5</ele>
        <time>2020-07-04T15:21:29Z</time>
      </trkpt>
      <trkpt lat="46.82823" lon="5.85988">
        <ele>687.8</ele>
        <time>2020-07-04T15:21:36Z</time>
      </trkpt>
      <trkpt lat="46.82827" lon="5.85983">
        <ele>690.1</ele>
        <time>2020-07-04T15:22:02Z</time>
      </trkpt>
      <trkpt lat="46.82834" lon="5.85977">
        <ele>690.8</ele>
        <time>2020-07-04T15:23:05Z</time>
      </trkpt>
      <trkpt lat="46.82839" lon="5.8598">
        <ele>690.4</ele>
        <time>2020-07-04T15:23:18Z</time>
      </trkpt>
      <trkpt lat="46.82845" lon="5.85983">
        <ele>689.9</ele>
        <time>2020-07-04T15:23:28Z</time>
      </trkpt>
      <trkpt lat="46.82849" lon="5.85985">
        <ele>689.7</ele>
        <time>2020-07-04T15:23:34Z</time>
      </trkpt>
      <trkpt lat="46.82854" lon="5.85988">
        <ele>689.2</ele>
        <time>2020-07-04T15:23:41Z</time>
      </trkpt>
      <trkpt lat="46.82872" lon="5.85994">
        <ele>686.5</ele>
        <time>2020-07-04T15:24:00Z</time>
      </trkpt>
      <trkpt lat="46.82875" lon="5.85999">
        <ele>686</ele>
        <time>2020-07-04T15:24:10Z</time>
      </trkpt>
      <trkpt lat="46.8288" lon="5.86">
        <ele>685.6</ele>
        <time>2020-07-04T15:24:15Z</time>
      </trkpt>
      <trkpt lat="46.82887" lon="5.86">
        <ele>685.2</ele>
        <time>2020-07-04T15:24:18Z</time>
      </trkpt>
      <trkpt lat="46.82895" lon="5.85994">
        <ele>684.3</ele>
        <time>2020-07-04T15:24:33Z</time>
      </trkpt>
      <trkpt lat="46.82897" lon="5.85988">
        <ele>684</ele>
        <time>2020-07-04T15:24:37Z</time>
      </trkpt>
      <trkpt lat="46.82901" lon="5.85984">
        <ele>683.9</ele>
        <time>2020-07-04T15:24:40Z</time>
      </trkpt>
      <trkpt lat="46.82904" lon="5.8598">
        <ele>683.3</ele>
        <time>2020-07-04T15:24:46Z</time>
      </trkpt>
      <trkpt lat="46.82908" lon="5.85976">
        <ele>682.6</ele>
        <time>2020-07-04T15:24:50Z</time>
      </trkpt>
      <trkpt lat="46.82913" lon="5.85974">
        <ele>681.2</ele>
        <time>2020-07-04T15:24:57Z</time>
      </trkpt>
      <trkpt lat="46.82917" lon="5.85978">
        <ele>680</ele>
        <time>2020-07-04T15:25:04Z</time>
      </trkpt>
      <trkpt lat="46.82919" lon="5.85984">
        <ele>678.8</ele>
        <time>2020-07-04T15:25:10Z</time>
      </trkpt>
      <trkpt lat="46.82921" lon="5.8599">
        <ele>677.6</ele>
        <time>2020-07-04T15:25:16Z</time>
      </trkpt>
      <trkpt lat="46.82918" lon="5.85996">
        <ele>676.9</ele>
        <time>2020-07-04T15:25:22Z</time>
      </trkpt>
      <trkpt lat="46.82915" lon="5.86002">
        <ele>676.1</ele>
        <time>2020-07-04T15:25:28Z</time>
      </trkpt>
      <trkpt lat="46.82912" lon="5.86007">
        <ele>675.6</ele>
        <time>2020-07-04T15:25:32Z</time>
      </trkpt>
      <trkpt lat="46.82908" lon="5.86012">
        <ele>675</ele>
        <time>2020-07-04T15:25:36Z</time>
      </trkpt>
      <trkpt lat="46.82905" lon="5.86018">
        <ele>674.6</ele>
        <time>2020-07-04T15:25:41Z</time>
      </trkpt>
      <trkpt lat="46.82904" lon="5.86025">
        <ele>674.3</ele>
        <time>2020-07-04T15:25:47Z</time>
      </trkpt>
      <trkpt lat="46.82905" lon="5.86032">
        <ele>674.3</ele>
        <time>2020-07-04T15:25:52Z</time>
      </trkpt>
      <trkpt lat="46.82901" lon="5.86037">
        <ele>673.9</ele>
        <time>2020-07-04T15:25:58Z</time>
      </trkpt>
      <trkpt lat="46.82897" lon="5.86042">
        <ele>673.6</ele>
        <time>2020-07-04T15:26:03Z</time>
      </trkpt>
      <trkpt lat="46.82892" lon="5.86045">
        <ele>673.2</ele>
        <time>2020-07-04T15:26:09Z</time>
      </trkpt>
      <trkpt lat="46.82879" lon="5.86053">
        <ele>669.5</ele>
        <time>2020-07-04T15:26:23Z</time>
      </trkpt>
      <trkpt lat="46.82875" lon="5.86056">
        <ele>668.6</ele>
        <time>2020-07-04T15:26:27Z</time>
      </trkpt>
      <trkpt lat="46.82871" lon="5.86059">
        <ele>667.6</ele>
        <time>2020-07-04T15:26:30Z</time>
      </trkpt>
      <trkpt lat="46.82866" lon="5.86062">
        <ele>666</ele>
        <time>2020-07-04T15:26:35Z</time>
      </trkpt>
      <trkpt lat="46.82861" lon="5.86061">
        <ele>663.4</ele>
        <time>2020-07-04T15:26:54Z</time>
      </trkpt>
      <trkpt lat="46.82856" lon="5.86062">
        <ele>663.2</ele>
        <time>2020-07-04T15:26:57Z</time>
      </trkpt>
      <trkpt lat="46.82852" lon="5.86064">
        <ele>663</ele>
        <time>2020-07-04T15:27:02Z</time>
      </trkpt>
      <trkpt lat="46.82846" lon="5.8607">
        <ele>662.9</ele>
        <time>2020-07-04T15:27:08Z</time>
      </trkpt>
      <trkpt lat="46.82843" lon="5.86075">
        <ele>662.5</ele>
        <time>2020-07-04T15:27:15Z</time>
      </trkpt>
      <trkpt lat="46.82846" lon="5.86079">
        <ele>660.7</ele>
        <time>2020-07-04T15:27:40Z</time>
      </trkpt>
      <trkpt lat="46.82849" lon="5.86085">
        <ele>660.3</ele>
        <time>2020-07-04T15:27:52Z</time>
      </trkpt>
      <trkpt lat="46.82853" lon="5.86091">
        <ele>660.4</ele>
        <time>2020-07-04T15:27:57Z</time>
      </trkpt>
      <trkpt lat="46.82856" lon="5.86097">
        <ele>660.4</ele>
        <time>2020-07-04T15:28:04Z</time>
      </trkpt>
      <trkpt lat="46.82857" lon="5.86104">
        <ele>660.2</ele>
        <time>2020-07-04T15:28:08Z</time>
      </trkpt>
      <trkpt lat="46.82867" lon="5.86127">
        <ele>660.4</ele>
        <time>2020-07-04T15:28:26Z</time>
      </trkpt>
      <trkpt lat="46.82871" lon="5.86132">
        <ele>660.5</ele>
        <time>2020-07-04T15:28:36Z</time>
      </trkpt>
      <trkpt lat="46.82874" lon="5.86137">
        <ele>660</ele>
        <time>2020-07-04T15:28:42Z</time>
      </trkpt>
      <trkpt lat="46.82877" lon="5.86143">
        <ele>658.2</ele>
        <time>2020-07-04T15:28:50Z</time>
      </trkpt>
      <trkpt lat="46.82885" lon="5.86154">
        <ele>652.4</ele>
        <time>2020-07-04T15:29:11Z</time>
      </trkpt>
      <trkpt lat="46.8289" lon="5.8616">
        <ele>650.9</ele>
        <time>2020-07-04T15:29:19Z</time>
      </trkpt>
      <trkpt lat="46.82895" lon="5.86164">
        <ele>650.4</ele>
        <time>2020-07-04T15:29:21Z</time>
      </trkpt>
      <trkpt lat="46.82898" lon="5.86169">
        <ele>649.8</ele>
        <time>2020-07-04T15:29:23Z</time>
      </trkpt>
      <trkpt lat="46.82902" lon="5.86175">
        <ele>648.5</ele>
        <time>2020-07-04T15:29:28Z</time>
      </trkpt>
      <trkpt lat="46.82903" lon="5.86181">
        <ele>647.3</ele>
        <time>2020-07-04T15:29:33Z</time>
      </trkpt>
      <trkpt lat="46.82906" lon="5.86187">
        <ele>646.4</ele>
        <time>2020-07-04T15:29:38Z</time>
      </trkpt>
      <trkpt lat="46.82909" lon="5.86193">
        <ele>645.4</ele>
        <time>2020-07-04T15:29:44Z</time>
      </trkpt>
      <trkpt lat="46.82913" lon="5.86198">
        <ele>644.2</ele>
        <time>2020-07-04T15:29:50Z</time>
      </trkpt>
      <trkpt lat="46.82915" lon="5.86204">
        <ele>643.3</ele>
        <time>2020-07-04T15:29:55Z</time>
      </trkpt>
      <trkpt lat="46.82918" lon="5.8621">
        <ele>642.4</ele>
        <time>2020-07-04T15:30:01Z</time>
      </trkpt>
      <trkpt lat="46.82919" lon="5.86216">
        <ele>641.5</ele>
        <time>2020-07-04T15:30:06Z</time>
      </trkpt>
      <trkpt lat="46.82919" lon="5.86223">
        <ele>639.8</ele>
        <time>2020-07-04T15:30:12Z</time>
      </trkpt>
      <trkpt lat="46.82919" lon="5.8623">
        <ele>637.7</ele>
        <time>2020-07-04T15:30:18Z</time>
      </trkpt>
      <trkpt lat="46.82916" lon="5.86236">
        <ele>636.8</ele>
        <time>2020-07-04T15:30:21Z</time>
      </trkpt>
      <trkpt lat="46.82913" lon="5.86242">
        <ele>635.5</ele>
        <time>2020-07-04T15:30:27Z</time>
      </trkpt>
      <trkpt lat="46.8291" lon="5.86246">
        <ele>634.4</ele>
        <time>2020-07-04T15:30:31Z</time>
      </trkpt>
      <trkpt lat="46.82906" lon="5.86253">
        <ele>632.6</ele>
        <time>2020-07-04T15:30:36Z</time>
      </trkpt>
      <trkpt lat="46.82904" lon="5.86259">
        <ele>630.5</ele>
        <time>2020-07-04T15:30:41Z</time>
      </trkpt>
      <trkpt lat="46.82904" lon="5.86265">
        <ele>628.1</ele>
        <time>2020-07-04T15:30:47Z</time>
      </trkpt>
      <trkpt lat="46.82904" lon="5.86273">
        <ele>624.7</ele>
        <time>2020-07-04T15:30:55Z</time>
      </trkpt>
      <trkpt lat="46.82903" lon="5.86281">
        <ele>622.7</ele>
        <time>2020-07-04T15:31:00Z</time>
      </trkpt>
      <trkpt lat="46.82904" lon="5.86288">
        <ele>620.1</ele>
        <time>2020-07-04T15:31:15Z</time>
      </trkpt>
      <trkpt lat="46.82904" lon="5.86297">
        <ele>620.4</ele>
        <time>2020-07-04T15:31:21Z</time>
      </trkpt>
      <trkpt lat="46.82904" lon="5.86304">
        <ele>621</ele>
        <time>2020-07-04T15:31:44Z</time>
      </trkpt>
      <trkpt lat="46.82903" lon="5.86311">
        <ele>621.3</ele>
        <time>2020-07-04T15:31:47Z</time>
      </trkpt>
      <trkpt lat="46.82903" lon="5.86321">
        <ele>621.6</ele>
        <time>2020-07-04T15:31:50Z</time>
      </trkpt>
      <trkpt lat="46.82904" lon="5.86327">
        <ele>622.3</ele>
        <time>2020-07-04T15:31:59Z</time>
      </trkpt>
      <trkpt lat="46.82901" lon="5.86334">
        <ele>624.7</ele>
        <time>2020-07-04T15:32:19Z</time>
      </trkpt>
      <trkpt lat="46.82906" lon="5.86335">
        <ele>628.7</ele>
        <time>2020-07-04T15:34:31Z</time>
      </trkpt>
      <trkpt lat="46.82901" lon="5.86339">
        <ele>627.7</ele>
        <time>2020-07-04T15:34:38Z</time>
      </trkpt>
      <trkpt lat="46.82897" lon="5.86342">
        <ele>627</ele>
        <time>2020-07-04T15:34:42Z</time>
      </trkpt>
      <trkpt lat="46.82892" lon="5.86346">
        <ele>626.2</ele>
        <time>2020-07-04T15:34:46Z</time>
      </trkpt>
      <trkpt lat="46.82888" lon="5.86349">
        <ele>625.4</ele>
        <time>2020-07-04T15:34:50Z</time>
      </trkpt>
      <trkpt lat="46.82884" lon="5.86352">
        <ele>624.7</ele>
        <time>2020-07-04T15:34:55Z</time>
      </trkpt>
      <trkpt lat="46.82886" lon="5.86361">
        <ele>625.3</ele>
        <time>2020-07-04T15:35:08Z</time>
      </trkpt>
      <trkpt lat="46.82889" lon="5.86367">
        <ele>625.9</ele>
        <time>2020-07-04T15:35:10Z</time>
      </trkpt>
      <trkpt lat="46.82893" lon="5.86373">
        <ele>626.7</ele>
        <time>2020-07-04T15:35:13Z</time>
      </trkpt>
      <trkpt lat="46.82897" lon="5.86377">
        <ele>627.9</ele>
        <time>2020-07-04T15:35:17Z</time>
      </trkpt>
      <trkpt lat="46.82902" lon="5.86377">
        <ele>629.7</ele>
        <time>2020-07-04T15:35:25Z</time>
      </trkpt>
      <trkpt lat="46.82907" lon="5.86376">
        <ele>629.9</ele>
        <time>2020-07-04T15:35:28Z</time>
      </trkpt>
      <trkpt lat="46.82918" lon="5.86366">
        <ele>631.7</ele>
        <time>2020-07-04T15:37:46Z</time>
      </trkpt>
      <trkpt lat="46.82923" lon="5.86367">
        <ele>632</ele>
        <time>2020-07-04T15:37:50Z</time>
      </trkpt>
      <trkpt lat="46.82929" lon="5.86368">
        <ele>632.4</ele>
        <time>2020-07-04T15:37:54Z</time>
      </trkpt>
      <trkpt lat="46.82934" lon="5.86368">
        <ele>632.8</ele>
        <time>2020-07-04T15:37:59Z</time>
      </trkpt>
      <trkpt lat="46.82939" lon="5.86367">
        <ele>633.1</ele>
        <time>2020-07-04T15:38:04Z</time>
      </trkpt>
      <trkpt lat="46.82944" lon="5.86366">
        <ele>633.4</ele>
        <time>2020-07-04T15:38:10Z</time>
      </trkpt>
      <trkpt lat="46.82949" lon="5.86372">
        <ele>635.5</ele>
        <time>2020-07-04T15:38:35Z</time>
      </trkpt>
      <trkpt lat="46.82945" lon="5.86375">
        <ele>635.9</ele>
        <time>2020-07-04T15:38:39Z</time>
      </trkpt>
      <trkpt lat="46.82939" lon="5.86378">
        <ele>636.4</ele>
        <time>2020-07-04T15:38:43Z</time>
      </trkpt>
      <trkpt lat="46.82934" lon="5.8638">
        <ele>636.6</ele>
        <time>2020-07-04T15:38:46Z</time>
      </trkpt>
      <trkpt lat="46.82929" lon="5.86382">
        <ele>636.9</ele>
        <time>2020-07-04T15:38:50Z</time>
      </trkpt>
      <trkpt lat="46.82924" lon="5.86385">
        <ele>636.9</ele>
        <time>2020-07-04T15:38:54Z</time>
      </trkpt>
      <trkpt lat="46.82919" lon="5.86387">
        <ele>637</ele>
        <time>2020-07-04T15:38:59Z</time>
      </trkpt>
      <trkpt lat="46.82914" lon="5.86388">
        <ele>637</ele>
        <time>2020-07-04T15:39:03Z</time>
      </trkpt>
      <trkpt lat="46.82909" lon="5.8639">
        <ele>637</ele>
        <time>2020-07-04T15:39:09Z</time>
      </trkpt>
      <trkpt lat="46.82906" lon="5.86394">
        <ele>636.9</ele>
        <time>2020-07-04T15:39:15Z</time>
      </trkpt>
      <trkpt lat="46.82901" lon="5.86397">
        <ele>636.6</ele>
        <time>2020-07-04T15:39:20Z</time>
      </trkpt>
      <trkpt lat="46.82896" lon="5.864">
        <ele>636.8</ele>
        <time>2020-07-04T15:39:25Z</time>
      </trkpt>
      <trkpt lat="46.82892" lon="5.86403">
        <ele>637.3</ele>
        <time>2020-07-04T15:39:30Z</time>
      </trkpt>
      <trkpt lat="46.82888" lon="5.86406">
        <ele>637.9</ele>
        <time>2020-07-04T15:39:35Z</time>
      </trkpt>
      <trkpt lat="46.82883" lon="5.86407">
        <ele>638.3</ele>
        <time>2020-07-04T15:39:41Z</time>
      </trkpt>
      <trkpt lat="46.82878" lon="5.86409">
        <ele>638.5</ele>
        <time>2020-07-04T15:39:45Z</time>
      </trkpt>
      <trkpt lat="46.82873" lon="5.86409">
        <ele>638.8</ele>
        <time>2020-07-04T15:39:49Z</time>
      </trkpt>
      <trkpt lat="46.82868" lon="5.8641">
        <ele>638.9</ele>
        <time>2020-07-04T15:39:55Z</time>
      </trkpt>
      <trkpt lat="46.82858" lon="5.86419">
        <ele>640.2</ele>
        <time>2020-07-04T15:40:19Z</time>
      </trkpt>
      <trkpt lat="46.82855" lon="5.86423">
        <ele>640.5</ele>
        <time>2020-07-04T15:40:24Z</time>
      </trkpt>
      <trkpt lat="46.8285" lon="5.86426">
        <ele>640.6</ele>
        <time>2020-07-04T15:40:28Z</time>
      </trkpt>
      <trkpt lat="46.82845" lon="5.86429">
        <ele>640.4</ele>
        <time>2020-07-04T15:40:32Z</time>
      </trkpt>
      <trkpt lat="46.8284" lon="5.86433">
        <ele>640.1</ele>
        <time>2020-07-04T15:40:36Z</time>
      </trkpt>
      <trkpt lat="46.82837" lon="5.86438">
        <ele>640</ele>
        <time>2020-07-04T15:40:40Z</time>
      </trkpt>
      <trkpt lat="46.82833" lon="5.86444">
        <ele>640.1</ele>
        <time>2020-07-04T15:40:45Z</time>
      </trkpt>
      <trkpt lat="46.82828" lon="5.86447">
        <ele>640.1</ele>
        <time>2020-07-04T15:40:49Z</time>
      </trkpt>
      <trkpt lat="46.82824" lon="5.86449">
        <ele>640.1</ele>
        <time>2020-07-04T15:40:56Z</time>
      </trkpt>
      <trkpt lat="46.8282" lon="5.86453">
        <ele>640.3</ele>
        <time>2020-07-04T15:41:04Z</time>
      </trkpt>
      <trkpt lat="46.82817" lon="5.86461">
        <ele>640.3</ele>
        <time>2020-07-04T15:41:09Z</time>
      </trkpt>
      <trkpt lat="46.82814" lon="5.86467">
        <ele>640.4</ele>
        <time>2020-07-04T15:41:13Z</time>
      </trkpt>
      <trkpt lat="46.82811" lon="5.86472">
        <ele>640.2</ele>
        <time>2020-07-04T15:41:18Z</time>
      </trkpt>
      <trkpt lat="46.8281" lon="5.86479">
        <ele>640.3</ele>
        <time>2020-07-04T15:41:26Z</time>
      </trkpt>
      <trkpt lat="46.82807" lon="5.86484">
        <ele>640.5</ele>
        <time>2020-07-04T15:41:31Z</time>
      </trkpt>
      <trkpt lat="46.82805" lon="5.86491">
        <ele>641.4</ele>
        <time>2020-07-04T15:41:40Z</time>
      </trkpt>
      <trkpt lat="46.82806" lon="5.86498">
        <ele>642</ele>
        <time>2020-07-04T15:41:45Z</time>
      </trkpt>
      <trkpt lat="46.8281" lon="5.86503">
        <ele>642.8</ele>
        <time>2020-07-04T15:41:51Z</time>
      </trkpt>
      <trkpt lat="46.82814" lon="5.86505">
        <ele>643.5</ele>
        <time>2020-07-04T15:41:56Z</time>
      </trkpt>
      <trkpt lat="46.82819" lon="5.86509">
        <ele>644</ele>
        <time>2020-07-04T15:42:01Z</time>
      </trkpt>
      <trkpt lat="46.82823" lon="5.86512">
        <ele>644.4</ele>
        <time>2020-07-04T15:42:07Z</time>
      </trkpt>
      <trkpt lat="46.82827" lon="5.86516">
        <ele>644.5</ele>
        <time>2020-07-04T15:42:12Z</time>
      </trkpt>
      <trkpt lat="46.82833" lon="5.86518">
        <ele>644.6</ele>
        <time>2020-07-04T15:42:16Z</time>
      </trkpt>
      <trkpt lat="46.82838" lon="5.8652">
        <ele>644.9</ele>
        <time>2020-07-04T15:42:21Z</time>
      </trkpt>
      <trkpt lat="46.82842" lon="5.86524">
        <ele>645.3</ele>
        <time>2020-07-04T15:42:24Z</time>
      </trkpt>
      <trkpt lat="46.82848" lon="5.86527">
        <ele>646.1</ele>
        <time>2020-07-04T15:42:29Z</time>
      </trkpt>
      <trkpt lat="46.82852" lon="5.86528">
        <ele>646.7</ele>
        <time>2020-07-04T15:42:33Z</time>
      </trkpt>
      <trkpt lat="46.82857" lon="5.86531">
        <ele>647.3</ele>
        <time>2020-07-04T15:42:38Z</time>
      </trkpt>
      <trkpt lat="46.82862" lon="5.86533">
        <ele>647.8</ele>
        <time>2020-07-04T15:42:43Z</time>
      </trkpt>
      <trkpt lat="46.82866" lon="5.86538">
        <ele>648.4</ele>
        <time>2020-07-04T15:42:48Z</time>
      </trkpt>
      <trkpt lat="46.82869" lon="5.86543">
        <ele>649.5</ele>
        <time>2020-07-04T15:42:54Z</time>
      </trkpt>
      <trkpt lat="46.82872" lon="5.86548">
        <ele>650.4</ele>
        <time>2020-07-04T15:42:59Z</time>
      </trkpt>
      <trkpt lat="46.82875" lon="5.86552">
        <ele>651.8</ele>
        <time>2020-07-04T15:43:06Z</time>
      </trkpt>
      <trkpt lat="46.82879" lon="5.86557">
        <ele>652.3</ele>
        <time>2020-07-04T15:43:12Z</time>
      </trkpt>
      <trkpt lat="46.82882" lon="5.86563">
        <ele>652.4</ele>
        <time>2020-07-04T15:43:18Z</time>
      </trkpt>
      <trkpt lat="46.82892" lon="5.86579">
        <ele>653.3</ele>
        <time>2020-07-04T15:43:34Z</time>
      </trkpt>
      <trkpt lat="46.82895" lon="5.86584">
        <ele>653.9</ele>
        <time>2020-07-04T15:43:42Z</time>
      </trkpt>
      <trkpt lat="46.82901" lon="5.86587">
        <ele>654</ele>
        <time>2020-07-04T15:43:50Z</time>
      </trkpt>
      <trkpt lat="46.82905" lon="5.8659">
        <ele>653.6</ele>
        <time>2020-07-04T15:43:56Z</time>
      </trkpt>
      <trkpt lat="46.8291" lon="5.86593">
        <ele>653.2</ele>
        <time>2020-07-04T15:44:03Z</time>
      </trkpt>
      <trkpt lat="46.82914" lon="5.86595">
        <ele>653.2</ele>
        <time>2020-07-04T15:44:11Z</time>
      </trkpt>
      <trkpt lat="46.82919" lon="5.86597">
        <ele>653.8</ele>
        <time>2020-07-04T15:44:18Z</time>
      </trkpt>
      <trkpt lat="46.82923" lon="5.86598">
        <ele>655</ele>
        <time>2020-07-04T15:44:26Z</time>
      </trkpt>
      <trkpt lat="46.82928" lon="5.86601">
        <ele>655.8</ele>
        <time>2020-07-04T15:44:33Z</time>
      </trkpt>
      <trkpt lat="46.82933" lon="5.86603">
        <ele>656.3</ele>
        <time>2020-07-04T15:44:38Z</time>
      </trkpt>
      <trkpt lat="46.82937" lon="5.86606">
        <ele>656.6</ele>
        <time>2020-07-04T15:44:42Z</time>
      </trkpt>
      <trkpt lat="46.82941" lon="5.8661">
        <ele>656.8</ele>
        <time>2020-07-04T15:44:45Z</time>
      </trkpt>
      <trkpt lat="46.82946" lon="5.86613">
        <ele>657.4</ele>
        <time>2020-07-04T15:44:52Z</time>
      </trkpt>
      <trkpt lat="46.82952" lon="5.86614">
        <ele>657.6</ele>
        <time>2020-07-04T15:44:55Z</time>
      </trkpt>
      <trkpt lat="46.82957" lon="5.86614">
        <ele>657.9</ele>
        <time>2020-07-04T15:44:59Z</time>
      </trkpt>
      <trkpt lat="46.82963" lon="5.86615">
        <ele>658.3</ele>
        <time>2020-07-04T15:45:04Z</time>
      </trkpt>
      <trkpt lat="46.82968" lon="5.86617">
        <ele>658.5</ele>
        <time>2020-07-04T15:45:07Z</time>
      </trkpt>
      <trkpt lat="46.82973" lon="5.86618">
        <ele>658.7</ele>
        <time>2020-07-04T15:45:10Z</time>
      </trkpt>
      <trkpt lat="46.82979" lon="5.86621">
        <ele>659.3</ele>
        <time>2020-07-04T15:45:14Z</time>
      </trkpt>
      <trkpt lat="46.82984" lon="5.86626">
        <ele>659.7</ele>
        <time>2020-07-04T15:45:17Z</time>
      </trkpt>
      <trkpt lat="46.82988" lon="5.8663">
        <ele>660.1</ele>
        <time>2020-07-04T15:45:20Z</time>
      </trkpt>
      <trkpt lat="46.82992" lon="5.86635">
        <ele>660.7</ele>
        <time>2020-07-04T15:45:24Z</time>
      </trkpt>
      <trkpt lat="46.82998" lon="5.86638">
        <ele>661.3</ele>
        <time>2020-07-04T15:45:29Z</time>
      </trkpt>
      <trkpt lat="46.83003" lon="5.8664">
        <ele>661.6</ele>
        <time>2020-07-04T15:45:33Z</time>
      </trkpt>
      <trkpt lat="46.83007" lon="5.86641">
        <ele>661.8</ele>
        <time>2020-07-04T15:45:38Z</time>
      </trkpt>
      <trkpt lat="46.83013" lon="5.86644">
        <ele>662.2</ele>
        <time>2020-07-04T15:45:43Z</time>
      </trkpt>
      <trkpt lat="46.83018" lon="5.86647">
        <ele>662.6</ele>
        <time>2020-07-04T15:45:47Z</time>
      </trkpt>
      <trkpt lat="46.83022" lon="5.8665">
        <ele>663</ele>
        <time>2020-07-04T15:45:51Z</time>
      </trkpt>
      <trkpt lat="46.83027" lon="5.86654">
        <ele>663.5</ele>
        <time>2020-07-04T15:45:56Z</time>
      </trkpt>
      <trkpt lat="46.83031" lon="5.86659">
        <ele>664</ele>
        <time>2020-07-04T15:46:01Z</time>
      </trkpt>
      <trkpt lat="46.83035" lon="5.86663">
        <ele>664.3</ele>
        <time>2020-07-04T15:46:05Z</time>
      </trkpt>
      <trkpt lat="46.83039" lon="5.86667">
        <ele>664.6</ele>
        <time>2020-07-04T15:46:09Z</time>
      </trkpt>
      <trkpt lat="46.83044" lon="5.86672">
        <ele>664.8</ele>
        <time>2020-07-04T15:46:13Z</time>
      </trkpt>
      <trkpt lat="46.83048" lon="5.86676">
        <ele>665.3</ele>
        <time>2020-07-04T15:46:18Z</time>
      </trkpt>
      <trkpt lat="46.83053" lon="5.86679">
        <ele>665.8</ele>
        <time>2020-07-04T15:46:23Z</time>
      </trkpt>
      <trkpt lat="46.83057" lon="5.86682">
        <ele>666.5</ele>
        <time>2020-07-04T15:46:29Z</time>
      </trkpt>
      <trkpt lat="46.83061" lon="5.86686">
        <ele>667.1</ele>
        <time>2020-07-04T15:46:35Z</time>
      </trkpt>
      <trkpt lat="46.83065" lon="5.86691">
        <ele>667.2</ele>
        <time>2020-07-04T15:46:42Z</time>
      </trkpt>
      <trkpt lat="46.83068" lon="5.86696">
        <ele>667.1</ele>
        <time>2020-07-04T15:46:50Z</time>
      </trkpt>
      <trkpt lat="46.83066" lon="5.86703">
        <ele>667.2</ele>
        <time>2020-07-04T15:46:57Z</time>
      </trkpt>
      <trkpt lat="46.83069" lon="5.86708">
        <ele>668.7</ele>
        <time>2020-07-04T15:47:14Z</time>
      </trkpt>
      <trkpt lat="46.83062" lon="5.86713">
        <ele>665.6</ele>
        <time>2020-07-04T15:48:24Z</time>
      </trkpt>
      <trkpt lat="46.83061" lon="5.8672">
        <ele>665.6</ele>
        <time>2020-07-04T15:48:28Z</time>
      </trkpt>
      <trkpt lat="46.83066" lon="5.86743">
        <ele>662.3</ele>
        <time>2020-07-04T15:50:25Z</time>
      </trkpt>
      <trkpt lat="46.83094" lon="5.86743">
        <ele>681.3</ele>
        <time>2020-07-04T15:52:30Z</time>
      </trkpt>
      <trkpt lat="46.83101" lon="5.86753">
        <ele>682.9</ele>
        <time>2020-07-04T15:52:57Z</time>
      </trkpt>
      <trkpt lat="46.83107" lon="5.86756">
        <ele>682.7</ele>
        <time>2020-07-04T15:52:59Z</time>
      </trkpt>
      <trkpt lat="46.83111" lon="5.86758">
        <ele>682.2</ele>
        <time>2020-07-04T15:53:03Z</time>
      </trkpt>
      <trkpt lat="46.83116" lon="5.86762">
        <ele>681.7</ele>
        <time>2020-07-04T15:53:07Z</time>
      </trkpt>
      <trkpt lat="46.83121" lon="5.86765">
        <ele>681.6</ele>
        <time>2020-07-04T15:53:13Z</time>
      </trkpt>
      <trkpt lat="46.83125" lon="5.86767">
        <ele>682.7</ele>
        <time>2020-07-04T15:53:23Z</time>
      </trkpt>
      <trkpt lat="46.8313" lon="5.86767">
        <ele>683.4</ele>
        <time>2020-07-04T15:53:28Z</time>
      </trkpt>
      <trkpt lat="46.83142" lon="5.86782">
        <ele>684.3</ele>
        <time>2020-07-04T15:53:41Z</time>
      </trkpt>
      <trkpt lat="46.83148" lon="5.86786">
        <ele>684.2</ele>
        <time>2020-07-04T15:53:43Z</time>
      </trkpt>
      <trkpt lat="46.83152" lon="5.86791">
        <ele>684</ele>
        <time>2020-07-04T15:53:45Z</time>
      </trkpt>
      <trkpt lat="46.83158" lon="5.86796">
        <ele>683.8</ele>
        <time>2020-07-04T15:53:47Z</time>
      </trkpt>
      <trkpt lat="46.83162" lon="5.86801">
        <ele>683.6</ele>
        <time>2020-07-04T15:53:49Z</time>
      </trkpt>
      <trkpt lat="46.83166" lon="5.86804">
        <ele>682.3</ele>
        <time>2020-07-04T15:54:00Z</time>
      </trkpt>
      <trkpt lat="46.83168" lon="5.86798">
        <ele>681.5</ele>
        <time>2020-07-04T15:54:09Z</time>
      </trkpt>
      <trkpt lat="46.83167" lon="5.86792">
        <ele>680.6</ele>
        <time>2020-07-04T15:54:15Z</time>
      </trkpt>
      <trkpt lat="46.83163" lon="5.86786">
        <ele>680.1</ele>
        <time>2020-07-04T15:54:17Z</time>
      </trkpt>
      <trkpt lat="46.83159" lon="5.86781">
        <ele>678.8</ele>
        <time>2020-07-04T15:54:21Z</time>
      </trkpt>
      <trkpt lat="46.83154" lon="5.86778">
        <ele>676.3</ele>
        <time>2020-07-04T15:54:28Z</time>
      </trkpt>
      <trkpt lat="46.83148" lon="5.86776">
        <ele>675.7</ele>
        <time>2020-07-04T15:54:30Z</time>
      </trkpt>
      <trkpt lat="46.83143" lon="5.86776">
        <ele>675.2</ele>
        <time>2020-07-04T15:54:32Z</time>
      </trkpt>
      <trkpt lat="46.83138" lon="5.86776">
        <ele>674.6</ele>
        <time>2020-07-04T15:54:35Z</time>
      </trkpt>
      <trkpt lat="46.83133" lon="5.86777">
        <ele>674.2</ele>
        <time>2020-07-04T15:54:37Z</time>
      </trkpt>
      <trkpt lat="46.83128" lon="5.86776">
        <ele>673.7</ele>
        <time>2020-07-04T15:54:42Z</time>
      </trkpt>
      <trkpt lat="46.8312" lon="5.86767">
        <ele>673.1</ele>
        <time>2020-07-04T15:55:05Z</time>
      </trkpt>
      <trkpt lat="46.83115" lon="5.86761">
        <ele>673</ele>
        <time>2020-07-04T15:55:07Z</time>
      </trkpt>
      <trkpt lat="46.83111" lon="5.86757">
        <ele>672.8</ele>
        <time>2020-07-04T15:55:11Z</time>
      </trkpt>
      <trkpt lat="46.83102" lon="5.86755">
        <ele>671.2</ele>
        <time>2020-07-04T15:55:27Z</time>
      </trkpt>
      <trkpt lat="46.83098" lon="5.8675">
        <ele>670.5</ele>
        <time>2020-07-04T15:55:36Z</time>
      </trkpt>
      <trkpt lat="46.83096" lon="5.86744">
        <ele>668.7</ele>
        <time>2020-07-04T15:55:52Z</time>
      </trkpt>
      <trkpt lat="46.83092" lon="5.8674">
        <ele>664.1</ele>
        <time>2020-07-04T15:56:35Z</time>
      </trkpt>
      <trkpt lat="46.83089" lon="5.86735">
        <ele>662.9</ele>
        <time>2020-07-04T15:56:58Z</time>
      </trkpt>
      <trkpt lat="46.83086" lon="5.8673">
        <ele>661.3</ele>
        <time>2020-07-04T15:57:11Z</time>
      </trkpt>
      <trkpt lat="46.83082" lon="5.86725">
        <ele>660.6</ele>
        <time>2020-07-04T15:57:17Z</time>
      </trkpt>
      <trkpt lat="46.83079" lon="5.86721">
        <ele>660</ele>
        <time>2020-07-04T15:57:23Z</time>
      </trkpt>
      <trkpt lat="46.83081" lon="5.86724">
        <ele>659.1</ele>
        <time>2020-07-04T15:58:26Z</time>
      </trkpt>
      <trkpt lat="46.83086" lon="5.86726">
        <ele>660.1</ele>
        <time>2020-07-04T15:58:38Z</time>
      </trkpt>
      <trkpt lat="46.83089" lon="5.86731">
        <ele>660.7</ele>
        <time>2020-07-04T15:58:47Z</time>
      </trkpt>
      <trkpt lat="46.83093" lon="5.86735">
        <ele>660.1</ele>
        <time>2020-07-04T15:58:53Z</time>
      </trkpt>
      <trkpt lat="46.831" lon="5.8674">
        <ele>659.6</ele>
        <time>2020-07-04T15:58:57Z</time>
      </trkpt>
      <trkpt lat="46.83104" lon="5.86744">
        <ele>659.3</ele>
        <time>2020-07-04T15:58:59Z</time>
      </trkpt>
      <trkpt lat="46.83108" lon="5.86749">
        <ele>658.7</ele>
        <time>2020-07-04T15:59:04Z</time>
      </trkpt>
      <trkpt lat="46.83113" lon="5.86753">
        <ele>658.1</ele>
        <time>2020-07-04T15:59:08Z</time>
      </trkpt>
      <trkpt lat="46.83116" lon="5.86758">
        <ele>656.4</ele>
        <time>2020-07-04T15:59:21Z</time>
      </trkpt>
      <trkpt lat="46.83121" lon="5.86762">
        <ele>655.8</ele>
        <time>2020-07-04T15:59:36Z</time>
      </trkpt>
      <trkpt lat="46.83125" lon="5.86765">
        <ele>655.6</ele>
        <time>2020-07-04T15:59:48Z</time>
      </trkpt>
      <trkpt lat="46.8313" lon="5.86767">
        <ele>655.9</ele>
        <time>2020-07-04T16:00:05Z</time>
      </trkpt>
      <trkpt lat="46.83134" lon="5.86771">
        <ele>656.1</ele>
        <time>2020-07-04T16:00:08Z</time>
      </trkpt>
      <trkpt lat="46.83138" lon="5.86774">
        <ele>656.2</ele>
        <time>2020-07-04T16:00:14Z</time>
      </trkpt>
      <trkpt lat="46.83149" lon="5.86788">
        <ele>656.5</ele>
        <time>2020-07-04T16:00:35Z</time>
      </trkpt>
      <trkpt lat="46.83149" lon="5.86796">
        <ele>659</ele>
        <time>2020-07-04T16:00:48Z</time>
      </trkpt>
      <trkpt lat="46.83152" lon="5.86802">
        <ele>661.7</ele>
        <time>2020-07-04T16:00:59Z</time>
      </trkpt>
      <trkpt lat="46.83154" lon="5.86808">
        <ele>663.4</ele>
        <time>2020-07-04T16:01:06Z</time>
      </trkpt>
      <trkpt lat="46.83155" lon="5.86817">
        <ele>663.9</ele>
        <time>2020-07-04T16:01:08Z</time>
      </trkpt>
      <trkpt lat="46.83159" lon="5.86822">
        <ele>664.4</ele>
        <time>2020-07-04T16:01:10Z</time>
      </trkpt>
      <trkpt lat="46.83163" lon="5.86826">
        <ele>666</ele>
        <time>2020-07-04T16:01:17Z</time>
      </trkpt>
      <trkpt lat="46.83169" lon="5.86835">
        <ele>671.6</ele>
        <time>2020-07-04T16:01:34Z</time>
      </trkpt>
      <trkpt lat="46.83173" lon="5.86841">
        <ele>672.2</ele>
        <time>2020-07-04T16:01:37Z</time>
      </trkpt>
      <trkpt lat="46.83178" lon="5.86846">
        <ele>672.5</ele>
        <time>2020-07-04T16:01:39Z</time>
      </trkpt>
      <trkpt lat="46.83182" lon="5.86849">
        <ele>672.9</ele>
        <time>2020-07-04T16:01:44Z</time>
      </trkpt>
      <trkpt lat="46.83186" lon="5.86853">
        <ele>673.6</ele>
        <time>2020-07-04T16:01:52Z</time>
      </trkpt>
      <trkpt lat="46.83189" lon="5.86858">
        <ele>674.6</ele>
        <time>2020-07-04T16:02:01Z</time>
      </trkpt>
      <trkpt lat="46.83194" lon="5.8686">
        <ele>674.7</ele>
        <time>2020-07-04T16:02:05Z</time>
      </trkpt>
      <trkpt lat="46.83199" lon="5.86859">
        <ele>675</ele>
        <time>2020-07-04T16:02:10Z</time>
      </trkpt>
      <trkpt lat="46.83205" lon="5.86862">
        <ele>675.1</ele>
        <time>2020-07-04T16:02:15Z</time>
      </trkpt>
      <trkpt lat="46.8321" lon="5.86866">
        <ele>675.3</ele>
        <time>2020-07-04T16:02:17Z</time>
      </trkpt>
      <trkpt lat="46.83214" lon="5.8687">
        <ele>675.3</ele>
        <time>2020-07-04T16:02:19Z</time>
      </trkpt>
      <trkpt lat="46.83219" lon="5.86872">
        <ele>675.3</ele>
        <time>2020-07-04T16:02:23Z</time>
      </trkpt>
      <trkpt lat="46.83224" lon="5.86873">
        <ele>675.2</ele>
        <time>2020-07-04T16:02:27Z</time>
      </trkpt>
      <trkpt lat="46.83228" lon="5.86873">
        <ele>675</ele>
        <time>2020-07-04T16:02:30Z</time>
      </trkpt>
      <trkpt lat="46.83233" lon="5.86874">
        <ele>674.6</ele>
        <time>2020-07-04T16:02:37Z</time>
      </trkpt>
      <trkpt lat="46.83238" lon="5.86871">
        <ele>673.8</ele>
        <time>2020-07-04T16:02:47Z</time>
      </trkpt>
      <trkpt lat="46.83243" lon="5.86871">
        <ele>672.5</ele>
        <time>2020-07-04T16:02:56Z</time>
      </trkpt>
      <trkpt lat="46.83247" lon="5.86874">
        <ele>670</ele>
        <time>2020-07-04T16:03:10Z</time>
      </trkpt>
      <trkpt lat="46.83252" lon="5.86877">
        <ele>668.7</ele>
        <time>2020-07-04T16:03:16Z</time>
      </trkpt>
      <trkpt lat="46.83256" lon="5.86881">
        <ele>667.9</ele>
        <time>2020-07-04T16:03:20Z</time>
      </trkpt>
      <trkpt lat="46.83259" lon="5.86886">
        <ele>667.2</ele>
        <time>2020-07-04T16:03:23Z</time>
      </trkpt>
      <trkpt lat="46.83263" lon="5.86888">
        <ele>666.5</ele>
        <time>2020-07-04T16:03:28Z</time>
      </trkpt>
      <trkpt lat="46.83268" lon="5.8689">
        <ele>665.7</ele>
        <time>2020-07-04T16:03:34Z</time>
      </trkpt>
      <trkpt lat="46.83272" lon="5.86893">
        <ele>664.4</ele>
        <time>2020-07-04T16:03:43Z</time>
      </trkpt>
      <trkpt lat="46.83275" lon="5.86899">
        <ele>662.4</ele>
        <time>2020-07-04T16:03:52Z</time>
      </trkpt>
      <trkpt lat="46.83283" lon="5.86904">
        <ele>657.2</ele>
        <time>2020-07-04T16:04:07Z</time>
      </trkpt>
      <trkpt lat="46.83288" lon="5.86907">
        <ele>656.7</ele>
        <time>2020-07-04T16:04:11Z</time>
      </trkpt>
      <trkpt lat="46.83291" lon="5.86911">
        <ele>656.4</ele>
        <time>2020-07-04T16:04:16Z</time>
      </trkpt>
      <trkpt lat="46.83297" lon="5.86912">
        <ele>656.8</ele>
        <time>2020-07-04T16:04:27Z</time>
      </trkpt>
      <trkpt lat="46.83301" lon="5.86913">
        <ele>657.2</ele>
        <time>2020-07-04T16:04:33Z</time>
      </trkpt>
      <trkpt lat="46.83307" lon="5.86917">
        <ele>658.3</ele>
        <time>2020-07-04T16:04:46Z</time>
      </trkpt>
      <trkpt lat="46.83312" lon="5.8692">
        <ele>658.7</ele>
        <time>2020-07-04T16:04:50Z</time>
      </trkpt>
      <trkpt lat="46.83322" lon="5.86926">
        <ele>662</ele>
        <time>2020-07-04T16:05:11Z</time>
      </trkpt>
      <trkpt lat="46.83328" lon="5.86931">
        <ele>663.1</ele>
        <time>2020-07-04T16:05:18Z</time>
      </trkpt>
      <trkpt lat="46.83332" lon="5.86934">
        <ele>663.7</ele>
        <time>2020-07-04T16:05:22Z</time>
      </trkpt>
      <trkpt lat="46.83337" lon="5.86937">
        <ele>664.7</ele>
        <time>2020-07-04T16:05:28Z</time>
      </trkpt>
      <trkpt lat="46.83343" lon="5.86942">
        <ele>666</ele>
        <time>2020-07-04T16:05:46Z</time>
      </trkpt>
      <trkpt lat="46.83347" lon="5.86946">
        <ele>666.2</ele>
        <time>2020-07-04T16:05:49Z</time>
      </trkpt>
      <trkpt lat="46.83352" lon="5.86949">
        <ele>666.2</ele>
        <time>2020-07-04T16:05:57Z</time>
      </trkpt>
      <trkpt lat="46.83356" lon="5.86953">
        <ele>666</ele>
        <time>2020-07-04T16:06:04Z</time>
      </trkpt>
      <trkpt lat="46.8336" lon="5.86956">
        <ele>665.6</ele>
        <time>2020-07-04T16:06:09Z</time>
      </trkpt>
      <trkpt lat="46.83365" lon="5.86958">
        <ele>665.3</ele>
        <time>2020-07-04T16:06:16Z</time>
      </trkpt>
      <trkpt lat="46.83369" lon="5.86958">
        <ele>665.5</ele>
        <time>2020-07-04T16:06:26Z</time>
      </trkpt>
      <trkpt lat="46.83378" lon="5.8697">
        <ele>668.1</ele>
        <time>2020-07-04T16:07:17Z</time>
      </trkpt>
      <trkpt lat="46.83382" lon="5.86973">
        <ele>667.5</ele>
        <time>2020-07-04T16:07:20Z</time>
      </trkpt>
      <trkpt lat="46.83387" lon="5.86974">
        <ele>666.6</ele>
        <time>2020-07-04T16:07:25Z</time>
      </trkpt>
      <trkpt lat="46.83395" lon="5.86974">
        <ele>664</ele>
        <time>2020-07-04T16:07:36Z</time>
      </trkpt>
      <trkpt lat="46.834" lon="5.86972">
        <ele>663.8</ele>
        <time>2020-07-04T16:07:45Z</time>
      </trkpt>
      <trkpt lat="46.83406" lon="5.86974">
        <ele>663.7</ele>
        <time>2020-07-04T16:07:48Z</time>
      </trkpt>
      <trkpt lat="46.83412" lon="5.86974">
        <ele>663.7</ele>
        <time>2020-07-04T16:07:53Z</time>
      </trkpt>
      <trkpt lat="46.83417" lon="5.86976">
        <ele>663.8</ele>
        <time>2020-07-04T16:07:57Z</time>
      </trkpt>
      <trkpt lat="46.83422" lon="5.86978">
        <ele>663.9</ele>
        <time>2020-07-04T16:08:02Z</time>
      </trkpt>
      <trkpt lat="46.83427" lon="5.86979">
        <ele>663.4</ele>
        <time>2020-07-04T16:08:08Z</time>
      </trkpt>
      <trkpt lat="46.83432" lon="5.8698">
        <ele>662.2</ele>
        <time>2020-07-04T16:08:14Z</time>
      </trkpt>
      <trkpt lat="46.83433" lon="5.86987">
        <ele>661</ele>
        <time>2020-07-04T16:08:18Z</time>
      </trkpt>
      <trkpt lat="46.83436" lon="5.86995">
        <ele>659.8</ele>
        <time>2020-07-04T16:08:22Z</time>
      </trkpt>
      <trkpt lat="46.83442" lon="5.87006">
        <ele>654.5</ele>
        <time>2020-07-04T16:08:35Z</time>
      </trkpt>
      <trkpt lat="46.83444" lon="5.87012">
        <ele>652.9</ele>
        <time>2020-07-04T16:08:39Z</time>
      </trkpt>
      <trkpt lat="46.83445" lon="5.87019">
        <ele>650.9</ele>
        <time>2020-07-04T16:08:44Z</time>
      </trkpt>
      <trkpt lat="46.83448" lon="5.87024">
        <ele>649.3</ele>
        <time>2020-07-04T16:08:49Z</time>
      </trkpt>
    </trkseg>
  </trk>
</gpx>